Time,TemperatureF,DewpointF,PressureIn,WindDirection,WindDirectionDegrees,WindSpeedMPH,WindSpeedGustMPH,Humidity,HourlyPrecipIn,Conditions,Clouds,dailyrainin,SoftwareType,DateUTC
2013-06-11 00:00:00,76.3,75.4,30.03,SSW,200,9.0,12.0,97,0.00,,BKN200,0.00,VWS V14.01,2013-06-11 04:00:00,
2013-06-11 00:01:00,76.3,75.4,30.03,SW,217,11.0,11.0,97,0.00,,OVC080,0.00,VWS V14.01,2013-06-11 04:01:00,
2013-06-11 00:02:00,76.3,75.4,30.03,SW,232,9.0,11.0,97,0.00,,BKN200,0.00,VWS V14.01,2013-06-11 04:02:00,
2013-06-11 00:03:00,76.3,75.1,30.03,SW,219,11.0,13.0,96,0.00,,BKN200,0.00,VWS V14.01,2013-06-11 04:03:00,
2013-06-11 00:04:00,76.3,75.1,30.03,South,188,9.0,12.0,96,0.00,,BKN200,0.00,VWS V14.01,2013-06-11 04:04:00,
2013-06-11 00:05:00,76.3,75.4,30.03,SSW,194,11.0,11.0,97,0.00,,BKN200,0.00,VWS V14.01,2013-06-11 04:05:00,
2013-06-11 00:06:00,76.3,75.4,30.03,SSW,202,10.0,12.0,97,0.00,,OVC080,0.00,VWS V14.01,2013-06-11 04:06:00,
2013-06-11 00:07:00,76.3,75.4,30.03,SSW,202,10.0,12.0,97,0.00,,BKN200,0.00,VWS V14.01,2013-06-11 04:07:00,
2013-06-11 00:08:00,76.5,75.3,30.03,SSW,196,9.0,10.0,96,0.00,,BKN200,0.00,VWS V14.01,2013-06-11 04:08:00,
2013-06-11 00:09:00,76.5,75.6,30.03,SSW,196,10.0,11.0,97,0.00,,BKN200,0.00,VWS V14.01,2013-06-11 04:09:00,
2013-06-11 00:10:00,76.5,75.6,30.03,South,172,11.0,13.0,97,0.00,,BKN200,0.00,VWS V14.01,2013-06-11 04:10:00,
2013-06-11 00:11:00,76.5,75.6,30.03,SW,214,9.0,12.0,97,0.00,,OVC080,0.00,VWS V14.01,2013-06-11 04:11:00,
2013-06-11 00:12:00,76.5,75.6,30.03,SSW,211,11.0,12.0,97,0.00,,BKN200,0.00,VWS V14.01,2013-06-11 04:12:00,
2013-06-11 00:13:00,76.5,75.6,30.03,SSW,196,6.0,13.0,97,0.00,,BKN200,0.00,VWS V14.01,2013-06-11 04:13:00,
2013-06-11 00:14:00,76.5,75.3,30.03,SSW,209,11.0,11.0,96,0.00,,BKN200,0.00,VWS V14.01,2013-06-11 04:14:00,
2013-06-11 00:15:00,76.5,75.6,30.03,South,191,9.0,12.0,97,0.00,,BKN200,0.00,VWS V14.01,2013-06-11 04:15:00,
2013-06-11 00:16:00,76.5,75.3,30.03,SSW,205,12.0,13.0,96,0.00,,OVC080,0.00,VWS V14.01,2013-06-11 04:16:00,
2013-06-11 00:17:00,76.5,75.3,30.03,South,183,14.0,14.0,96,0.00,,BKN200,0.00,VWS V14.01,2013-06-11 04:17:00,
2013-06-11 00:18:00,76.5,75.3,30.03,SSW,202,10.0,14.0,96,0.00,,BKN200,0.00,VWS V14.01,2013-06-11 04:18:00,
2013-06-11 00:19:00,76.5,75.3,30.03,SSW,207,9.0,10.0,96,0.00,,BKN200,0.00,VWS V14.01,2013-06-11 04:19:00,
2013-06-11 00:20:00,76.7,75.8,30.03,SSW,192,12.0,12.0,97,0.00,,BKN200,0.00,VWS V14.01,2013-06-11 04:20:00,
2013-06-11 00:21:00,76.7,75.5,30.03,SSW,203,8.0,12.0,96,0.00,,OVC080,0.00,VWS V14.01,2013-06-11 04:21:00,
2013-06-11 00:22:00,76.7,75.5,30.03,SSW,203,8.0,12.0,96,0.00,,BKN200,0.00,VWS V14.01,2013-06-11 04:22:00,
2013-06-11 00:23:00,76.7,75.5,30.03,SSW,206,10.0,12.0,96,0.00,,BKN200,0.00,VWS V14.01,2013-06-11 04:23:00,
2013-06-11 00:24:00,76.7,75.5,30.03,SSW,199,13.0,13.0,96,0.00,,BKN200,0.00,VWS V14.01,2013-06-11 04:24:00,
2013-06-11 00:25:00,76.7,75.5,30.03,SSW,198,9.0,14.0,96,0.00,,BKN200,0.00,VWS V14.01,2013-06-11 04:25:00,
2013-06-11 00:26:00,76.7,75.5,30.03,SW,228,10.0,12.0,96,0.00,,OVC080,0.00,VWS V14.01,2013-06-11 04:26:00,
2013-06-11 00:27:00,76.7,75.5,30.03,South,190,12.0,13.0,96,0.00,,BKN200,0.00,VWS V14.01,2013-06-11 04:27:00,
2013-06-11 00:28:00,76.8,75.6,30.03,South,186,13.0,13.0,96,0.00,,BKN200,0.00,VWS V14.01,2013-06-11 04:28:00,
2013-06-11 00:29:00,76.7,75.5,30.03,SSW,210,10.0,14.0,96,0.00,,BKN200,0.00,VWS V14.01,2013-06-11 04:29:00,
2013-06-11 00:30:00,76.8,75.6,30.03,SW,226,12.0,12.0,96,0.00,,BKN200,0.00,VWS V14.01,2013-06-11 04:30:00,
2013-06-11 00:31:00,76.8,75.3,30.03,SW,228,12.0,15.0,95,0.00,,OVC080,0.00,VWS V14.01,2013-06-11 04:31:00,
2013-06-11 00:32:00,76.8,75.3,30.03,SW,228,12.0,15.0,95,0.00,,BKN200,0.00,VWS V14.01,2013-06-11 04:32:00,
2013-06-11 00:33:00,76.8,75.3,30.02,SSW,207,13.0,13.0,95,0.00,,BKN200,0.00,VWS V14.01,2013-06-11 04:33:00,
2013-06-11 00:34:00,76.8,75.3,30.02,SSW,193,12.0,13.0,95,0.00,,BKN200,0.00,VWS V14.01,2013-06-11 04:34:00,
2013-06-11 00:35:00,76.8,74.9,30.02,SW,220,12.0,12.0,94,0.00,,BKN200,0.00,VWS V14.01,2013-06-11 04:35:00,
2013-06-11 00:36:00,77.0,75.5,30.03,South,187,11.0,12.0,95,0.00,,OVC080,0.00,VWS V14.01,2013-06-11 04:36:00,
2013-06-11 00:37:00,77.0,75.5,30.03,South,183,12.0,12.0,95,0.00,,BKN200,0.00,VWS V14.01,2013-06-11 04:37:00,
2013-06-11 00:38:00,77.0,75.1,30.03,SSW,194,11.0,12.0,94,0.00,,BKN200,0.00,VWS V14.01,2013-06-11 04:38:00,
2013-06-11 00:39:00,77.2,75.3,30.03,SSW,205,11.0,12.0,94,0.00,,BKN200,0.00,VWS V14.01,2013-06-11 04:39:00,
2013-06-11 00:40:00,77.2,75.3,30.03,SW,224,11.0,14.0,94,0.00,,BKN200,0.00,VWS V14.01,2013-06-11 04:40:00,
2013-06-11 00:41:00,77.2,75.0,30.03,SSW,196,11.0,13.0,93,0.00,,CLR,0.00,VWS V14.01,2013-06-11 04:41:00,
2013-06-11 00:42:00,77.2,75.0,30.03,SSW,196,11.0,13.0,93,0.00,,BKN200,0.00,VWS V14.01,2013-06-11 04:42:00,
2013-06-11 00:43:00,77.2,75.0,30.03,SSW,203,13.0,13.0,93,0.00,,BKN200,0.00,VWS V14.01,2013-06-11 04:43:00,
2013-06-11 00:44:00,77.4,75.2,30.03,SW,219,11.0,14.0,93,0.00,,BKN200,0.00,VWS V14.01,2013-06-11 04:44:00,
2013-06-11 00:45:00,77.4,75.2,30.03,South,184,12.0,12.0,93,0.00,,BKN200,0.00,VWS V14.01,2013-06-11 04:45:00,
2013-06-11 00:46:00,77.4,75.2,30.02,SW,218,9.0,14.0,93,0.00,,CLR,0.00,VWS V14.01,2013-06-11 04:46:00,
2013-06-11 00:47:00,77.4,75.2,30.02,SW,218,9.0,14.0,93,0.00,,BKN200,0.00,VWS V14.01,2013-06-11 04:47:00,
2013-06-11 00:48:00,77.4,74.9,30.02,SSW,206,16.0,17.0,92,0.00,,BKN200,0.00,VWS V14.01,2013-06-11 04:48:00,
2013-06-11 00:49:00,77.4,74.9,30.02,SW,235,11.0,16.0,92,0.00,,BKN200,0.00,VWS V14.01,2013-06-11 04:49:00,
2013-06-11 00:50:00,77.6,75.4,30.02,SW,218,11.0,12.0,93,0.00,,BKN200,0.00,VWS V14.01,2013-06-11 04:50:00,
2013-06-11 00:51:00,77.6,75.1,30.02,SSW,196,12.0,14.0,92,0.00,,CLR,0.00,VWS V14.01,2013-06-11 04:51:00,
2013-06-11 00:52:00,77.6,75.1,30.02,SSW,196,12.0,14.0,92,0.00,,BKN200,0.00,VWS V14.01,2013-06-11 04:52:00,
2013-06-11 00:53:00,77.7,75.5,30.02,SSW,193,11.0,13.0,93,0.00,,BKN200,0.00,VWS V14.01,2013-06-11 04:53:00,
2013-06-11 00:54:00,77.7,75.5,30.02,SW,214,10.0,11.0,93,0.00,,BKN200,0.00,VWS V14.01,2013-06-11 04:54:00,
2013-06-11 00:55:00,77.7,75.5,30.02,SSW,211,9.0,12.0,93,0.00,,BKN200,0.00,VWS V14.01,2013-06-11 04:55:00,
2013-06-11 00:56:00,77.7,75.5,30.02,SSW,211,12.0,13.0,93,0.00,,CLR,0.00,VWS V14.01,2013-06-11 04:56:00,
2013-06-11 00:57:00,77.7,75.5,30.02,SSW,211,12.0,13.0,93,0.00,,BKN200,0.00,VWS V14.01,2013-06-11 04:57:00,
2013-06-11 00:58:00,77.9,75.7,30.02,SW,214,12.0,14.0,93,0.00,,BKN200,0.00,VWS V14.01,2013-06-11 04:58:00,
2013-06-11 00:59:00,77.9,75.7,30.02,South,191,12.0,14.0,93,0.00,,BKN200,0.00,VWS V14.01,2013-06-11 04:59:00,
2013-06-11 01:00:00,77.9,75.7,30.02,SSW,205,16.0,16.0,93,0.00,,BKN200,0.00,VWS V14.01,2013-06-11 05:00:00,
2013-06-11 01:01:00,77.9,75.7,30.02,South,188,6.0,14.0,93,0.00,,CLR,0.00,VWS V14.01,2013-06-11 05:01:00,
2013-06-11 01:02:00,77.9,75.7,30.02,South,188,6.0,14.0,93,0.00,,BKN200,0.00,VWS V14.01,2013-06-11 05:02:00,
2013-06-11 01:03:00,78.1,76.2,30.02,SW,214,11.0,12.0,94,0.00,,BKN200,0.00,VWS V14.01,2013-06-11 05:03:00,
2013-06-11 01:04:00,78.1,76.2,30.02,SW,215,9.0,11.0,94,0.00,,BKN200,0.00,VWS V14.01,2013-06-11 05:04:00,
2013-06-11 01:05:00,78.1,75.9,30.02,SSW,201,11.0,11.0,93,0.00,,BKN200,0.00,VWS V14.01,2013-06-11 05:05:00,
2013-06-11 01:06:00,78.1,76.2,30.02,SSW,199,12.0,12.0,94,0.00,,CLR,0.00,VWS V14.01,2013-06-11 05:06:00,
2013-06-11 01:07:00,78.1,76.2,30.02,SW,217,9.0,10.0,94,0.00,,BKN200,0.00,VWS V14.01,2013-06-11 05:07:00,
2013-06-11 01:08:00,78.1,76.2,30.02,SW,228,11.0,13.0,94,0.00,,BKN200,0.00,VWS V14.01,2013-06-11 05:08:00,
2013-06-11 01:09:00,78.1,76.2,30.02,SSW,202,11.0,12.0,94,0.00,,BKN200,0.00,VWS V14.01,2013-06-11 05:09:00,
2013-06-11 01:10:00,78.1,76.2,30.02,SSW,207,11.0,11.0,94,0.00,,BKN200,0.00,VWS V14.01,2013-06-11 05:10:00,
2013-06-11 01:11:00,78.1,76.2,30.01,SSW,211,12.0,12.0,94,0.00,,CLR,0.00,VWS V14.01,2013-06-11 05:11:00,
2013-06-11 01:12:00,78.1,76.2,30.01,SSW,211,12.0,12.0,94,0.00,,BKN200,0.00,VWS V14.01,2013-06-11 05:12:00,
2013-06-11 01:13:00,78.1,76.2,30.02,SSW,196,13.0,15.0,94,0.00,,BKN200,0.00,VWS V14.01,2013-06-11 05:13:00,
2013-06-11 01:14:00,78.1,76.2,30.01,SSW,207,14.0,16.0,94,0.00,,BKN200,0.00,VWS V14.01,2013-06-11 05:14:00,
2013-06-11 01:15:00,77.9,76.0,30.02,SSW,201,14.0,15.0,94,0.00,,BKN200,0.00,VWS V14.01,2013-06-11 05:15:00,
2013-06-11 01:16:00,77.9,76.0,30.01,SSW,197,11.0,15.0,94,0.00,,CLR,0.00,VWS V14.01,2013-06-11 05:16:00,
2013-06-11 01:17:00,77.9,76.0,30.01,SSW,197,11.0,15.0,94,0.00,,BKN200,0.00,VWS V14.01,2013-06-11 05:17:00,
2013-06-11 01:18:00,77.9,76.0,30.01,SW,218,13.0,14.0,94,0.00,,BKN200,0.00,VWS V14.01,2013-06-11 05:18:00,
2013-06-11 01:19:00,78.1,76.2,30.02,SW,219,12.0,13.0,94,0.00,,BKN200,0.00,VWS V14.01,2013-06-11 05:19:00,
2013-06-11 01:20:00,78.1,76.2,30.02,SSW,192,12.0,13.0,94,0.00,,BKN200,0.00,VWS V14.01,2013-06-11 05:20:00,
2013-06-11 01:21:00,78.3,76.4,30.01,SW,225,14.0,14.0,94,0.00,,CLR,0.00,VWS V14.01,2013-06-11 05:21:00,
2013-06-11 01:22:00,78.1,76.2,30.02,SSW,193,13.0,13.0,94,0.00,,BKN200,0.00,VWS V14.01,2013-06-11 05:22:00,
2013-06-11 01:23:00,78.3,76.4,30.01,SSW,196,11.0,14.0,94,0.00,,BKN200,0.00,VWS V14.01,2013-06-11 05:23:00,
2013-06-11 01:24:00,78.3,76.4,30.01,SSW,204,11.0,12.0,94,0.00,,BKN200,0.00,VWS V14.01,2013-06-11 05:24:00,
2013-06-11 01:25:00,78.3,76.4,30.02,SSW,204,12.0,14.0,94,0.00,,BKN200,0.00,VWS V14.01,2013-06-11 05:25:00,
2013-06-11 01:26:00,78.3,76.4,30.01,South,190,16.0,16.0,94,0.00,,CLR,0.00,VWS V14.01,2013-06-11 05:26:00,
2013-06-11 01:27:00,78.3,76.4,30.01,SSW,202,16.0,16.0,94,0.00,,BKN200,0.00,VWS V14.01,2013-06-11 05:27:00,
2013-06-11 01:28:00,78.3,76.4,30.01,SSW,205,13.0,16.0,94,0.00,,BKN200,0.00,VWS V14.01,2013-06-11 05:28:00,
2013-06-11 01:29:00,78.3,76.4,30.01,South,188,16.0,16.0,94,0.00,,BKN200,0.00,VWS V14.01,2013-06-11 05:29:00,
2013-06-11 01:30:00,78.3,76.4,30.01,SSW,197,16.0,16.0,94,0.00,,BKN200,0.00,VWS V14.01,2013-06-11 05:30:00,
2013-06-11 01:31:00,78.5,76.6,30.01,SSW,202,14.0,14.0,94,0.00,,CLR,0.00,VWS V14.01,2013-06-11 05:31:00,
2013-06-11 01:32:00,78.5,76.6,30.01,SSW,195,11.0,16.0,94,0.00,,BKN200,0.00,VWS V14.01,2013-06-11 05:32:00,
2013-06-11 01:33:00,78.5,76.6,30.01,SSW,193,14.0,14.0,94,0.00,,BKN200,0.00,VWS V14.01,2013-06-11 05:33:00,
2013-06-11 01:34:00,78.5,76.6,30.01,SSW,196,11.0,17.0,94,0.00,,BKN200,0.00,VWS V14.01,2013-06-11 05:34:00,
2013-06-11 01:35:00,78.5,76.6,30.01,South,182,18.0,18.0,94,0.00,,BKN200,0.00,VWS V14.01,2013-06-11 05:35:00,
2013-06-11 01:36:00,78.5,76.6,30.01,South,187,14.0,14.0,94,0.00,,CLR,0.00,VWS V14.01,2013-06-11 05:36:00,
2013-06-11 01:37:00,78.5,76.6,30.01,South,183,14.0,17.0,94,0.00,,BKN200,0.00,VWS V14.01,2013-06-11 05:37:00,
2013-06-11 01:38:00,78.5,76.6,30.01,SSW,205,14.0,18.0,94,0.00,,BKN200,0.00,VWS V14.01,2013-06-11 05:38:00,
2013-06-11 01:39:00,78.5,76.9,30.01,SW,222,15.0,17.0,95,0.00,,BKN200,0.00,VWS V14.01,2013-06-11 05:39:00,
2013-06-11 01:40:00,78.5,76.6,30.01,SSW,211,17.0,17.0,94,0.00,,BKN200,0.00,VWS V14.01,2013-06-11 05:40:00,
2013-06-11 01:41:00,78.5,76.6,30.01,SSW,194,17.0,17.0,94,0.00,,CLR,0.00,VWS V14.01,2013-06-11 05:41:00,
2013-06-11 01:42:00,78.5,76.6,30.01,SSW,192,17.0,17.0,94,0.00,,BKN200,0.00,VWS V14.01,2013-06-11 05:42:00,
2013-06-11 01:43:00,78.5,76.6,30.01,SSW,208,12.0,17.0,94,0.00,,BKN200,0.00,VWS V14.01,2013-06-11 05:43:00,
2013-06-11 01:44:00,78.5,76.9,30.01,SSW,200,16.0,17.0,95,0.00,,BKN200,0.00,VWS V14.01,2013-06-11 05:44:00,
2013-06-11 01:45:00,78.5,76.9,30.01,South,185,17.0,17.0,95,0.00,,BKN200,0.00,VWS V14.01,2013-06-11 05:45:00,
2013-06-11 01:46:00,78.6,77.1,30.01,South,177,14.0,14.0,95,0.00,,CLR,0.00,VWS V14.01,2013-06-11 05:46:00,
2013-06-11 01:47:00,78.6,77.1,30.01,SSW,193,13.0,16.0,95,0.00,,BKN200,0.00,VWS V14.01,2013-06-11 05:47:00,
2013-06-11 01:48:00,78.6,77.1,30.01,South,188,13.0,14.0,95,0.00,,BKN200,0.00,VWS V14.01,2013-06-11 05:48:00,
2013-06-11 01:49:00,78.6,77.1,30.01,South,181,14.0,17.0,95,0.00,,BKN200,0.00,VWS V14.01,2013-06-11 05:49:00,
2013-06-11 01:50:00,78.6,77.1,30.01,South,186,14.0,14.0,95,0.00,,BKN200,0.00,VWS V14.01,2013-06-11 05:50:00,
2013-06-11 01:51:00,78.6,77.1,30.01,SSE,165,18.0,18.0,95,0.00,,CLR,0.00,VWS V14.01,2013-06-11 05:51:00,
2013-06-11 01:52:00,78.6,77.1,30.01,South,170,14.0,16.0,95,0.00,,BKN200,0.00,VWS V14.01,2013-06-11 05:52:00,
2013-06-11 01:53:00,78.6,77.1,30.01,South,187,16.0,18.0,95,0.00,,BKN200,0.00,VWS V14.01,2013-06-11 05:53:00,
2013-06-11 01:54:00,78.6,77.1,30.01,South,171,17.0,17.0,95,0.00,,BKN200,0.00,VWS V14.01,2013-06-11 05:54:00,
2013-06-11 01:55:00,78.6,77.1,30.01,SSW,193,13.0,19.0,95,0.00,,BKN200,0.00,VWS V14.01,2013-06-11 05:55:00,
2013-06-11 01:56:00,78.8,77.2,30.01,South,171,15.0,16.0,95,0.00,,CLR,0.00,VWS V14.01,2013-06-11 05:56:00,
2013-06-11 01:57:00,78.8,77.2,30.01,South,171,15.0,16.0,95,0.00,,BKN200,0.00,VWS V14.01,2013-06-11 05:57:00,
2013-06-11 01:58:00,78.8,77.2,30.01,SSW,199,17.0,17.0,95,0.00,,BKN200,0.00,VWS V14.01,2013-06-11 05:58:00,
2013-06-11 01:59:00,78.8,77.2,30.01,South,187,17.0,20.0,95,0.00,,BKN200,0.00,VWS V14.01,2013-06-11 05:59:00,
2013-06-11 02:00:00,78.8,77.2,30.01,South,178,18.0,18.0,95,0.00,,BKN200,0.00,VWS V14.01,2013-06-11 06:00:00,
2013-06-11 02:01:00,78.8,77.6,30.01,SSW,202,16.0,18.0,96,0.00,,CLR,0.00,VWS V14.01,2013-06-11 06:01:00,
2013-06-11 02:02:00,78.8,77.6,30.01,SSW,202,16.0,18.0,96,0.00,,BKN200,0.00,VWS V14.01,2013-06-11 06:02:00,
2013-06-11 02:03:00,78.8,77.6,30.01,South,178,14.0,19.0,96,0.00,,BKN200,0.00,VWS V14.01,2013-06-11 06:03:00,
2013-06-11 02:04:00,78.8,77.6,30.01,South,190,17.0,17.0,96,0.00,,BKN200,0.00,VWS V14.01,2013-06-11 06:04:00,
2013-06-11 02:05:00,78.8,77.6,30.00,South,189,16.0,19.0,96,0.00,,BKN200,0.00,VWS V14.01,2013-06-11 06:05:00,
2013-06-11 02:06:00,78.8,77.6,30.01,South,176,17.0,21.0,96,0.00,,CLR,0.00,VWS V14.01,2013-06-11 06:06:00,
2013-06-11 02:07:00,78.8,77.6,30.00,South,187,21.0,21.0,96,0.00,,BKN200,0.00,VWS V14.01,2013-06-11 06:07:00,
2013-06-11 02:08:00,78.8,77.6,30.01,South,187,14.0,21.0,96,0.00,,BKN200,0.00,VWS V14.01,2013-06-11 06:08:00,
2013-06-11 02:09:00,78.8,77.6,30.00,South,181,16.0,21.0,96,0.00,,BKN200,0.00,VWS V14.01,2013-06-11 06:09:00,
2013-06-11 02:10:00,78.8,77.6,30.00,South,186,14.0,17.0,96,0.00,,BKN200,0.00,VWS V14.01,2013-06-11 06:10:00,
2013-06-11 02:11:00,78.8,77.6,30.00,South,176,18.0,18.0,96,0.00,,CLR,0.00,VWS V14.01,2013-06-11 06:11:00,
2013-06-11 02:12:00,78.8,77.6,30.00,South,185,17.0,17.0,96,0.00,,BKN200,0.00,VWS V14.01,2013-06-11 06:12:00,
2013-06-11 02:13:00,78.8,77.6,30.00,South,173,16.0,18.0,96,0.00,,BKN200,0.00,VWS V14.01,2013-06-11 06:13:00,
2013-06-11 02:14:00,78.8,77.6,30.00,SSE,162,16.0,16.0,96,0.00,,BKN200,0.00,VWS V14.01,2013-06-11 06:14:00,
2013-06-11 02:15:00,78.8,77.9,30.00,South,188,16.0,16.0,97,0.00,,BKN200,0.00,VWS V14.01,2013-06-11 06:15:00,
2013-06-11 02:16:00,79.0,78.1,30.00,South,184,16.0,16.0,97,0.00,,CLR,0.00,VWS V14.01,2013-06-11 06:16:00,
2013-06-11 02:17:00,79.0,78.1,30.00,South,178,13.0,16.0,97,0.00,,BKN200,0.00,VWS V14.01,2013-06-11 06:17:00,
2013-06-11 02:18:00,79.0,78.1,30.00,SSW,200,14.0,17.0,97,0.00,,BKN200,0.00,VWS V14.01,2013-06-11 06:18:00,
2013-06-11 02:19:00,79.0,78.1,30.00,South,184,17.0,17.0,97,0.00,,BKN200,0.00,VWS V14.01,2013-06-11 06:19:00,
2013-06-11 02:20:00,79.0,78.1,30.00,South,181,19.0,21.0,97,0.00,,BKN200,0.00,VWS V14.01,2013-06-11 06:20:00,
2013-06-11 02:21:00,79.0,78.1,30.00,SSW,210,16.0,16.0,97,0.00,,CLR,0.00,VWS V14.01,2013-06-11 06:21:00,
2013-06-11 02:22:00,79.0,78.1,30.00,SSW,202,16.0,16.0,97,0.00,,BKN200,0.00,VWS V14.01,2013-06-11 06:22:00,
2013-06-11 02:23:00,79.0,78.1,30.00,SW,219,16.0,16.0,97,0.00,,BKN200,0.00,VWS V14.01,2013-06-11 06:23:00,
2013-06-11 02:24:00,79.0,78.1,30.00,South,187,16.0,16.0,97,0.00,,BKN200,0.00,VWS V14.01,2013-06-11 06:24:00,
2013-06-11 02:25:00,79.0,78.1,30.00,SSW,199,15.0,16.0,97,0.00,,BKN200,0.00,VWS V14.01,2013-06-11 06:25:00,
2013-06-11 02:26:00,79.0,78.1,30.00,SSW,200,18.0,18.0,97,0.00,,CLR,0.00,VWS V14.01,2013-06-11 06:26:00,
2013-06-11 02:27:00,79.0,78.1,30.00,SSW,209,15.0,15.0,97,0.00,,BKN200,0.00,VWS V14.01,2013-06-11 06:27:00,
2013-06-11 02:28:00,79.0,78.1,30.00,WSW,246,16.0,18.0,97,0.00,,BKN200,0.00,VWS V14.01,2013-06-11 06:28:00,
2013-06-11 02:29:00,79.0,78.1,30.00,South,186,13.0,16.0,97,0.00,,BKN200,0.00,VWS V14.01,2013-06-11 06:29:00,
2013-06-11 02:30:00,79.0,78.1,30.00,SSW,205,16.0,16.0,97,0.00,,BKN200,0.00,VWS V14.01,2013-06-11 06:30:00,
2013-06-11 02:31:00,79.0,78.1,30.00,SSW,192,11.0,14.0,97,0.00,,CLR,0.00,VWS V14.01,2013-06-11 06:31:00,
2013-06-11 02:32:00,79.0,78.1,30.00,South,169,14.0,15.0,97,0.00,,BKN200,0.00,VWS V14.01,2013-06-11 06:32:00,
2013-06-11 02:33:00,79.0,78.1,30.00,South,191,12.0,14.0,97,0.00,,BKN200,0.00,VWS V14.01,2013-06-11 06:33:00,
2013-06-11 02:34:00,79.0,78.1,30.00,SSW,205,12.0,15.0,97,0.00,,BKN200,0.00,VWS V14.01,2013-06-11 06:34:00,
2013-06-11 02:35:00,79.0,78.1,30.00,SSW,196,13.0,16.0,97,0.00,,BKN200,0.00,VWS V14.01,2013-06-11 06:35:00,
2013-06-11 02:36:00,79.0,78.1,30.00,SSW,192,12.0,12.0,97,0.00,,CLR,0.00,VWS V14.01,2013-06-11 06:36:00,
2013-06-11 02:37:00,79.0,78.1,30.00,SSW,207,9.0,17.0,97,0.00,,BKN200,0.00,VWS V14.01,2013-06-11 06:37:00,
2013-06-11 02:38:00,79.2,78.3,30.00,SSW,202,11.0,12.0,97,0.00,,BKN200,0.00,VWS V14.01,2013-06-11 06:38:00,
2013-06-11 02:39:00,79.2,78.6,30.00,SSW,196,14.0,16.0,98,0.00,,BKN200,0.00,VWS V14.01,2013-06-11 06:39:00,
2013-06-11 02:40:00,79.2,78.6,30.01,SSW,209,13.0,16.0,98,0.00,,BKN200,0.00,VWS V14.01,2013-06-11 06:40:00,
2013-06-11 02:41:00,79.2,78.3,30.00,SSW,207,14.0,14.0,97,0.00,,CLR,0.00,VWS V14.01,2013-06-11 06:41:00,
2013-06-11 02:42:00,79.2,78.3,30.01,SSW,195,12.0,19.0,97,0.00,,BKN200,0.00,VWS V14.01,2013-06-11 06:42:00,
2013-06-11 02:43:00,79.2,78.6,30.00,SSW,209,15.0,15.0,98,0.00,,BKN200,0.00,VWS V14.01,2013-06-11 06:43:00,
2013-06-11 02:44:00,79.0,78.1,30.00,SSW,211,13.0,19.0,97,0.00,,BKN200,0.00,VWS V14.01,2013-06-11 06:44:00,
2013-06-11 02:45:00,79.0,78.1,30.00,SW,229,15.0,16.0,97,0.00,,BKN200,0.00,VWS V14.01,2013-06-11 06:45:00,
2013-06-11 02:46:00,79.0,78.1,30.00,SSW,208,12.0,18.0,97,0.00,,CLR,0.00,VWS V14.01,2013-06-11 06:46:00,
2013-06-11 02:47:00,79.0,78.1,30.00,SSW,208,12.0,18.0,97,0.00,,BKN200,0.00,VWS V14.01,2013-06-11 06:47:00,
2013-06-11 02:48:00,79.0,78.4,30.00,SSW,211,13.0,17.0,98,0.00,,BKN200,0.00,VWS V14.01,2013-06-11 06:48:00,
2013-06-11 02:49:00,79.0,78.4,30.00,SSW,206,14.0,18.0,98,0.00,,BKN200,0.00,VWS V14.01,2013-06-11 06:49:00,
2013-06-11 02:50:00,79.0,78.4,30.00,SW,215,13.0,14.0,98,0.00,,BKN200,0.00,VWS V14.01,2013-06-11 06:50:00,
2013-06-11 02:51:00,79.2,78.6,30.00,SSW,201,13.0,14.0,98,0.00,,CLR,0.00,VWS V14.01,2013-06-11 06:51:00,
2013-06-11 02:52:00,79.2,78.6,30.00,South,180,14.0,14.0,98,0.00,,BKN200,0.00,VWS V14.01,2013-06-11 06:52:00,
2013-06-11 02:53:00,79.2,78.6,30.00,SSW,206,16.0,16.0,98,0.00,,BKN200,0.00,VWS V14.01,2013-06-11 06:53:00,
2013-06-11 02:54:00,79.2,78.6,30.00,SSW,202,15.0,16.0,98,0.00,,BKN200,0.00,VWS V14.01,2013-06-11 06:54:00,
2013-06-11 02:55:00,79.2,78.6,30.00,SSW,199,12.0,15.0,98,0.00,,BKN200,0.00,VWS V14.01,2013-06-11 06:55:00,
2013-06-11 02:56:00,79.0,78.4,30.00,SSW,197,13.0,13.0,98,0.00,,CLR,0.00,VWS V14.01,2013-06-11 06:56:00,
2013-06-11 02:57:00,79.0,78.4,30.00,SSW,198,13.0,18.0,98,0.00,,BKN200,0.00,VWS V14.01,2013-06-11 06:57:00,
2013-06-11 02:58:00,79.2,78.6,30.00,SSW,196,12.0,17.0,98,0.00,,BKN200,0.00,VWS V14.01,2013-06-11 06:58:00,
2013-06-11 02:59:00,79.2,78.6,29.99,SSW,213,17.0,18.0,98,0.00,,BKN200,0.00,VWS V14.01,2013-06-11 06:59:00,
2013-06-11 03:00:00,79.0,78.1,29.99,SSW,207,17.0,19.0,97,0.00,,BKN200,0.00,VWS V14.01,2013-06-11 07:00:00,
2013-06-11 03:01:00,79.2,78.6,29.99,SSW,198,14.0,14.0,98,0.00,,CLR,0.00,VWS V14.01,2013-06-11 07:01:00,
2013-06-11 03:02:00,79.2,78.6,29.99,SSW,200,12.0,15.0,98,0.00,,BKN200,0.00,VWS V14.01,2013-06-11 07:02:00,
2013-06-11 03:03:00,79.2,78.6,29.99,SW,216,10.0,15.0,98,0.00,,BKN200,0.00,VWS V14.01,2013-06-11 07:03:00,
2013-06-11 03:04:00,79.2,78.6,29.99,SSW,195,16.0,17.0,98,0.00,,BKN200,0.00,VWS V14.01,2013-06-11 07:04:00,
2013-06-11 03:05:00,79.2,78.6,29.99,SSW,207,16.0,17.0,98,0.00,,BKN200,0.00,VWS V14.01,2013-06-11 07:05:00,
2013-06-11 03:06:00,79.2,78.6,29.99,South,190,16.0,16.0,98,0.00,,CLR,0.00,VWS V14.01,2013-06-11 07:06:00,
2013-06-11 03:07:00,79.2,78.6,29.99,SW,215,12.0,19.0,98,0.00,,BKN200,0.00,VWS V14.01,2013-06-11 07:07:00,
2013-06-11 03:08:00,79.2,78.3,29.99,South,177,15.0,16.0,97,0.00,,BKN200,0.00,VWS V14.01,2013-06-11 07:08:00,
2013-06-11 03:09:00,79.2,78.6,29.99,SW,228,13.0,18.0,98,0.00,,BKN200,0.00,VWS V14.01,2013-06-11 07:09:00,
2013-06-11 03:10:00,79.2,78.6,29.99,SSW,195,15.0,16.0,98,0.00,,BKN200,0.00,VWS V14.01,2013-06-11 07:10:00,
2013-06-11 03:11:00,79.2,78.3,29.99,SSW,209,19.0,19.0,97,0.00,,BKN200,0.00,VWS V14.01,2013-06-11 07:11:00,
2013-06-11 03:12:00,79.2,78.3,29.99,SW,224,10.0,13.0,97,0.00,,CLR,0.00,VWS V14.01,2013-06-11 07:12:00,
2013-06-11 03:13:00,79.2,78.6,29.99,SSW,192,13.0,14.0,98,0.00,,BKN200,0.00,VWS V14.01,2013-06-11 07:13:00,
2013-06-11 03:14:00,79.4,78.8,29.99,South,182,13.0,13.0,98,0.00,,BKN200,0.00,VWS V14.01,2013-06-11 07:14:00,
2013-06-11 03:15:00,79.4,78.8,29.99,SSW,200,12.0,14.0,98,0.00,,BKN200,0.00,VWS V14.01,2013-06-11 07:15:00,
2013-06-11 03:16:00,79.4,78.8,29.99,SSW,200,14.0,19.0,98,0.00,,BKN200,0.00,VWS V14.01,2013-06-11 07:16:00,
2013-06-11 03:17:00,79.2,78.6,29.99,SSW,203,16.0,16.0,98,0.00,,CLR,0.00,VWS V14.01,2013-06-11 07:17:00,
2013-06-11 03:18:00,79.2,78.6,29.99,South,177,15.0,16.0,98,0.00,,BKN200,0.00,VWS V14.01,2013-06-11 07:18:00,
2013-06-11 03:19:00,79.2,78.6,29.99,SSW,203,11.0,17.0,98,0.00,,BKN200,0.00,VWS V14.01,2013-06-11 07:19:00,
2013-06-11 03:20:00,79.2,78.6,29.99,SSW,199,13.0,16.0,98,0.00,,BKN200,0.00,VWS V14.01,2013-06-11 07:20:00,
2013-06-11 03:21:00,79.2,78.3,29.99,South,183,17.0,17.0,97,0.00,,BKN200,0.00,VWS V14.01,2013-06-11 07:21:00,
2013-06-11 03:22:00,79.0,78.1,29.98,SSW,208,16.0,16.0,97,0.00,,CLR,0.00,VWS V14.01,2013-06-11 07:22:00,
2013-06-11 03:23:00,79.0,78.1,29.98,SSW,201,14.0,19.0,97,0.00,,BKN200,0.00,VWS V14.01,2013-06-11 07:23:00,
2013-06-11 03:24:00,79.0,78.1,29.98,South,174,15.0,18.0,97,0.00,,BKN200,0.00,VWS V14.01,2013-06-11 07:24:00,
2013-06-11 03:25:00,79.0,78.1,29.98,South,178,16.0,18.0,97,0.00,,BKN200,0.00,VWS V14.01,2013-06-11 07:25:00,
2013-06-11 03:26:00,79.0,78.1,29.98,SSW,202,18.0,18.0,97,0.00,,BKN200,0.00,VWS V14.01,2013-06-11 07:26:00,
2013-06-11 03:27:00,79.0,78.1,29.98,SSW,207,20.0,20.0,97,0.00,,CLR,0.00,VWS V14.01,2013-06-11 07:27:00,
2013-06-11 03:28:00,79.0,78.1,29.98,SSW,197,14.0,20.0,97,0.00,,BKN200,0.00,VWS V14.01,2013-06-11 07:28:00,
2013-06-11 03:29:00,79.2,78.3,29.98,SSW,202,14.0,18.0,97,0.00,,BKN200,0.00,VWS V14.01,2013-06-11 07:29:00,
2013-06-11 03:30:00,79.2,78.3,29.98,South,184,16.0,17.0,97,0.00,,BKN200,0.00,VWS V14.01,2013-06-11 07:30:00,
2013-06-11 03:31:00,79.2,78.3,29.98,SSW,197,16.0,20.0,97,0.00,,BKN200,0.00,VWS V14.01,2013-06-11 07:31:00,
2013-06-11 03:32:00,79.2,78.3,29.98,South,191,13.0,15.0,97,0.00,,CLR,0.00,VWS V14.01,2013-06-11 07:32:00,
2013-06-11 03:33:00,79.2,78.3,29.98,SSW,198,17.0,17.0,97,0.00,,BKN200,0.00,VWS V14.01,2013-06-11 07:33:00,
2013-06-11 03:34:00,79.4,78.5,29.98,South,182,14.0,17.0,97,0.00,,BKN200,0.00,VWS V14.01,2013-06-11 07:34:00,
2013-06-11 03:35:00,79.4,78.5,29.98,SSW,210,16.0,16.0,97,0.00,,BKN200,0.00,VWS V14.01,2013-06-11 07:35:00,
2013-06-11 03:36:00,79.2,78.3,29.98,SSW,209,16.0,19.0,97,0.00,,BKN200,0.00,VWS V14.01,2013-06-11 07:36:00,
2013-06-11 03:37:00,79.2,78.3,29.98,South,188,15.0,16.0,97,0.00,,CLR,0.00,VWS V14.01,2013-06-11 07:37:00,
2013-06-11 03:38:00,79.2,78.3,29.98,SSW,208,13.0,16.0,97,0.00,,BKN200,0.00,VWS V14.01,2013-06-11 07:38:00,
2013-06-11 03:39:00,79.2,78.3,29.98,SSW,200,16.0,21.0,97,0.00,,BKN200,0.00,VWS V14.01,2013-06-11 07:39:00,
2013-06-11 03:40:00,79.2,78.3,29.98,South,170,14.0,17.0,97,0.00,,BKN200,0.00,VWS V14.01,2013-06-11 07:40:00,
2013-06-11 03:41:00,79.2,78.0,29.98,SSW,207,16.0,16.0,96,0.00,,BKN200,0.00,VWS V14.01,2013-06-11 07:41:00,
2013-06-11 03:42:00,79.2,78.3,29.98,SSW,205,12.0,16.0,97,0.00,,CLR,0.00,VWS V14.01,2013-06-11 07:42:00,
2013-06-11 03:43:00,79.4,78.5,29.98,SSW,209,16.0,16.0,97,0.00,,BKN200,0.00,VWS V14.01,2013-06-11 07:43:00,
2013-06-11 03:44:00,79.4,78.5,29.98,SSW,212,18.0,19.0,97,0.00,,BKN200,0.00,VWS V14.01,2013-06-11 07:44:00,
2013-06-11 03:45:00,79.4,78.5,29.98,SSW,200,17.0,18.0,97,0.00,,BKN200,0.00,VWS V14.01,2013-06-11 07:45:00,
2013-06-11 03:46:00,79.4,78.5,29.98,SSW,207,12.0,18.0,97,0.00,,BKN200,0.00,VWS V14.01,2013-06-11 07:46:00,
2013-06-11 03:47:00,79.4,78.2,29.98,SSW,213,17.0,20.0,96,0.00,,CLR,0.00,VWS V14.01,2013-06-11 07:47:00,
2013-06-11 03:48:00,79.4,78.2,29.98,SSW,204,18.0,20.0,96,0.00,,BKN200,0.00,VWS V14.01,2013-06-11 07:48:00,
2013-06-11 03:49:00,79.2,78.0,29.98,SSW,213,17.0,19.0,96,0.00,,BKN200,0.00,VWS V14.01,2013-06-11 07:49:00,
2013-06-11 03:50:00,79.0,77.8,29.98,SW,229,14.0,17.0,96,0.00,,BKN200,0.00,VWS V14.01,2013-06-11 07:50:00,
2013-06-11 03:51:00,79.2,78.3,29.98,SW,215,19.0,19.0,97,0.00,,BKN200,0.00,VWS V14.01,2013-06-11 07:51:00,
2013-06-11 03:52:00,79.2,78.0,29.98,SW,223,14.0,20.0,96,0.00,,CLR,0.00,VWS V14.01,2013-06-11 07:52:00,
2013-06-11 03:53:00,79.2,78.0,29.98,SSW,207,16.0,20.0,96,0.00,,BKN200,0.00,VWS V14.01,2013-06-11 07:53:00,
2013-06-11 03:54:00,79.0,77.4,29.98,SSW,202,23.0,23.0,95,0.00,,BKN200,0.00,VWS V14.01,2013-06-11 07:54:00,
2013-06-11 03:55:00,79.0,77.4,29.98,South,190,16.0,23.0,95,0.00,,BKN200,0.00,VWS V14.01,2013-06-11 07:55:00,
2013-06-11 03:56:00,79.0,77.8,29.98,SSW,195,18.0,18.0,96,0.00,,BKN200,0.00,VWS V14.01,2013-06-11 07:56:00,
2013-06-11 03:57:00,79.0,77.4,29.98,SSW,203,15.0,20.0,95,0.00,,CLR,0.00,VWS V14.01,2013-06-11 07:57:00,
2013-06-11 03:58:00,79.2,77.7,29.98,SW,218,18.0,20.0,95,0.00,,BKN200,0.00,VWS V14.01,2013-06-11 07:58:00,
2013-06-11 03:59:00,79.2,77.7,29.98,SW,227,21.0,21.0,95,0.00,,BKN200,0.00,VWS V14.01,2013-06-11 07:59:00,
2013-06-11 04:00:00,79.2,77.7,29.98,South,191,15.0,21.0,95,0.00,,BKN200,0.00,VWS V14.01,2013-06-11 08:00:00,
2013-06-11 04:01:00,79.2,77.7,29.98,SW,232,11.0,17.0,95,0.00,,BKN200,0.00,VWS V14.01,2013-06-11 08:01:00,
2013-06-11 04:02:00,79.2,77.7,29.99,WSW,254,9.0,10.0,95,0.00,,CLR,0.00,VWS V14.01,2013-06-11 08:02:00,
2013-06-11 04:03:00,79.2,77.7,29.99,SSW,205,6.0,10.0,95,0.00,,BKN200,0.00,VWS V14.01,2013-06-11 08:03:00,
2013-06-11 04:04:00,79.2,77.7,29.99,West,261,6.0,10.0,95,0.00,,BKN200,0.00,VWS V14.01,2013-06-11 08:04:00,
2013-06-11 04:05:00,79.0,77.1,29.99,SSW,204,10.0,12.0,94,0.00,,BKN200,0.00,VWS V14.01,2013-06-11 08:05:00,
2013-06-11 04:06:00,79.0,77.1,29.99,WSW,241,13.0,13.0,94,0.00,,BKN200,0.00,VWS V14.01,2013-06-11 08:06:00,
2013-06-11 04:07:00,79.0,77.1,29.99,SSW,210,7.0,14.0,94,0.00,,CLR,0.00,VWS V14.01,2013-06-11 08:07:00,
2013-06-11 04:08:00,79.0,77.1,29.99,SW,235,3.0,14.0,94,0.00,,BKN200,0.00,VWS V14.01,2013-06-11 08:08:00,
2013-06-11 04:09:00,79.0,77.1,29.99,WSW,256,10.0,10.0,94,0.00,,BKN200,0.00,VWS V14.01,2013-06-11 08:09:00,
2013-06-11 04:10:00,79.0,77.1,29.99,SW,233,5.0,10.0,94,0.00,,BKN200,0.00,VWS V14.01,2013-06-11 08:10:00,
2013-06-11 04:11:00,79.0,77.1,29.99,SW,233,3.0,7.0,94,0.00,,BKN200,0.00,VWS V14.01,2013-06-11 08:11:00,
2013-06-11 04:12:00,78.8,76.9,29.99,West,261,11.0,16.0,94,0.00,,CLR,0.00,VWS V14.01,2013-06-11 08:12:00,
2013-06-11 04:13:00,78.8,76.9,29.99,SSW,212,8.0,16.0,94,0.00,,BKN200,0.00,VWS V14.01,2013-06-11 08:13:00,
2013-06-11 04:14:00,78.8,76.9,29.99,WSW,244,13.0,13.0,94,0.00,,BKN200,0.00,VWS V14.01,2013-06-11 08:14:00,
2013-06-11 04:15:00,78.8,76.9,29.99,WSW,250,10.0,13.0,94,0.00,,BKN200,0.00,VWS V14.01,2013-06-11 08:15:00,
2013-06-11 04:16:00,78.8,76.9,29.99,SW,226,5.0,11.0,94,0.00,,BKN200,0.00,VWS V14.01,2013-06-11 08:16:00,
2013-06-11 04:17:00,78.6,76.7,29.99,WSW,242,13.0,13.0,94,0.00,,CLR,0.00,VWS V14.01,2013-06-11 08:17:00,
2013-06-11 04:18:00,78.6,76.7,29.99,SW,215,13.0,13.0,94,0.00,,BKN200,0.00,VWS V14.01,2013-06-11 08:18:00,
2013-06-11 04:19:00,78.6,76.7,29.99,WSW,242,6.0,13.0,94,0.00,,BKN200,0.00,VWS V14.01,2013-06-11 08:19:00,
2013-06-11 04:20:00,78.6,76.7,29.99,WSW,254,5.0,10.0,94,0.00,,BKN200,0.00,VWS V14.01,2013-06-11 08:20:00,
2013-06-11 04:21:00,78.6,76.7,29.99,West,261,4.0,10.0,94,0.00,,BKN200,0.00,VWS V14.01,2013-06-11 08:21:00,
2013-06-11 04:22:00,78.6,76.7,30.00,SSW,208,5.0,16.0,94,0.00,,CLR,0.00,VWS V14.01,2013-06-11 08:22:00,
2013-06-11 04:23:00,78.6,76.7,30.00,WSW,239,9.0,16.0,94,0.00,,BKN200,0.00,VWS V14.01,2013-06-11 08:23:00,
2013-06-11 04:24:00,78.5,76.6,30.00,WSW,249,11.0,11.0,94,0.00,,BKN200,0.00,VWS V14.01,2013-06-11 08:24:00,
2013-06-11 04:25:00,78.6,76.7,30.00,WSW,238,5.0,11.0,94,0.00,,BKN200,0.00,VWS V14.01,2013-06-11 08:25:00,
2013-06-11 04:26:00,78.5,76.3,30.00,WSW,255,7.0,7.0,93,0.00,,BKN200,0.00,VWS V14.01,2013-06-11 08:26:00,
2013-06-11 04:27:00,78.5,76.3,30.00,SW,234,8.0,9.0,93,0.00,,CLR,0.00,VWS V14.01,2013-06-11 08:27:00,
2013-06-11 04:28:00,78.5,76.3,30.00,WSW,250,4.0,9.0,93,0.00,,BKN200,0.00,VWS V14.01,2013-06-11 08:28:00,
2013-06-11 04:29:00,78.5,76.3,30.00,WSW,244,5.0,11.0,93,0.00,,BKN200,0.00,VWS V14.01,2013-06-11 08:29:00,
2013-06-11 04:30:00,78.3,76.1,30.00,WSW,238,5.0,10.0,93,0.00,,BKN200,0.00,VWS V14.01,2013-06-11 08:30:00,
2013-06-11 04:31:00,78.3,76.1,30.00,WSW,240,7.0,10.0,93,0.00,,BKN200,0.00,VWS V14.01,2013-06-11 08:31:00,
2013-06-11 04:32:00,78.1,75.9,30.00,West,261,4.0,9.0,93,0.00,,CLR,0.00,VWS V14.01,2013-06-11 08:32:00,
2013-06-11 04:33:00,78.1,75.9,30.00,West,261,1.0,9.0,93,0.00,,BKN200,0.00,VWS V14.01,2013-06-11 08:33:00,
2013-06-11 04:34:00,78.1,75.9,30.00,WSW,248,3.0,8.0,93,0.00,,BKN200,0.00,VWS V14.01,2013-06-11 08:34:00,
2013-06-11 04:35:00,78.1,75.9,30.00,WSW,242,2.0,13.0,93,0.00,,BKN200,0.00,VWS V14.01,2013-06-11 08:35:00,
2013-06-11 04:36:00,78.1,75.9,30.00,SW,231,9.0,9.0,93,0.00,,BKN200,0.00,VWS V14.01,2013-06-11 08:36:00,
2013-06-11 04:37:00,77.9,75.7,30.00,WSW,240,4.0,6.0,93,0.00,,CLR,0.00,VWS V14.01,2013-06-11 08:37:00,
2013-06-11 04:38:00,77.9,75.7,30.00,West,265,5.0,6.0,93,0.00,,BKN200,0.00,VWS V14.01,2013-06-11 08:38:00,
2013-06-11 04:39:00,77.7,75.5,30.00,WSW,241,11.0,11.0,93,0.00,,BKN200,0.00,VWS V14.01,2013-06-11 08:39:00,
2013-06-11 04:40:00,77.7,75.5,30.00,WSW,249,9.0,12.0,93,0.00,,BKN200,0.00,VWS V14.01,2013-06-11 08:40:00,
2013-06-11 04:41:00,77.7,75.5,30.00,WSW,252,8.0,9.0,93,0.00,,BKN200,0.00,VWS V14.01,2013-06-11 08:41:00,
2013-06-11 04:42:00,77.6,75.4,30.00,WSW,246,3.0,6.0,93,0.00,,FEW100,0.00,VWS V14.01,2013-06-11 08:42:00,
2013-06-11 04:43:00,77.6,75.4,30.00,WSW,246,5.0,6.0,93,0.00,,BKN200,0.00,VWS V14.01,2013-06-11 08:43:00,
2013-06-11 04:44:00,77.6,75.4,30.00,WSW,254,4.0,9.0,93,0.00,,BKN200,0.00,VWS V14.01,2013-06-11 08:44:00,
2013-06-11 04:45:00,77.6,75.4,30.00,WSW,248,7.0,14.0,93,0.00,,BKN200,0.00,VWS V14.01,2013-06-11 08:45:00,
2013-06-11 04:46:00,77.6,75.4,30.00,WSW,252,6.0,12.0,93,0.00,,BKN200,0.00,VWS V14.01,2013-06-11 08:46:00,
2013-06-11 04:47:00,77.4,75.2,30.00,WSW,244,9.0,9.0,93,0.00,,FEW100,0.00,VWS V14.01,2013-06-11 08:47:00,
2013-06-11 04:48:00,77.4,75.2,30.00,SW,236,8.0,9.0,93,0.00,,BKN200,0.00,VWS V14.01,2013-06-11 08:48:00,
2013-06-11 04:49:00,77.4,75.5,30.00,WSW,246,10.0,11.0,94,0.00,,BKN200,0.00,VWS V14.01,2013-06-11 08:49:00,
2013-06-11 04:50:00,77.4,75.5,30.00,SW,234,5.0,10.0,94,0.00,,BKN200,0.00,VWS V14.01,2013-06-11 08:50:00,
2013-06-11 04:51:00,77.4,75.5,30.00,WSW,249,5.0,9.0,94,0.00,,BKN200,0.00,VWS V14.01,2013-06-11 08:51:00,
2013-06-11 04:52:00,77.4,75.5,30.00,SW,219,9.0,9.0,94,0.00,,FEW100,0.00,VWS V14.01,2013-06-11 08:52:00,
2013-06-11 04:53:00,77.4,75.5,30.00,West,262,7.0,9.0,94,0.00,,BKN200,0.00,VWS V14.01,2013-06-11 08:53:00,
2013-06-11 04:54:00,77.4,75.5,30.00,SW,236,10.0,10.0,94,0.00,,BKN200,0.00,VWS V14.01,2013-06-11 08:54:00,
2013-06-11 04:55:00,77.4,75.5,30.00,West,260,3.0,11.0,94,0.00,,BKN200,0.00,VWS V14.01,2013-06-11 08:55:00,
2013-06-11 04:56:00,77.2,75.3,30.00,WSW,242,6.0,9.0,94,0.00,,BKN200,0.00,VWS V14.01,2013-06-11 08:56:00,
2013-06-11 04:57:00,77.2,75.3,30.00,SW,216,5.0,10.0,94,0.00,,FEW100,0.00,VWS V14.01,2013-06-11 08:57:00,
2013-06-11 04:58:00,77.2,75.3,30.00,SW,236,7.0,10.0,94,0.00,,BKN200,0.00,VWS V14.01,2013-06-11 08:58:00,
2013-06-11 04:59:00,77.2,75.3,30.00,SW,234,4.0,9.0,94,0.00,,BKN200,0.00,VWS V14.01,2013-06-11 08:59:00,
2013-06-11 05:00:00,77.2,75.3,30.00,WSW,253,6.0,10.0,94,0.00,,BKN200,0.00,VWS V14.01,2013-06-11 09:00:00,
2013-06-11 05:01:00,77.2,75.3,30.00,WSW,244,13.0,13.0,94,0.00,,BKN200,0.00,VWS V14.01,2013-06-11 09:01:00,
2013-06-11 05:02:00,77.0,75.1,30.00,SW,236,10.0,10.0,94,0.00,,FEW100,0.00,VWS V14.01,2013-06-11 09:02:00,
2013-06-11 05:03:00,77.0,75.1,30.00,SW,230,6.0,10.0,94,0.00,,BKN200,0.00,VWS V14.01,2013-06-11 09:03:00,
2013-06-11 05:04:00,77.0,75.1,30.00,WSW,243,7.0,9.0,94,0.00,,BKN200,0.00,VWS V14.01,2013-06-11 09:04:00,
2013-06-11 05:05:00,77.0,75.1,30.00,WSW,252,6.0,10.0,94,0.00,,BKN200,0.00,VWS V14.01,2013-06-11 09:05:00,
2013-06-11 05:06:00,77.0,75.1,30.00,WSW,252,7.0,12.0,94,0.00,,BKN200,0.00,VWS V14.01,2013-06-11 09:06:00,
2013-06-11 05:07:00,76.8,74.9,30.00,West,268,10.0,10.0,94,0.00,,FEW100,0.00,VWS V14.01,2013-06-11 09:07:00,
2013-06-11 05:08:00,76.8,74.9,30.00,WSW,255,8.0,10.0,94,0.00,,BKN200,0.00,VWS V14.01,2013-06-11 09:08:00,
2013-06-11 05:09:00,76.8,74.9,30.00,WSW,239,6.0,8.0,94,0.00,,BKN200,0.00,VWS V14.01,2013-06-11 09:09:00,
2013-06-11 05:10:00,76.8,74.9,30.00,WSW,241,6.0,6.0,94,0.00,,BKN200,0.00,VWS V14.01,2013-06-11 09:10:00,
2013-06-11 05:11:00,76.8,74.9,30.00,NW,304,3.0,9.0,94,0.00,,BKN200,0.00,VWS V14.01,2013-06-11 09:11:00,
2013-06-11 05:12:00,76.8,74.9,30.00,West,273,4.0,10.0,94,0.00,,FEW100,0.00,VWS V14.01,2013-06-11 09:12:00,
2013-06-11 05:13:00,76.8,74.9,30.00,West,273,2.0,10.0,94,0.00,,BKN200,0.00,VWS V14.01,2013-06-11 09:13:00,
2013-06-11 05:14:00,76.7,74.8,30.00,SW,235,6.0,6.0,94,0.00,,BKN200,0.00,VWS V14.01,2013-06-11 09:14:00,
2013-06-11 05:15:00,76.7,74.8,30.00,West,277,3.0,7.0,94,0.00,,BKN200,0.00,VWS V14.01,2013-06-11 09:15:00,
2013-06-11 05:16:00,76.7,74.8,30.00,WSW,257,3.0,5.0,94,0.00,,BKN200,0.00,VWS V14.01,2013-06-11 09:16:00,
2013-06-11 05:17:00,76.7,74.8,30.00,WSW,254,8.0,8.0,94,0.00,,FEW100,0.00,VWS V14.01,2013-06-11 09:17:00,
2013-06-11 05:18:00,76.7,74.8,30.00,WSW,246,5.0,8.0,94,0.00,,BKN200,0.00,VWS V14.01,2013-06-11 09:18:00,
2013-06-11 05:19:00,76.5,74.7,30.00,WSW,250,4.0,8.0,94,0.00,,BKN200,0.00,VWS V14.01,2013-06-11 09:19:00,
2013-06-11 05:20:00,76.5,74.7,30.00,SW,227,7.0,8.0,94,0.00,,BKN200,0.00,VWS V14.01,2013-06-11 09:20:00,
2013-06-11 05:21:00,76.5,74.7,30.00,West,265,7.0,7.0,94,0.00,,BKN200,0.00,VWS V14.01,2013-06-11 09:21:00,
2013-06-11 05:22:00,76.5,74.7,30.00,WSW,252,5.0,12.0,94,0.00,,FEW100,0.00,VWS V14.01,2013-06-11 09:22:00,
2013-06-11 05:23:00,76.5,74.7,30.00,WSW,245,9.0,12.0,94,0.00,,BKN200,0.00,VWS V14.01,2013-06-11 09:23:00,
2013-06-11 05:24:00,76.5,74.7,30.00,WSW,245,5.0,9.0,94,0.00,,BKN200,0.00,VWS V14.01,2013-06-11 09:24:00,
2013-06-11 05:25:00,76.5,74.7,30.00,WSW,252,4.0,13.0,94,0.00,,BKN200,0.00,VWS V14.01,2013-06-11 09:25:00,
2013-06-11 05:26:00,76.5,74.7,30.00,WSW,254,7.0,10.0,94,0.00,,BKN200,0.00,VWS V14.01,2013-06-11 09:26:00,
2013-06-11 05:27:00,76.5,74.7,30.00,WSW,246,7.0,10.0,94,0.00,,FEW100,0.00,VWS V14.01,2013-06-11 09:27:00,
2013-06-11 05:28:00,76.5,74.7,30.00,SW,230,6.0,10.0,94,0.00,,BKN200,0.00,VWS V14.01,2013-06-11 09:28:00,
2013-06-11 05:29:00,76.5,74.7,30.00,West,261,4.0,11.0,94,0.00,,BKN200,0.00,VWS V14.01,2013-06-11 09:29:00,
2013-06-11 05:30:00,76.5,74.7,30.00,WSW,243,7.0,10.0,94,0.00,,BKN200,0.00,VWS V14.01,2013-06-11 09:30:00,
2013-06-11 05:31:00,76.5,74.3,30.00,SW,233,9.0,11.0,93,0.00,,BKN200,0.00,VWS V14.01,2013-06-11 09:31:00,
2013-06-11 05:32:00,76.5,74.3,30.00,WSW,254,10.0,10.0,93,0.00,,FEW100,0.00,VWS V14.01,2013-06-11 09:32:00,
2013-06-11 05:33:00,76.5,74.3,30.00,WSW,252,10.0,10.0,93,0.00,,BKN200,0.00,VWS V14.01,2013-06-11 09:33:00,
2013-06-11 05:34:00,76.5,74.3,30.00,WSW,242,10.0,15.0,93,0.00,,BKN200,0.00,VWS V14.01,2013-06-11 09:34:00,
2013-06-11 05:35:00,76.5,74.3,30.00,WSW,251,7.0,16.0,93,0.00,,BKN200,0.00,VWS V14.01,2013-06-11 09:35:00,
2013-06-11 05:36:00,76.5,74.0,30.00,WSW,244,6.0,11.0,92,0.00,,BKN200,0.00,VWS V14.01,2013-06-11 09:36:00,
2013-06-11 05:37:00,76.5,74.0,30.00,WSW,251,11.0,11.0,92,0.00,,FEW100,0.00,VWS V14.01,2013-06-11 09:37:00,
2013-06-11 05:38:00,76.5,74.0,30.00,WSW,245,10.0,11.0,92,0.00,,BKN200,0.00,VWS V14.01,2013-06-11 09:38:00,
2013-06-11 05:39:00,76.7,74.2,30.00,West,272,7.0,10.0,92,0.00,,BKN200,0.00,VWS V14.01,2013-06-11 09:39:00,
2013-06-11 05:40:00,76.7,74.2,30.00,WSW,242,6.0,10.0,92,0.00,,BKN200,0.00,VWS V14.01,2013-06-11 09:40:00,
2013-06-11 05:41:00,76.7,74.2,30.00,West,262,7.0,13.0,92,0.00,,BKN200,0.00,VWS V14.01,2013-06-11 09:41:00,
2013-06-11 05:42:00,76.7,73.9,30.00,WSW,238,11.0,14.0,91,0.00,,CLR,0.00,VWS V14.01,2013-06-11 09:42:00,
2013-06-11 05:43:00,76.7,73.9,30.00,WSW,253,10.0,14.0,91,0.00,,BKN200,0.00,VWS V14.01,2013-06-11 09:43:00,
2013-06-11 05:44:00,76.7,73.9,30.00,WSW,246,9.0,10.0,91,0.00,,BKN200,0.00,VWS V14.01,2013-06-11 09:44:00,
2013-06-11 05:45:00,76.7,73.9,30.00,WSW,238,6.0,9.0,91,0.00,,BKN200,0.00,VWS V14.01,2013-06-11 09:45:00,
2013-06-11 05:46:00,76.7,73.9,30.00,SW,232,10.0,15.0,91,0.00,,BKN200,0.00,VWS V14.01,2013-06-11 09:46:00,
2013-06-11 05:47:00,76.7,73.6,30.00,SW,233,9.0,11.0,90,0.00,,CLR,0.00,VWS V14.01,2013-06-11 09:47:00,
2013-06-11 05:48:00,76.7,73.6,30.00,WSW,237,9.0,11.0,90,0.00,,BKN200,0.00,VWS V14.01,2013-06-11 09:48:00,
2013-06-11 05:49:00,76.7,73.6,30.00,SW,236,7.0,9.0,90,0.00,,BKN200,0.00,VWS V14.01,2013-06-11 09:49:00,
2013-06-11 05:50:00,76.8,73.7,30.00,WSW,246,11.0,14.0,90,0.00,,BKN200,0.00,VWS V14.01,2013-06-11 09:50:00,
2013-06-11 05:51:00,76.8,73.3,30.00,WSW,242,10.0,11.0,89,0.00,,BKN200,0.00,VWS V14.01,2013-06-11 09:51:00,
2013-06-11 05:52:00,76.8,73.3,30.00,SSW,205,11.0,12.0,89,0.00,,CLR,0.00,VWS V14.01,2013-06-11 09:52:00,
2013-06-11 05:53:00,76.8,73.3,30.00,WSW,248,12.0,13.0,89,0.00,,BKN200,0.00,VWS V14.01,2013-06-11 09:53:00,
2013-06-11 05:54:00,76.8,73.3,30.00,WSW,245,13.0,13.0,89,0.00,,BKN200,0.00,VWS V14.01,2013-06-11 09:54:00,
2013-06-11 05:55:00,76.8,73.0,30.00,West,273,6.0,13.0,88,0.00,,BKN200,0.00,VWS V14.01,2013-06-11 09:55:00,
2013-06-11 05:56:00,76.8,73.0,30.00,WSW,244,5.0,13.0,88,0.00,,BKN200,0.00,VWS V14.01,2013-06-11 09:56:00,
2013-06-11 05:57:00,77.0,73.2,30.00,SW,224,14.0,14.0,88,0.00,,CLR,0.00,VWS V14.01,2013-06-11 09:57:00,
2013-06-11 05:58:00,77.0,73.2,30.00,WSW,247,12.0,14.0,88,0.00,,BKN200,0.00,VWS V14.01,2013-06-11 09:58:00,
2013-06-11 05:59:00,77.0,73.2,30.00,West,260,12.0,12.0,88,0.00,,BKN200,0.00,VWS V14.01,2013-06-11 09:59:00,
2013-06-11 06:00:00,77.0,73.2,30.00,SW,233,10.0,13.0,88,0.00,,BKN200,0.00,VWS V14.01,2013-06-11 10:00:00,
2013-06-11 06:01:00,77.0,73.2,30.00,West,279,9.0,10.0,88,0.00,,BKN200,0.00,VWS V14.01,2013-06-11 10:01:00,
2013-06-11 06:02:00,77.0,73.2,30.00,WSW,244,16.0,16.0,88,0.00,,CLR,0.00,VWS V14.01,2013-06-11 10:02:00,
2013-06-11 06:03:00,77.0,72.8,30.01,South,174,10.0,16.0,87,0.00,,BKN200,0.00,VWS V14.01,2013-06-11 10:03:00,
2013-06-11 06:04:00,77.0,73.2,30.01,SSW,208,11.0,13.0,88,0.00,,BKN200,0.00,VWS V14.01,2013-06-11 10:04:00,
2013-06-11 06:05:00,77.0,72.8,30.00,WSW,246,5.0,12.0,87,0.00,,BKN200,0.00,VWS V14.01,2013-06-11 10:05:00,
2013-06-11 06:06:00,77.0,72.8,30.01,WSW,254,13.0,14.0,87,0.00,,BKN200,0.00,VWS V14.01,2013-06-11 10:06:00,
2013-06-11 06:07:00,77.0,72.8,30.00,WSW,239,7.0,10.0,87,0.00,,CLR,0.00,VWS V14.01,2013-06-11 10:07:00,
2013-06-11 06:08:00,77.0,72.8,30.00,SW,235,10.0,10.0,87,0.00,,BKN200,0.00,VWS V14.01,2013-06-11 10:08:00,
2013-06-11 06:09:00,76.8,72.6,30.01,West,259,5.0,10.0,87,0.00,,BKN200,0.00,VWS V14.01,2013-06-11 10:09:00,
2013-06-11 06:10:00,76.8,72.6,30.01,SW,236,7.0,11.0,87,0.00,,BKN200,0.00,VWS V14.01,2013-06-11 10:10:00,
2013-06-11 06:11:00,76.8,72.6,30.01,WSW,239,9.0,14.0,87,0.00,,BKN200,0.00,VWS V14.01,2013-06-11 10:11:00,
2013-06-11 06:12:00,76.8,72.6,30.01,WSW,252,7.0,12.0,87,0.00,,CLR,0.00,VWS V14.01,2013-06-11 10:12:00,
2013-06-11 06:13:00,76.8,72.6,30.01,WSW,254,10.0,12.0,87,0.00,,BKN200,0.00,VWS V14.01,2013-06-11 10:13:00,
2013-06-11 06:14:00,76.7,72.5,30.01,SW,235,8.0,11.0,87,0.00,,BKN200,0.00,VWS V14.01,2013-06-11 10:14:00,
2013-06-11 06:15:00,76.7,72.9,30.01,WSW,244,6.0,10.0,88,0.00,,BKN200,0.00,VWS V14.01,2013-06-11 10:15:00,
2013-06-11 06:16:00,76.7,72.9,30.01,WSW,255,4.0,7.0,88,0.00,,BKN200,0.00,VWS V14.01,2013-06-11 10:16:00,
2013-06-11 06:17:00,76.7,72.9,30.01,WSW,239,8.0,9.0,88,0.00,,CLR,0.00,VWS V14.01,2013-06-11 10:17:00,
2013-06-11 06:18:00,76.5,72.7,30.01,WSW,251,10.0,10.0,88,0.00,,BKN200,0.00,VWS V14.01,2013-06-11 10:18:00,
2013-06-11 06:19:00,76.5,72.7,30.01,WSW,257,5.0,10.0,88,0.00,,BKN200,0.00,VWS V14.01,2013-06-11 10:19:00,
2013-06-11 06:20:00,76.5,72.7,30.01,West,267,6.0,6.0,88,0.00,,BKN200,0.00,VWS V14.01,2013-06-11 10:20:00,
2013-06-11 06:21:00,76.5,72.7,30.01,WSW,242,10.0,12.0,88,0.00,,BKN200,0.00,VWS V14.01,2013-06-11 10:21:00,
2013-06-11 06:22:00,76.3,72.5,30.01,WSW,257,10.0,10.0,88,0.00,,CLR,0.00,VWS V14.01,2013-06-11 10:22:00,
2013-06-11 06:23:00,76.3,72.5,30.01,WSW,253,3.0,10.0,88,0.00,,BKN200,0.00,VWS V14.01,2013-06-11 10:23:00,
2013-06-11 06:24:00,76.3,72.5,30.01,WSW,237,9.0,10.0,88,0.00,,BKN200,0.00,VWS V14.01,2013-06-11 10:24:00,
2013-06-11 06:25:00,76.3,72.5,30.01,SW,226,9.0,10.0,88,0.00,,BKN200,0.00,VWS V14.01,2013-06-11 10:25:00,
2013-06-11 06:26:00,76.3,72.5,30.01,WSW,246,5.0,9.0,88,0.00,,BKN200,0.00,VWS V14.01,2013-06-11 10:26:00,
2013-06-11 06:27:00,76.1,72.3,30.01,SW,231,10.0,11.0,88,0.00,,CLR,0.00,VWS V14.01,2013-06-11 10:27:00,
2013-06-11 06:28:00,76.1,72.3,30.01,WSW,250,4.0,11.0,88,0.00,,BKN200,0.00,VWS V14.01,2013-06-11 10:28:00,
2013-06-11 06:29:00,76.1,72.3,30.01,WSW,237,5.0,6.0,88,0.00,,BKN200,0.00,VWS V14.01,2013-06-11 10:29:00,
2013-06-11 06:30:00,76.1,72.3,30.01,WNW,285,4.0,8.0,88,0.00,,BKN200,0.00,VWS V14.01,2013-06-11 10:30:00,
2013-06-11 06:31:00,76.1,72.6,30.01,West,265,4.0,7.0,89,0.00,,BKN200,0.00,VWS V14.01,2013-06-11 10:31:00,
2013-06-11 06:32:00,76.1,72.6,30.01,WSW,244,3.0,6.0,89,0.00,,CLR,0.00,VWS V14.01,2013-06-11 10:32:00,
2013-06-11 06:33:00,76.1,72.6,30.01,WSW,238,6.0,6.0,89,0.00,,BKN200,0.00,VWS V14.01,2013-06-11 10:33:00,
2013-06-11 06:34:00,76.0,72.5,30.01,WSW,247,6.0,7.0,89,0.00,,BKN200,0.00,VWS V14.01,2013-06-11 10:34:00,
2013-06-11 06:35:00,76.0,72.5,30.01,SW,226,6.0,10.0,89,0.00,,BKN200,0.00,VWS V14.01,2013-06-11 10:35:00,
2013-06-11 06:36:00,76.0,72.5,30.01,WSW,248,5.0,6.0,89,0.00,,BKN200,0.00,VWS V14.01,2013-06-11 10:36:00,
2013-06-11 06:37:00,76.0,72.5,30.01,WSW,240,5.0,9.0,89,0.00,,CLR,0.00,VWS V14.01,2013-06-11 10:37:00,
2013-06-11 06:38:00,76.0,72.5,30.01,WSW,248,2.0,9.0,89,0.00,,BKN200,0.00,VWS V14.01,2013-06-11 10:38:00,
2013-06-11 06:39:00,75.8,72.3,30.01,WSW,247,7.0,7.0,89,0.00,,BKN200,0.00,VWS V14.01,2013-06-11 10:39:00,
2013-06-11 06:40:00,75.8,72.7,30.01,WSW,257,7.0,10.0,90,0.00,,BKN200,0.00,VWS V14.01,2013-06-11 10:40:00,
2013-06-11 06:41:00,75.8,72.7,30.01,SW,233,8.0,8.0,90,0.00,,BKN200,0.00,VWS V14.01,2013-06-11 10:41:00,
2013-06-11 06:42:00,75.8,72.7,30.01,NW,311,3.0,10.0,90,0.00,,CLR,0.00,VWS V14.01,2013-06-11 10:42:00,
2013-06-11 06:43:00,75.8,72.7,30.01,SW,234,6.0,10.0,90,0.00,,BKN200,0.00,VWS V14.01,2013-06-11 10:43:00,
2013-06-11 06:44:00,75.6,72.5,30.01,SW,220,6.0,8.0,90,0.00,,BKN200,0.00,VWS V14.01,2013-06-11 10:44:00,
2013-06-11 06:45:00,75.6,72.5,30.01,SW,234,3.0,10.0,90,0.00,,BKN200,0.00,VWS V14.01,2013-06-11 10:45:00,
2013-06-11 06:46:00,75.6,72.5,30.01,West,274,3.0,7.0,90,0.00,,BKN200,0.00,VWS V14.01,2013-06-11 10:46:00,
2013-06-11 06:47:00,75.6,72.5,30.02,WSW,255,5.0,10.0,90,0.00,,CLR,0.00,VWS V14.01,2013-06-11 10:47:00,
2013-06-11 06:48:00,75.6,72.5,30.02,SW,233,5.0,10.0,90,0.00,,BKN200,0.00,VWS V14.01,2013-06-11 10:48:00,
2013-06-11 06:49:00,75.6,72.5,30.02,SW,236,6.0,6.0,90,0.00,,BKN200,0.00,VWS V14.01,2013-06-11 10:49:00,
2013-06-11 06:50:00,75.6,72.5,30.02,SW,223,4.0,6.0,90,0.00,,BKN200,0.00,VWS V14.01,2013-06-11 10:50:00,
2013-06-11 06:51:00,75.6,72.8,30.02,WSW,258,6.0,6.0,91,0.00,,BKN200,0.00,VWS V14.01,2013-06-11 10:51:00,
2013-06-11 06:52:00,75.6,72.5,30.02,WSW,257,5.0,5.0,90,0.00,,CLR,0.00,VWS V14.01,2013-06-11 10:52:00,
2013-06-11 06:53:00,75.6,72.8,30.02,WSW,249,5.0,5.0,91,0.00,,BKN200,0.00,VWS V14.01,2013-06-11 10:53:00,
2013-06-11 06:54:00,75.6,72.8,30.02,West,261,4.0,6.0,91,0.00,,BKN200,0.00,VWS V14.01,2013-06-11 10:54:00,
2013-06-11 06:55:00,75.4,72.6,30.02,West,259,2.0,8.0,91,0.00,,BKN200,0.00,VWS V14.01,2013-06-11 10:55:00,
2013-06-11 06:56:00,75.4,72.6,30.02,WSW,251,3.0,6.0,91,0.00,,BKN200,0.00,VWS V14.01,2013-06-11 10:56:00,
2013-06-11 06:57:00,75.4,72.6,30.02,West,273,4.0,4.0,91,0.00,,CLR,0.00,VWS V14.01,2013-06-11 10:57:00,
2013-06-11 06:58:00,75.4,72.6,30.02,WSW,244,9.0,9.0,91,0.00,,BKN200,0.00,VWS V14.01,2013-06-11 10:58:00,
2013-06-11 06:59:00,75.4,72.6,30.02,West,263,3.0,9.0,91,0.00,,BKN200,0.00,VWS V14.01,2013-06-11 10:59:00,
2013-06-11 07:00:00,75.4,72.6,30.02,SW,228,7.0,10.0,91,0.00,,BKN200,0.00,VWS V14.01,2013-06-11 11:00:00,
2013-06-11 07:01:00,75.4,72.6,30.02,WSW,249,3.0,7.0,91,0.00,,BKN200,0.00,VWS V14.01,2013-06-11 11:01:00,
2013-06-11 07:02:00,75.4,72.6,30.02,WNW,282,1.0,3.0,91,0.00,,CLR,0.00,VWS V14.01,2013-06-11 11:02:00,
2013-06-11 07:03:00,75.4,72.6,30.02,WNW,282,1.0,3.0,91,0.00,,BKN200,0.00,VWS V14.01,2013-06-11 11:03:00,
2013-06-11 07:04:00,75.4,72.6,30.02,WSW,252,3.0,6.0,91,0.00,,BKN200,0.00,VWS V14.01,2013-06-11 11:04:00,
2013-06-11 07:05:00,75.4,72.6,30.02,West,265,4.0,7.0,91,0.00,,BKN200,0.00,VWS V14.01,2013-06-11 11:05:00,
2013-06-11 07:06:00,75.4,72.6,30.02,WSW,238,6.0,10.0,91,0.00,,BKN200,0.00,VWS V14.01,2013-06-11 11:06:00,
2013-06-11 07:07:00,75.4,72.6,30.02,West,277,3.0,6.0,91,0.00,,CLR,0.00,VWS V14.01,2013-06-11 11:07:00,
2013-06-11 07:08:00,75.4,72.6,30.02,WNW,302,4.0,6.0,91,0.00,,BKN200,0.00,VWS V14.01,2013-06-11 11:08:00,
2013-06-11 07:09:00,75.4,72.6,30.02,SW,234,5.0,9.0,91,0.00,,BKN200,0.00,VWS V14.01,2013-06-11 11:09:00,
2013-06-11 07:10:00,75.6,72.8,30.02,WSW,240,4.0,7.0,91,0.00,,BKN200,0.00,VWS V14.01,2013-06-11 11:10:00,
2013-06-11 07:11:00,75.6,72.8,30.02,WSW,240,1.0,4.0,91,0.00,,BKN200,0.00,VWS V14.01,2013-06-11 11:11:00,
2013-06-11 07:12:00,75.6,73.1,30.02,WSW,245,9.0,9.0,92,0.00,,CLR,0.00,VWS V14.01,2013-06-11 11:12:00,
2013-06-11 07:13:00,75.6,73.1,30.02,SW,234,7.0,9.0,92,0.00,,BKN200,0.00,VWS V14.01,2013-06-11 11:13:00,
2013-06-11 07:14:00,75.6,72.8,30.02,WSW,241,4.0,10.0,91,0.00,,BKN200,0.00,VWS V14.01,2013-06-11 11:14:00,
2013-06-11 07:15:00,75.6,72.8,30.02,SW,233,5.0,11.0,91,0.00,,BKN200,0.00,VWS V14.01,2013-06-11 11:15:00,
2013-06-11 07:16:00,75.6,72.8,30.02,WSW,250,2.0,7.0,91,0.00,,BKN200,0.00,VWS V14.01,2013-06-11 11:16:00,
2013-06-11 07:17:00,75.6,72.8,30.02,WSW,244,5.0,5.0,91,0.00,,CLR,0.00,VWS V14.01,2013-06-11 11:17:00,
2013-06-11 07:18:00,75.8,73.0,30.02,West,264,3.0,5.0,91,0.00,,BKN200,0.00,VWS V14.01,2013-06-11 11:18:00,
2013-06-11 07:19:00,75.8,73.0,30.02,West,261,4.0,4.0,91,0.00,,BKN200,0.00,VWS V14.01,2013-06-11 11:19:00,
2013-06-11 07:20:00,75.8,73.0,30.02,WSW,240,3.0,4.0,91,0.00,,BKN030,0.00,VWS V14.01,2013-06-11 11:20:00,
2013-06-11 07:21:00,75.8,73.0,30.02,West,259,9.0,9.0,91,0.00,,BKN200,0.00,VWS V14.01,2013-06-11 11:21:00,
2013-06-11 07:22:00,75.8,73.0,30.02,WSW,252,2.0,3.0,91,0.00,,CLR,0.00,VWS V14.01,2013-06-11 11:22:00,
2013-06-11 07:23:00,76.0,73.2,30.02,WSW,246,4.0,4.0,91,0.00,,BKN200,0.00,VWS V14.01,2013-06-11 11:23:00,
2013-06-11 07:24:00,76.0,73.2,30.02,WSW,253,3.0,6.0,91,0.00,,BKN200,0.00,VWS V14.01,2013-06-11 11:24:00,
2013-06-11 07:25:00,76.0,73.2,30.02,WNW,286,3.0,10.0,91,0.00,,BKN200,0.00,VWS V14.01,2013-06-11 11:25:00,
2013-06-11 07:26:00,76.0,73.2,30.02,WSW,240,2.0,10.0,91,0.00,,BKN200,0.00,VWS V14.01,2013-06-11 11:26:00,
2013-06-11 07:27:00,76.0,73.2,30.02,SW,236,8.0,8.0,91,0.00,,CLR,0.00,VWS V14.01,2013-06-11 11:27:00,
2013-06-11 07:28:00,76.0,73.2,30.02,SW,232,6.0,8.0,91,0.00,,BKN200,0.00,VWS V14.01,2013-06-11 11:28:00,
2013-06-11 07:29:00,76.0,73.2,30.02,WSW,250,2.0,6.0,91,0.00,,BKN200,0.00,VWS V14.01,2013-06-11 11:29:00,
2013-06-11 07:30:00,76.1,73.3,30.02,WSW,246,3.0,9.0,91,0.00,,BKN200,0.00,VWS V14.01,2013-06-11 11:30:00,
2013-06-11 07:31:00,76.1,73.3,30.02,WSW,257,7.0,10.0,91,0.00,,BKN200,0.00,VWS V14.01,2013-06-11 11:31:00,
2013-06-11 07:32:00,76.1,73.3,30.03,WSW,238,8.0,8.0,91,0.00,,CLR,0.00,VWS V14.01,2013-06-11 11:32:00,
2013-06-11 07:33:00,76.1,73.0,30.03,WSW,252,10.0,10.0,90,0.00,,BKN200,0.00,VWS V14.01,2013-06-11 11:33:00,
2013-06-11 07:34:00,76.1,73.3,30.03,SW,229,8.0,10.0,91,0.00,,BKN200,0.00,VWS V14.01,2013-06-11 11:34:00,
2013-06-11 07:35:00,76.1,73.0,30.03,West,263,4.0,8.0,90,0.00,,BKN200,0.00,VWS V14.01,2013-06-11 11:35:00,
2013-06-11 07:36:00,76.3,73.2,30.03,West,274,4.0,6.0,90,0.00,,BKN200,0.00,VWS V14.01,2013-06-11 11:36:00,
2013-06-11 07:37:00,76.3,73.2,30.03,West,264,12.0,12.0,90,0.00,,CLR,0.00,VWS V14.01,2013-06-11 11:37:00,
2013-06-11 07:38:00,76.3,73.2,30.03,WNW,287,6.0,12.0,90,0.00,,BKN200,0.00,VWS V14.01,2013-06-11 11:38:00,
2013-06-11 07:39:00,76.3,73.2,30.03,WSW,245,6.0,10.0,90,0.00,,BKN200,0.00,VWS V14.01,2013-06-11 11:39:00,
2013-06-11 07:40:00,76.3,73.2,30.03,WSW,258,0.0,6.0,90,0.00,,BKN200,0.00,VWS V14.01,2013-06-11 11:40:00,
2013-06-11 07:41:00,76.3,73.2,30.03,WSW,256,4.0,4.0,90,0.00,,BKN200,0.00,VWS V14.01,2013-06-11 11:41:00,
2013-06-11 07:42:00,76.5,73.3,30.03,WSW,255,5.0,5.0,90,0.00,,,0.00,VWS V14.01,2013-06-11 11:42:00,
2013-06-11 07:43:00,76.5,73.3,30.03,WSW,248,7.0,9.0,90,0.00,,BKN200,0.00,VWS V14.01,2013-06-11 11:43:00,
2013-06-11 07:44:00,76.5,73.3,29.86,West,277,7.0,7.0,90,0.00,,BKN200,0.00,VWS V14.01,2013-06-11 11:44:00,
2013-06-11 07:45:00,76.5,73.3,29.86,West,263,9.0,9.0,90,0.00,,BKN200,0.00,VWS V14.01,2013-06-11 11:45:00,
2013-06-11 07:46:00,76.5,73.3,29.86,West,262,4.0,11.0,90,0.00,,BKN200,0.00,VWS V14.01,2013-06-11 11:46:00,
2013-06-11 07:47:00,76.5,73.3,29.86,West,277,4.0,5.0,90,0.00,,,0.00,VWS V14.01,2013-06-11 11:47:00,
2013-06-11 07:48:00,76.7,73.6,29.86,West,278,3.0,5.0,90,0.00,,BKN200,0.00,VWS V14.01,2013-06-11 11:48:00,
2013-06-11 07:49:00,76.7,73.6,30.02,WSW,242,5.0,9.0,90,0.00,,BKN200,0.00,VWS V14.01,2013-06-11 11:49:00,
2013-06-11 07:50:00,76.7,73.6,30.02,West,262,8.0,9.0,90,0.00,,BKN200,0.00,VWS V14.01,2013-06-11 11:50:00,
2013-06-11 07:51:00,76.7,73.6,30.03,West,261,4.0,8.0,90,0.00,,BKN200,0.00,VWS V14.01,2013-06-11 11:51:00,
2013-06-11 07:52:00,76.7,73.2,30.02,WSW,239,3.0,8.0,89,0.00,,,0.00,VWS V14.01,2013-06-11 11:52:00,
2013-06-11 07:53:00,76.7,73.2,30.02,WSW,237,6.0,10.0,89,0.00,,BKN200,0.00,VWS V14.01,2013-06-11 11:53:00,
2013-06-11 07:54:00,76.7,73.2,30.02,WSW,246,6.0,6.0,89,0.00,,BKN200,0.00,VWS V14.01,2013-06-11 11:54:00,
2013-06-11 07:55:00,76.8,73.3,30.03,WSW,238,6.0,6.0,89,0.00,,BKN200,0.00,VWS V14.01,2013-06-11 11:55:00,
2013-06-11 07:56:00,76.8,73.3,30.02,WSW,255,4.0,10.0,89,0.00,,BKN200,0.00,VWS V14.01,2013-06-11 11:56:00,
2013-06-11 07:57:00,76.8,73.3,30.02,WSW,252,3.0,10.0,89,0.00,,,0.00,VWS V14.01,2013-06-11 11:57:00,
2013-06-11 07:58:00,76.8,73.3,30.02,WSW,248,4.0,10.0,89,0.00,,BKN200,0.00,VWS V14.01,2013-06-11 11:58:00,
2013-06-11 07:59:00,76.8,73.3,30.02,WSW,254,7.0,7.0,89,0.00,,BKN200,0.00,VWS V14.01,2013-06-11 11:59:00,
2013-06-11 08:00:00,76.8,73.3,30.02,WSW,256,5.0,9.0,89,0.00,,BKN200,0.00,VWS V14.01,2013-06-11 12:00:00,
2013-06-11 08:01:00,76.8,73.3,30.03,WSW,255,5.0,10.0,89,0.00,,BKN200,0.00,VWS V14.01,2013-06-11 12:01:00,
2013-06-11 08:02:00,77.0,73.5,30.03,West,276,6.0,8.0,89,0.00,,,0.00,VWS V14.01,2013-06-11 12:02:00,
2013-06-11 08:03:00,77.0,73.5,30.03,SW,231,7.0,8.0,89,0.00,,BKN200,0.00,VWS V14.01,2013-06-11 12:03:00,
2013-06-11 08:04:00,77.0,73.5,30.02,WSW,250,9.0,9.0,89,0.00,,BKN200,0.00,VWS V14.01,2013-06-11 12:04:00,
2013-06-11 08:05:00,77.0,73.5,30.03,SW,230,6.0,9.0,89,0.00,,BKN200,0.00,VWS V14.01,2013-06-11 12:05:00,
2013-06-11 08:06:00,77.0,73.5,30.03,West,262,5.0,9.0,89,0.00,,BKN200,0.00,VWS V14.01,2013-06-11 12:06:00,
2013-06-11 08:07:00,77.2,73.7,30.03,WSW,238,3.0,6.0,89,0.00,,,0.00,VWS V14.01,2013-06-11 12:07:00,
2013-06-11 08:08:00,77.2,73.7,30.03,WSW,257,6.0,6.0,89,0.00,,BKN200,0.00,VWS V14.01,2013-06-11 12:08:00,
2013-06-11 08:09:00,77.2,73.7,30.02,WSW,250,5.0,6.0,89,0.00,,BKN200,0.00,VWS V14.01,2013-06-11 12:09:00,
2013-06-11 08:10:00,77.4,73.9,30.02,SW,227,6.0,6.0,89,0.00,,BKN200,0.00,VWS V14.01,2013-06-11 12:10:00,
2013-06-11 08:11:00,77.4,73.9,30.02,WSW,253,3.0,11.0,89,0.00,,BKN200,0.00,VWS V14.01,2013-06-11 12:11:00,
2013-06-11 08:12:00,77.6,74.1,30.02,WSW,240,3.0,7.0,89,0.00,,,0.00,VWS V14.01,2013-06-11 12:12:00,
2013-06-11 08:13:00,77.6,74.1,30.02,WSW,244,4.0,7.0,89,0.00,,BKN200,0.00,VWS V14.01,2013-06-11 12:13:00,
2013-06-11 08:14:00,77.6,74.1,30.02,WSW,240,7.0,7.0,89,0.00,,BKN200,0.00,VWS V14.01,2013-06-11 12:14:00,
2013-06-11 08:15:00,77.6,74.4,30.02,WSW,249,7.0,8.0,90,0.00,,BKN200,0.00,VWS V14.01,2013-06-11 12:15:00,
2013-06-11 08:16:00,77.7,73.9,30.02,WNW,285,2.0,7.0,88,0.00,,BKN200,0.00,VWS V14.01,2013-06-11 12:16:00,
2013-06-11 08:17:00,77.7,73.9,30.02,WNW,299,6.0,7.0,88,0.00,,,0.00,VWS V14.01,2013-06-11 12:17:00,
2013-06-11 08:18:00,77.7,73.9,30.02,WSW,252,11.0,11.0,88,0.00,,BKN200,0.00,VWS V14.01,2013-06-11 12:18:00,
2013-06-11 08:19:00,77.7,73.9,30.02,WSW,250,6.0,11.0,88,0.00,,BKN200,0.00,VWS V14.01,2013-06-11 12:19:00,
2013-06-11 08:20:00,77.7,73.9,30.02,West,267,4.0,6.0,88,0.00,,BKN200,0.00,VWS V14.01,2013-06-11 12:20:00,
2013-06-11 08:21:00,77.7,73.9,30.02,WNW,292,2.0,4.0,88,0.00,,BKN200,0.00,VWS V14.01,2013-06-11 12:21:00,
2013-06-11 08:22:00,77.9,74.1,30.02,SW,218,9.0,9.0,88,0.00,,,0.00,VWS V14.01,2013-06-11 12:22:00,
2013-06-11 08:23:00,77.9,74.1,30.02,West,261,5.0,9.0,88,0.00,,BKN200,0.00,VWS V14.01,2013-06-11 12:23:00,
2013-06-11 08:24:00,77.9,74.1,30.03,West,281,11.0,11.0,88,0.00,,BKN200,0.00,VWS V14.01,2013-06-11 12:24:00,
2013-06-11 08:25:00,77.9,74.1,30.03,West,263,3.0,11.0,88,0.00,,BKN200,0.00,VWS V14.01,2013-06-11 12:25:00,
2013-06-11 08:26:00,77.9,74.1,30.03,SE,140,3.0,9.0,88,0.00,,BKN200,0.00,VWS V14.01,2013-06-11 12:26:00,
2013-06-11 08:27:00,78.1,74.3,30.03,WSW,257,1.0,3.0,88,0.00,,,0.00,VWS V14.01,2013-06-11 12:27:00,
2013-06-11 08:28:00,78.1,74.3,30.03,WNW,284,4.0,4.0,88,0.00,,BKN200,0.00,VWS V14.01,2013-06-11 12:28:00,
2013-06-11 08:29:00,78.1,74.3,30.03,WSW,238,15.0,15.0,88,0.00,,BKN200,0.00,VWS V14.01,2013-06-11 12:29:00,
2013-06-11 08:30:00,78.1,73.9,30.03,WSW,240,7.0,15.0,87,0.00,,BKN200,0.00,VWS V14.01,2013-06-11 12:30:00,
2013-06-11 08:31:00,78.1,73.9,30.03,SW,221,6.0,9.0,87,0.00,,BKN200,0.00,VWS V14.01,2013-06-11 12:31:00,
2013-06-11 08:32:00,78.1,73.9,30.03,NW,305,7.0,7.0,87,0.00,,,0.00,VWS V14.01,2013-06-11 12:32:00,
2013-06-11 08:33:00,78.1,73.9,30.03,West,281,5.0,7.0,87,0.00,,BKN200,0.00,VWS V14.01,2013-06-11 12:33:00,
2013-06-11 08:34:00,78.1,73.9,30.03,WSW,246,4.0,13.0,87,0.00,,BKN200,0.00,VWS V14.01,2013-06-11 12:34:00,
2013-06-11 08:35:00,78.3,74.1,30.03,WSW,249,5.0,9.0,87,0.00,,BKN200,0.00,VWS V14.01,2013-06-11 12:35:00,
2013-06-11 08:36:00,78.3,74.1,30.03,WSW,249,7.0,7.0,87,0.00,,BKN200,0.00,VWS V14.01,2013-06-11 12:36:00,
2013-06-11 08:37:00,78.3,74.1,30.03,West,271,2.0,7.0,87,0.00,,,0.00,VWS V14.01,2013-06-11 12:37:00,
2013-06-11 08:38:00,78.3,74.1,30.03,WSW,257,7.0,7.0,87,0.00,,BKN200,0.00,VWS V14.01,2013-06-11 12:38:00,
2013-06-11 08:39:00,78.3,74.1,30.03,WSW,250,3.0,7.0,87,0.00,,BKN200,0.00,VWS V14.01,2013-06-11 12:39:00,
2013-06-11 08:40:00,78.5,74.3,30.03,WNW,282,2.0,5.0,87,0.00,,BKN200,0.00,VWS V14.01,2013-06-11 12:40:00,
2013-06-11 08:41:00,78.5,74.3,30.03,West,271,8.0,10.0,87,0.00,,BKN200,0.00,VWS V14.01,2013-06-11 12:41:00,
2013-06-11 08:42:00,78.5,74.3,29.99,WSW,245,5.0,7.0,87,0.00,,BKN200,0.00,VWS V14.01,2013-06-11 12:42:00,
2013-06-11 08:43:00,78.5,74.3,29.99,West,273,5.0,7.0,87,0.00,,BKN200,0.00,VWS V14.01,2013-06-11 12:43:00,
2013-06-11 08:44:00,78.5,74.3,29.99,WSW,257,5.0,5.0,87,0.00,,BKN200,0.00,VWS V14.01,2013-06-11 12:44:00,
2013-06-11 08:45:00,78.5,74.3,30.03,West,269,4.0,9.0,87,0.00,,BKN200,0.00,VWS V14.01,2013-06-11 12:45:00,
2013-06-11 08:46:00,78.5,74.3,30.03,West,272,4.0,12.0,87,0.00,,BKN200,0.00,VWS V14.01,2013-06-11 12:46:00,
2013-06-11 08:47:00,78.5,74.3,30.03,SW,232,7.0,9.0,87,0.00,,BKN200,0.00,VWS V14.01,2013-06-11 12:47:00,
2013-06-11 08:48:00,78.5,74.3,30.03,WNW,288,5.0,9.0,87,0.00,,BKN200,0.00,VWS V14.01,2013-06-11 12:48:00,
2013-06-11 08:49:00,78.5,74.3,30.03,WSW,250,4.0,10.0,87,0.00,,BKN200,0.00,VWS V14.01,2013-06-11 12:49:00,
2013-06-11 08:50:00,78.5,74.3,30.03,WSW,240,11.0,11.0,87,0.00,,BKN200,0.00,VWS V14.01,2013-06-11 12:50:00,
2013-06-11 08:51:00,78.5,74.3,30.03,SW,229,6.0,11.0,87,0.00,,BKN200,0.00,VWS V14.01,2013-06-11 12:51:00,
2013-06-11 08:52:00,78.5,74.3,29.99,West,260,8.0,8.0,87,0.00,,BKN200,0.00,VWS V14.01,2013-06-11 12:52:00,
2013-06-11 08:53:00,78.6,74.4,29.99,NW,316,4.0,8.0,87,0.00,,BKN200,0.00,VWS V14.01,2013-06-11 12:53:00,
2013-06-11 08:54:00,78.6,74.4,29.99,SW,233,9.0,12.0,87,0.00,,BKN200,0.00,VWS V14.01,2013-06-11 12:54:00,
2013-06-11 08:55:00,78.6,74.4,29.99,West,269,12.0,12.0,87,0.00,,BKN200,0.00,VWS V14.01,2013-06-11 12:55:00,
2013-06-11 08:56:00,78.6,74.4,30.03,WSW,255,5.0,12.0,87,0.00,,BKN200,0.00,VWS V14.01,2013-06-11 12:56:00,
2013-06-11 08:57:00,78.6,74.4,30.03,SW,224,9.0,9.0,87,0.00,,BKN200,0.00,VWS V14.01,2013-06-11 12:57:00,
2013-06-11 08:58:00,78.6,74.4,30.03,SW,235,10.0,10.0,87,0.00,,BKN200,0.00,VWS V14.01,2013-06-11 12:58:00,
2013-06-11 08:59:00,78.6,74.4,29.81,WSW,241,10.0,10.0,87,0.00,,BKN200,0.00,VWS V14.01,2013-06-11 12:59:00,
2013-06-11 09:00:00,78.6,74.1,29.81,WSW,243,7.0,12.0,86,0.00,,BKN200,0.00,VWS V14.01,2013-06-11 13:00:00,
2013-06-11 09:01:00,78.6,74.1,29.81,NW,308,10.0,10.0,86,0.00,,BKN200,0.00,VWS V14.01,2013-06-11 13:01:00,
2013-06-11 09:02:00,78.8,74.6,29.81,West,261,9.0,9.0,87,0.00,,BKN200,0.00,VWS V14.01,2013-06-11 13:02:00,
2013-06-11 09:03:00,78.8,74.6,29.81,WSW,252,12.0,12.0,87,0.00,,BKN200,0.00,VWS V14.01,2013-06-11 13:03:00,
2013-06-11 09:04:00,78.8,74.3,29.81,West,262,12.0,16.0,86,0.00,,BKN200,0.00,VWS V14.01,2013-06-11 13:04:00,
2013-06-11 09:05:00,78.8,74.3,29.81,WSW,250,5.0,12.0,86,0.00,,BKN200,0.00,VWS V14.01,2013-06-11 13:05:00,
2013-06-11 09:06:00,78.8,74.6,29.81,WSW,240,13.0,13.0,87,0.00,,BKN200,0.00,VWS V14.01,2013-06-11 13:06:00,
2013-06-11 09:07:00,79.0,74.5,29.67,WSW,252,3.0,3.0,86,0.00,,BKN200,0.00,VWS V14.01,2013-06-11 13:07:00,
2013-06-11 09:08:00,79.0,74.8,29.67,WSW,240,5.0,5.0,87,0.00,,BKN200,0.00,VWS V14.01,2013-06-11 13:08:00,
2013-06-11 09:09:00,79.0,74.5,29.67,West,267,10.0,10.0,86,0.00,,BKN200,0.00,VWS V14.01,2013-06-11 13:09:00,
2013-06-11 09:10:00,79.0,74.1,29.67,West,273,12.0,15.0,85,0.00,,BKN200,0.00,VWS V14.01,2013-06-11 13:10:00,
2013-06-11 09:11:00,79.0,74.5,29.72,West,273,11.0,12.0,86,0.00,,BKN200,0.00,VWS V14.01,2013-06-11 13:11:00,
2013-06-11 09:12:00,79.2,74.7,29.76,WSW,243,2.0,4.0,86,0.00,,BKN200,0.00,VWS V14.01,2013-06-11 13:12:00,
2013-06-11 09:13:00,79.2,74.7,29.76,WSW,251,3.0,4.0,86,0.00,,,0.00,VWS V14.01,2013-06-11 13:13:00,
2013-06-11 09:14:00,79.2,74.7,29.76,West,263,9.0,10.0,86,0.00,,,0.00,VWS V14.01,2013-06-11 13:14:00,
2013-06-11 09:15:00,79.2,74.7,29.76,WSW,250,10.0,10.0,86,0.00,,,0.00,VWS V14.01,2013-06-11 13:15:00,
2013-06-11 09:16:00,79.4,74.8,29.72,SSW,209,3.0,10.0,86,0.00,,,0.00,VWS V14.01,2013-06-11 13:16:00,
2013-06-11 09:17:00,79.4,74.8,29.72,NW,324,2.0,7.0,86,0.00,,BKN200,0.00,VWS V14.01,2013-06-11 13:17:00,
2013-06-11 09:18:00,79.4,74.8,29.72,West,281,8.0,10.0,86,0.00,,,0.00,VWS V14.01,2013-06-11 13:18:00,
2013-06-11 09:19:00,79.4,74.5,29.72,WNW,296,8.0,10.0,85,0.00,,,0.00,VWS V14.01,2013-06-11 13:19:00,
2013-06-11 09:20:00,79.4,74.5,29.72,West,277,4.0,8.0,85,0.00,,,0.00,VWS V14.01,2013-06-11 13:20:00,
2013-06-11 09:21:00,79.4,74.5,29.72,WNW,286,1.0,6.0,85,0.00,,,0.00,VWS V14.01,2013-06-11 13:21:00,
2013-06-11 09:22:00,79.6,74.7,29.72,WSW,248,6.0,9.0,85,0.00,,BKN200,0.00,VWS V14.01,2013-06-11 13:22:00,
2013-06-11 09:23:00,79.6,74.7,29.72,WNW,294,4.0,9.0,85,0.00,,,0.00,VWS V14.01,2013-06-11 13:23:00,
2013-06-11 09:24:00,79.6,74.7,29.72,SSW,213,2.0,5.0,85,0.00,,,0.00,VWS V14.01,2013-06-11 13:24:00,
2013-06-11 09:25:00,79.8,74.9,29.72,WSW,254,6.0,6.0,85,0.00,,,0.00,VWS V14.01,2013-06-11 13:25:00,
2013-06-11 09:26:00,79.8,74.9,29.72,WSW,237,6.0,12.0,85,0.00,,,0.00,VWS V14.01,2013-06-11 13:26:00,
2013-06-11 09:27:00,79.6,74.3,29.72,WNW,288,9.0,11.0,84,0.00,,BKN200,0.00,VWS V14.01,2013-06-11 13:27:00,
2013-06-11 09:28:00,79.6,74.3,29.72,SW,229,5.0,11.0,84,0.00,,,0.00,VWS V14.01,2013-06-11 13:28:00,
2013-06-11 09:29:00,79.6,74.3,29.72,WSW,238,11.0,11.0,84,0.00,,,0.00,VWS V14.01,2013-06-11 13:29:00,
2013-06-11 09:30:00,79.6,74.3,29.72,NW,310,2.0,11.0,84,0.00,,,0.00,VWS V14.01,2013-06-11 13:30:00,
2013-06-11 09:31:00,79.8,74.9,29.72,North,360,2.0,5.0,85,0.00,,,0.00,VWS V14.01,2013-06-11 13:31:00,
2013-06-11 09:32:00,79.8,74.9,29.72,West,278,4.0,7.0,85,0.00,,BKN200,0.00,VWS V14.01,2013-06-11 13:32:00,
2013-06-11 09:33:00,79.8,74.9,29.99,NW,311,5.0,7.0,85,0.00,,,0.00,VWS V14.01,2013-06-11 13:33:00,
2013-06-11 09:34:00,79.8,74.9,29.99,West,272,2.0,5.0,85,0.00,,,0.00,VWS V14.01,2013-06-11 13:34:00,
2013-06-11 09:35:00,79.9,74.6,29.99,WSW,246,6.0,10.0,84,0.00,,,0.00,VWS V14.01,2013-06-11 13:35:00,
2013-06-11 09:36:00,79.9,74.6,29.99,WNW,286,5.0,6.0,84,0.00,,,0.00,VWS V14.01,2013-06-11 13:36:00,
2013-06-11 09:37:00,79.9,74.6,29.99,ENE,76,1.0,5.0,84,0.00,,BKN200,0.00,VWS V14.01,2013-06-11 13:37:00,
2013-06-11 09:38:00,79.9,74.6,29.99,East,79,2.0,5.0,84,0.00,,,0.00,VWS V14.01,2013-06-11 13:38:00,
2013-06-11 09:39:00,80.1,75.2,29.99,SW,234,3.0,5.0,85,0.00,,,0.00,VWS V14.01,2013-06-11 13:39:00,
2013-06-11 09:40:00,80.1,74.8,30.03,WSW,256,10.0,11.0,84,0.00,,,0.00,VWS V14.01,2013-06-11 13:40:00,
2013-06-11 09:41:00,80.1,74.8,30.03,WNW,283,6.0,10.0,84,0.00,,,0.00,VWS V14.01,2013-06-11 13:41:00,
2013-06-11 09:42:00,80.3,75.0,29.77,WSW,254,4.0,5.0,84,0.00,,BKN200,0.00,VWS V14.01,2013-06-11 13:42:00,
2013-06-11 09:43:00,80.3,75.0,29.77,WSW,255,2.0,5.0,84,0.00,,,0.00,VWS V14.01,2013-06-11 13:43:00,
2013-06-11 09:44:00,80.3,75.0,29.77,SW,230,9.0,9.0,84,0.00,,,0.00,VWS V14.01,2013-06-11 13:44:00,
2013-06-11 09:45:00,80.3,75.0,29.77,West,275,3.0,9.0,84,0.00,,,0.00,VWS V14.01,2013-06-11 13:45:00,
2013-06-11 09:46:00,80.3,74.7,29.77,West,268,10.0,11.0,83,0.00,,,0.00,VWS V14.01,2013-06-11 13:46:00,
2013-06-11 09:47:00,80.3,74.7,29.77,WSW,256,2.0,6.0,83,0.00,,BKN200,0.00,VWS V14.01,2013-06-11 13:47:00,
2013-06-11 09:48:00,80.3,74.7,29.77,West,260,2.0,6.0,83,0.00,,,0.00,VWS V14.01,2013-06-11 13:48:00,
2013-06-11 09:49:00,80.5,74.9,29.77,SW,229,3.0,5.0,83,0.00,,,0.00,VWS V14.01,2013-06-11 13:49:00,
2013-06-11 09:50:00,80.7,75.1,29.77,WNW,298,4.0,7.0,83,0.00,,,0.00,VWS V14.01,2013-06-11 13:50:00,
2013-06-11 09:51:00,80.7,75.1,29.77,West,266,4.0,11.0,83,0.00,,,0.00,VWS V14.01,2013-06-11 13:51:00,
2013-06-11 09:52:00,80.7,75.1,29.77,SW,229,5.0,12.0,83,0.00,,BKN200,0.00,VWS V14.01,2013-06-11 13:52:00,
2013-06-11 09:53:00,80.7,74.7,29.77,WSW,244,9.0,12.0,82,0.00,,,0.00,VWS V14.01,2013-06-11 13:53:00,
2013-06-11 09:54:00,80.7,75.1,29.77,West,266,2.0,9.0,83,0.00,,,0.00,VWS V14.01,2013-06-11 13:54:00,
2013-06-11 09:55:00,80.7,75.1,29.77,WSW,252,5.0,9.0,83,0.00,,,0.00,VWS V14.01,2013-06-11 13:55:00,
2013-06-11 09:56:00,80.9,75.3,29.82,West,261,5.0,10.0,83,0.00,,,0.00,VWS V14.01,2013-06-11 13:56:00,
2013-06-11 09:57:00,80.9,75.3,29.82,West,259,4.0,4.0,83,0.00,,BKN200,0.00,VWS V14.01,2013-06-11 13:57:00,
2013-06-11 09:58:00,80.9,75.3,29.82,WSW,248,6.0,6.0,83,0.00,,,0.00,VWS V14.01,2013-06-11 13:58:00,
2013-06-11 09:59:00,80.9,74.9,29.82,SW,223,7.0,11.0,82,0.00,,,0.00,VWS V14.01,2013-06-11 13:59:00,
2013-06-11 10:00:00,80.9,74.9,29.82,West,281,6.0,8.0,82,0.00,,,0.00,VWS V14.01,2013-06-11 14:00:00,
2013-06-11 10:01:00,80.9,74.9,29.82,SW,234,12.0,13.0,82,0.00,,,0.00,VWS V14.01,2013-06-11 14:01:00,
2013-06-11 10:02:00,80.9,74.9,29.82,West,271,2.0,7.0,82,0.00,,BKN200,0.00,VWS V14.01,2013-06-11 14:02:00,
2013-06-11 10:03:00,80.9,74.9,29.82,SW,227,7.0,10.0,82,0.00,,,0.00,VWS V14.01,2013-06-11 14:03:00,
2013-06-11 10:04:00,80.9,74.9,29.82,SW,236,5.0,10.0,82,0.00,,,0.00,VWS V14.01,2013-06-11 14:04:00,
2013-06-11 10:05:00,80.9,74.9,29.82,West,262,3.0,6.0,82,0.00,,,0.00,VWS V14.01,2013-06-11 14:05:00,
2013-06-11 10:06:00,81.1,75.1,29.68,WSW,252,8.0,9.0,82,0.00,,,0.00,VWS V14.01,2013-06-11 14:06:00,
2013-06-11 10:07:00,81.1,75.1,29.68,West,279,11.0,11.0,82,0.00,,BKN200,0.00,VWS V14.01,2013-06-11 14:07:00,
2013-06-11 10:08:00,81.1,75.1,29.68,West,274,6.0,11.0,82,0.00,,,0.00,VWS V14.01,2013-06-11 14:08:00,
2013-06-11 10:09:00,81.1,74.7,29.68,SSW,201,2.0,12.0,81,0.00,,,0.00,VWS V14.01,2013-06-11 14:09:00,
2013-06-11 10:10:00,81.1,75.1,29.68,West,274,7.0,11.0,82,0.00,,,0.00,VWS V14.01,2013-06-11 14:10:00,
2013-06-11 10:11:00,81.1,75.1,30.01,West,267,4.0,7.0,82,0.00,,,0.00,VWS V14.01,2013-06-11 14:11:00,
2013-06-11 10:12:00,81.1,75.1,30.01,SW,225,5.0,5.0,82,0.00,,BKN200,0.00,VWS V14.01,2013-06-11 14:12:00,
2013-06-11 10:13:00,81.1,75.1,30.01,WSW,238,2.0,5.0,82,0.00,,,0.00,VWS V14.01,2013-06-11 14:13:00,
2013-06-11 10:14:00,81.2,75.2,30.01,SSW,209,2.0,7.0,82,0.00,,,0.00,VWS V14.01,2013-06-11 14:14:00,
2013-06-11 10:15:00,81.2,75.2,29.94,WSW,237,3.0,11.0,82,0.00,,,0.00,VWS V14.01,2013-06-11 14:15:00,
2013-06-11 10:16:00,81.2,75.2,29.94,SW,228,9.0,9.0,82,0.00,,,0.00,VWS V14.01,2013-06-11 14:16:00,
2013-06-11 10:17:00,81.2,74.8,30.02,West,260,9.0,13.0,81,0.00,,BKN200,0.00,VWS V14.01,2013-06-11 14:17:00,
2013-06-11 10:18:00,81.2,74.8,30.02,SW,225,9.0,13.0,81,0.00,,,0.00,VWS V14.01,2013-06-11 14:18:00,
2013-06-11 10:19:00,81.2,74.8,30.02,WSW,246,8.0,13.0,81,0.00,,,0.00,VWS V14.01,2013-06-11 14:19:00,
2013-06-11 10:20:00,81.2,74.8,30.02,WSW,257,6.0,8.0,81,0.00,,,0.00,VWS V14.01,2013-06-11 14:20:00,
2013-06-11 10:21:00,81.1,74.7,30.00,SW,225,7.0,12.0,81,0.00,,,0.00,VWS V14.01,2013-06-11 14:21:00,
2013-06-11 10:22:00,81.1,74.7,30.02,WNW,297,4.0,8.0,81,0.00,,BKN200,0.00,VWS V14.01,2013-06-11 14:22:00,
2013-06-11 10:23:00,81.1,74.7,30.02,WSW,237,4.0,8.0,81,0.00,,,0.00,VWS V14.01,2013-06-11 14:23:00,
2013-06-11 10:24:00,81.1,74.7,30.02,NW,311,8.0,8.0,81,0.00,,,0.00,VWS V14.01,2013-06-11 14:24:00,
2013-06-11 10:25:00,81.2,74.8,29.60,WSW,255,6.0,8.0,81,0.00,,,0.00,VWS V14.01,2013-06-11 14:25:00,
2013-06-11 10:26:00,81.2,74.8,29.60,West,280,3.0,6.0,81,0.00,,,0.00,VWS V14.01,2013-06-11 14:26:00,
2013-06-11 10:27:00,81.2,74.8,29.52,North,360,6.0,13.0,81,0.00,,BKN200,0.00,VWS V14.01,2013-06-11 14:27:00,
2013-06-11 10:28:00,81.2,74.8,29.52,West,261,7.0,13.0,81,0.00,,,0.00,VWS V14.01,2013-06-11 14:28:00,
2013-06-11 10:29:00,81.4,75.0,29.54,WNW,296,4.0,7.0,81,0.00,,,0.00,VWS V14.01,2013-06-11 14:29:00,
2013-06-11 10:30:00,81.4,75.0,29.54,WSW,247,2.0,4.0,81,0.00,,,0.00,VWS V14.01,2013-06-11 14:30:00,
2013-06-11 10:31:00,81.6,75.2,29.54,WSW,242,6.0,6.0,81,0.00,,,0.00,VWS V14.01,2013-06-11 14:31:00,
2013-06-11 10:32:00,81.8,75.4,29.54,North,355,1.0,3.0,81,0.00,,BKN200,0.00,VWS V14.01,2013-06-11 14:32:00,
2013-06-11 10:33:00,81.8,75.4,29.54,North,355,1.0,3.0,81,0.00,,,0.00,VWS V14.01,2013-06-11 14:33:00,
2013-06-11 10:34:00,82.0,75.6,29.96,West,281,3.0,3.0,81,0.00,,,0.00,VWS V14.01,2013-06-11 14:34:00,
2013-06-11 10:35:00,82.0,75.6,29.96,WSW,244,5.0,11.0,81,0.00,,,0.00,VWS V14.01,2013-06-11 14:35:00,
2013-06-11 10:36:00,82.0,74.8,29.96,WSW,254,7.0,7.0,79,0.00,,,0.00,VWS V14.01,2013-06-11 14:36:00,
2013-06-11 10:37:00,82.0,75.2,29.98,West,271,4.0,5.0,80,0.00,,BKN200,0.00,VWS V14.01,2013-06-11 14:37:00,
2013-06-11 10:38:00,82.0,75.2,29.98,SSW,212,6.0,6.0,80,0.00,,,0.00,VWS V14.01,2013-06-11 14:38:00,
2013-06-11 10:39:00,82.0,75.2,30.03,West,268,3.0,9.0,80,0.00,,,0.00,VWS V14.01,2013-06-11 14:39:00,
2013-06-11 10:40:00,82.2,75.4,30.03,North,11,1.0,12.0,80,0.00,,,0.00,VWS V14.01,2013-06-11 14:40:00,
2013-06-11 10:41:00,82.2,75.0,30.03,SW,218,11.0,11.0,79,0.00,,,0.00,VWS V14.01,2013-06-11 14:41:00,
2013-06-11 10:42:00,82.0,74.8,30.03,WSW,251,9.0,12.0,79,0.00,,,0.00,VWS V14.01,2013-06-11 14:42:00,
2013-06-11 10:43:00,82.0,74.8,30.03,SW,230,5.0,12.0,79,0.00,,,0.00,VWS V14.01,2013-06-11 14:43:00,
2013-06-11 10:44:00,82.0,74.8,30.01,SW,235,4.0,6.0,79,0.00,,,0.00,VWS V14.01,2013-06-11 14:44:00,
2013-06-11 10:45:00,82.2,75.4,30.01,WNW,286,5.0,5.0,80,0.00,,,0.00,VWS V14.01,2013-06-11 14:45:00,
2013-06-11 10:46:00,82.2,74.7,30.01,West,263,7.0,12.0,78,0.00,,,0.00,VWS V14.01,2013-06-11 14:46:00,
2013-06-11 10:47:00,82.0,75.2,30.03,WSW,248,3.0,3.0,80,0.00,,,0.00,VWS V14.01,2013-06-11 14:47:00,
2013-06-11 10:48:00,82.2,75.4,30.03,WSW,250,1.0,3.0,80,0.00,,,0.00,VWS V14.01,2013-06-11 14:48:00,
2013-06-11 10:49:00,82.2,75.4,30.03,WNW,294,1.0,4.0,80,0.00,,,0.00,VWS V14.01,2013-06-11 14:49:00,
2013-06-11 10:50:00,82.4,75.6,30.03,West,270,4.0,7.0,80,0.00,,,0.00,VWS V14.01,2013-06-11 14:50:00,
2013-06-11 10:51:00,82.4,74.9,30.03,WSW,258,2.0,7.0,78,0.00,,,0.00,VWS V14.01,2013-06-11 14:51:00,
2013-06-11 10:52:00,82.4,74.9,29.94,West,269,10.0,10.0,78,0.00,,,0.00,VWS V14.01,2013-06-11 14:52:00,
2013-06-11 10:53:00,82.4,74.9,29.94,WSW,257,10.0,10.0,78,0.00,,,0.00,VWS V14.01,2013-06-11 14:53:00,
2013-06-11 10:54:00,82.4,74.5,29.94,West,264,4.0,10.0,77,0.00,,,0.00,VWS V14.01,2013-06-11 14:54:00,
2013-06-11 10:55:00,82.4,74.9,29.94,SW,231,5.0,5.0,78,0.00,,,0.00,VWS V14.01,2013-06-11 14:55:00,
2013-06-11 10:56:00,82.6,75.1,29.94,WSW,247,7.0,7.0,78,0.00,,,0.00,VWS V14.01,2013-06-11 14:56:00,
2013-06-11 10:57:00,82.4,74.5,29.94,SW,227,5.0,11.0,77,0.00,,,0.00,VWS V14.01,2013-06-11 14:57:00,
2013-06-11 10:58:00,82.4,74.5,29.94,WSW,248,8.0,11.0,77,0.00,,,0.00,VWS V14.01,2013-06-11 14:58:00,
2013-06-11 10:59:00,82.4,74.5,29.94,WSW,237,10.0,11.0,77,0.00,,,0.00,VWS V14.01,2013-06-11 14:59:00,
2013-06-11 11:00:00,82.4,74.9,29.94,West,268,6.0,11.0,78,0.00,,,0.00,VWS V14.01,2013-06-11 15:00:00,
2013-06-11 11:01:00,82.4,74.9,30.03,NNW,328,6.0,12.0,78,0.00,,,0.00,VWS V14.01,2013-06-11 15:01:00,
2013-06-11 11:02:00,82.2,74.3,29.98,WSW,240,1.0,7.0,77,0.00,,,0.00,VWS V14.01,2013-06-11 15:02:00,
2013-06-11 11:03:00,82.2,74.3,29.97,WSW,254,5.0,7.0,77,0.00,,,0.00,VWS V14.01,2013-06-11 15:03:00,
2013-06-11 11:04:00,82.4,74.9,29.95,West,274,2.0,11.0,78,0.00,,,0.00,VWS V14.01,2013-06-11 15:04:00,
2013-06-11 11:05:00,82.4,74.9,29.95,West,261,1.0,3.0,78,0.00,,,0.00,VWS V14.01,2013-06-11 15:05:00,
2013-06-11 11:06:00,82.4,74.9,29.95,WSW,252,4.0,9.0,78,0.00,,,0.00,VWS V14.01,2013-06-11 15:06:00,
2013-06-11 11:07:00,82.8,75.6,29.95,WSW,242,2.0,5.0,79,0.00,,,0.00,VWS V14.01,2013-06-11 15:07:00,
2013-06-11 11:08:00,82.8,75.6,29.95,WSW,242,2.0,5.0,79,0.00,,,0.00,VWS V14.01,2013-06-11 15:08:00,
2013-06-11 11:09:00,83.0,75.4,29.98,NW,308,1.0,4.0,78,0.00,,,0.00,VWS V14.01,2013-06-11 15:09:00,
2013-06-11 11:10:00,83.2,75.6,29.98,SW,223,9.0,9.0,78,0.00,,,0.00,VWS V14.01,2013-06-11 15:10:00,
2013-06-11 11:11:00,83.2,74.8,29.98,WSW,254,10.0,11.0,76,0.00,,,0.00,VWS V14.01,2013-06-11 15:11:00,
2013-06-11 11:12:00,83.2,74.8,29.76,West,265,5.0,9.0,76,0.00,,,0.00,VWS V14.01,2013-06-11 15:12:00,
2013-06-11 11:13:00,83.2,74.8,29.76,WSW,237,9.0,9.0,76,0.00,,,0.00,VWS V14.01,2013-06-11 15:13:00,
2013-06-11 11:14:00,83.0,74.3,29.76,West,269,7.0,11.0,75,0.00,,,0.00,VWS V14.01,2013-06-11 15:14:00,
2013-06-11 11:15:00,83.0,72.6,29.76,WSW,244,15.0,15.0,71,0.00,,,0.00,VWS V14.01,2013-06-11 15:15:00,
2013-06-11 11:16:00,83.0,74.3,29.76,WSW,244,5.0,15.0,75,0.00,,,0.00,VWS V14.01,2013-06-11 15:16:00,
2013-06-11 11:17:00,83.0,74.3,29.68,West,265,6.0,6.0,75,0.00,,,0.00,VWS V14.01,2013-06-11 15:17:00,
2013-06-11 11:18:00,83.0,74.3,29.68,WSW,257,7.0,7.0,75,0.00,,,0.00,VWS V14.01,2013-06-11 15:18:00,
2013-06-11 11:19:00,83.2,74.5,29.68,NW,313,1.0,10.0,75,0.00,,,0.00,VWS V14.01,2013-06-11 15:19:00,
2013-06-11 11:20:00,83.2,74.5,29.72,NNW,346,4.0,6.0,75,0.00,,,0.00,VWS V14.01,2013-06-11 15:20:00,
2013-06-11 11:21:00,83.2,74.8,29.72,SW,236,10.0,10.0,76,0.00,,,0.00,VWS V14.01,2013-06-11 15:21:00,
2013-06-11 11:22:00,83.4,74.7,29.73,NW,306,3.0,5.0,75,0.00,,,0.00,VWS V14.01,2013-06-11 15:22:00,
2013-06-11 11:23:00,83.4,74.7,29.73,SW,236,9.0,9.0,75,0.00,,,0.00,VWS V14.01,2013-06-11 15:23:00,
2013-06-11 11:24:00,83.4,74.7,29.73,SW,227,4.0,9.0,75,0.00,,,0.00,VWS V14.01,2013-06-11 15:24:00,
2013-06-11 11:25:00,83.6,74.8,29.73,WSW,247,2.0,9.0,75,0.00,,,0.00,VWS V14.01,2013-06-11 15:25:00,
2013-06-11 11:26:00,83.6,74.4,29.73,NW,309,3.0,6.0,74,0.00,,,0.00,VWS V14.01,2013-06-11 15:26:00,
2013-06-11 11:27:00,83.6,74.8,29.73,SSW,213,3.0,8.0,75,0.00,,,0.00,VWS V14.01,2013-06-11 15:27:00,
2013-06-11 11:28:00,83.6,74.8,29.73,SW,236,2.0,8.0,75,0.00,,,0.00,VWS V14.01,2013-06-11 15:28:00,
2013-06-11 11:29:00,83.8,75.0,29.81,NW,306,4.0,6.0,75,0.00,,,0.00,VWS V14.01,2013-06-11 15:29:00,
2013-06-11 11:30:00,83.8,75.0,29.81,West,277,3.0,7.0,75,0.00,,,0.00,VWS V14.01,2013-06-11 15:30:00,
2013-06-11 11:31:00,84.0,75.2,29.81,West,262,5.0,5.0,75,0.00,,,0.00,VWS V14.01,2013-06-11 15:31:00,
2013-06-11 11:32:00,84.0,74.8,29.81,West,281,6.0,6.0,74,0.00,,,0.00,VWS V14.01,2013-06-11 15:32:00,
2013-06-11 11:33:00,84.0,75.2,29.81,WNW,292,10.0,10.0,75,0.00,,,0.00,VWS V14.01,2013-06-11 15:33:00,
2013-06-11 11:34:00,84.0,74.8,29.81,WNW,283,1.0,10.0,74,0.00,,,0.00,VWS V14.01,2013-06-11 15:34:00,
2013-06-11 11:35:00,83.8,74.6,29.81,WSW,254,5.0,7.0,74,0.00,,,0.00,VWS V14.01,2013-06-11 15:35:00,
2013-06-11 11:36:00,83.8,74.6,29.81,NW,307,6.0,6.0,74,0.00,,,0.00,VWS V14.01,2013-06-11 15:36:00,
2013-06-11 11:37:00,83.6,74.8,29.81,SW,219,3.0,9.0,75,0.00,,,0.00,VWS V14.01,2013-06-11 15:37:00,
2013-06-11 11:38:00,83.6,74.8,29.81,SW,231,6.0,9.0,75,0.00,,,0.00,VWS V14.01,2013-06-11 15:38:00,
2013-06-11 11:39:00,83.6,74.8,29.81,West,263,10.0,10.0,75,0.00,,,0.00,VWS V14.01,2013-06-11 15:39:00,
2013-06-11 11:40:00,83.6,74.4,29.81,WNW,284,7.0,10.0,74,0.00,,,0.00,VWS V14.01,2013-06-11 15:40:00,
2013-06-11 11:41:00,83.6,74.4,29.81,WSW,244,6.0,10.0,74,0.00,,,0.00,VWS V14.01,2013-06-11 15:41:00,
2013-06-11 11:42:00,83.6,74.4,29.81,West,277,3.0,4.0,74,0.00,,BKN100,0.00,VWS V14.01,2013-06-11 15:42:00,
2013-06-11 11:43:00,83.6,74.4,29.81,West,279,8.0,8.0,74,0.00,,,0.00,VWS V14.01,2013-06-11 15:43:00,
2013-06-11 11:44:00,83.4,74.2,29.81,SW,235,6.0,8.0,74,0.00,,,0.00,VWS V14.01,2013-06-11 15:44:00,
2013-06-11 11:45:00,83.4,74.7,29.81,NW,325,3.0,9.0,75,0.00,,,0.00,VWS V14.01,2013-06-11 15:45:00,
2013-06-11 11:46:00,83.4,74.7,29.81,WNW,298,3.0,3.0,75,0.00,,,0.00,VWS V14.01,2013-06-11 15:46:00,
2013-06-11 11:47:00,83.6,75.2,30.03,WNW,290,6.0,9.0,76,0.00,,BKN100,0.00,VWS V14.01,2013-06-11 15:47:00,
2013-06-11 11:48:00,83.6,75.2,30.03,NW,308,2.0,9.0,76,0.00,,,0.00,VWS V14.01,2013-06-11 15:48:00,
2013-06-11 11:49:00,83.6,74.8,30.03,NNW,335,2.0,4.0,75,0.00,,,0.00,VWS V14.01,2013-06-11 15:49:00,
2013-06-11 11:50:00,83.8,75.0,30.03,NW,323,3.0,6.0,75,0.00,,,0.00,VWS V14.01,2013-06-11 15:50:00,
2013-06-11 11:51:00,83.8,75.0,30.03,WNW,302,3.0,4.0,75,0.00,,,0.00,VWS V14.01,2013-06-11 15:51:00,
2013-06-11 11:52:00,83.8,74.6,30.03,NW,321,1.0,4.0,74,0.00,,BKN100,0.00,VWS V14.01,2013-06-11 15:52:00,
2013-06-11 11:53:00,83.8,74.6,30.03,NW,321,1.0,4.0,74,0.00,,,0.00,VWS V14.01,2013-06-11 15:53:00,
2013-06-11 11:54:00,83.8,74.6,30.03,NNW,334,2.0,4.0,74,0.00,,,0.00,VWS V14.01,2013-06-11 15:54:00,
2013-06-11 11:55:00,83.8,75.0,30.03,WSW,238,5.0,5.0,75,0.00,,,0.00,VWS V14.01,2013-06-11 15:55:00,
2013-06-11 11:56:00,84.0,75.2,30.03,West,261,4.0,5.0,75,0.00,,,0.00,VWS V14.01,2013-06-11 15:56:00,
2013-06-11 11:57:00,84.0,74.8,29.99,SSW,209,10.0,10.0,74,0.00,,,0.00,VWS V14.01,2013-06-11 15:57:00,
2013-06-11 11:58:00,84.0,74.8,29.99,SSW,209,10.0,10.0,74,0.00,,,0.00,VWS V14.01,2013-06-11 15:58:00,
2013-06-11 11:59:00,84.0,74.8,29.99,South,175,3.0,10.0,74,0.00,,,0.00,VWS V14.01,2013-06-11 15:59:00,
2013-06-11 12:00:00,84.1,74.9,29.99,WSW,248,5.0,5.0,74,0.00,,,0.00,VWS V14.01,2013-06-11 16:00:00,
2013-06-11 12:01:00,84.1,74.9,29.99,WSW,245,3.0,7.0,74,0.00,,,0.00,VWS V14.01,2013-06-11 16:01:00,
2013-06-11 12:02:00,84.3,75.5,29.99,West,266,8.0,8.0,75,0.00,,,0.00,VWS V14.01,2013-06-11 16:02:00,
2013-06-11 12:03:00,84.3,75.5,29.99,WSW,249,9.0,9.0,75,0.00,,,0.00,VWS V14.01,2013-06-11 16:03:00,
2013-06-11 12:04:00,84.3,74.7,29.99,West,263,4.0,9.0,73,0.00,,,0.00,VWS V14.01,2013-06-11 16:04:00,
2013-06-11 12:05:00,84.3,75.1,29.99,SSW,200,1.0,9.0,74,0.00,,,0.00,VWS V14.01,2013-06-11 16:05:00,
2013-06-11 12:06:00,84.3,74.7,29.99,WSW,238,4.0,5.0,73,0.00,,,0.00,VWS V14.01,2013-06-11 16:06:00,
2013-06-11 12:07:00,84.5,74.9,29.99,South,180,3.0,6.0,73,0.00,,,0.00,VWS V14.01,2013-06-11 16:07:00,
2013-06-11 12:08:00,84.5,74.9,29.99,SW,218,2.0,6.0,73,0.00,,,0.00,VWS V14.01,2013-06-11 16:08:00,
2013-06-11 12:09:00,84.7,74.7,29.99,SSW,205,11.0,11.0,72,0.00,,,0.00,VWS V14.01,2013-06-11 16:09:00,
2013-06-11 12:10:00,84.5,74.1,29.99,SW,234,5.0,11.0,71,0.00,,,0.00,VWS V14.01,2013-06-11 16:10:00,
2013-06-11 12:11:00,84.5,74.5,29.98,SW,216,5.0,5.0,72,0.00,,,0.00,VWS V14.01,2013-06-11 16:11:00,
2013-06-11 12:12:00,84.7,74.7,29.98,SSW,207,5.0,11.0,72,0.00,,,0.00,VWS V14.01,2013-06-11 16:12:00,
2013-06-11 12:13:00,84.7,74.7,29.98,SW,229,8.0,11.0,72,0.00,,,0.00,VWS V14.01,2013-06-11 16:13:00,
2013-06-11 12:14:00,84.5,74.5,29.98,SW,222,8.0,8.0,72,0.00,,,0.00,VWS V14.01,2013-06-11 16:14:00,
2013-06-11 12:15:00,84.5,74.9,29.98,South,182,7.0,9.0,73,0.00,,,0.00,VWS V14.01,2013-06-11 16:15:00,
2013-06-11 12:16:00,84.5,75.3,29.98,SW,215,11.0,11.0,74,0.00,,,0.00,VWS V14.01,2013-06-11 16:16:00,
2013-06-11 12:17:00,84.3,75.1,29.71,SSW,213,7.0,9.0,74,0.00,,,0.00,VWS V14.01,2013-06-11 16:17:00,
2013-06-11 12:18:00,84.3,75.1,29.71,SW,229,10.0,10.0,74,0.00,,,0.00,VWS V14.01,2013-06-11 16:18:00,
2013-06-11 12:19:00,84.3,75.1,29.71,SSW,211,6.0,10.0,74,0.00,,,0.00,VWS V14.01,2013-06-11 16:19:00,
2013-06-11 12:20:00,84.3,75.5,29.71,SW,214,9.0,11.0,75,0.00,,,0.00,VWS V14.01,2013-06-11 16:20:00,
2013-06-11 12:21:00,84.3,75.1,29.71,SSW,203,10.0,10.0,74,0.00,,,0.00,VWS V14.01,2013-06-11 16:21:00,
2013-06-11 12:22:00,84.1,75.3,29.67,SW,215,8.0,10.0,75,0.00,,,0.00,VWS V14.01,2013-06-11 16:22:00,
2013-06-11 12:23:00,84.1,75.3,29.67,WSW,244,7.0,10.0,75,0.00,,,0.00,VWS V14.01,2013-06-11 16:23:00,
2013-06-11 12:24:00,84.1,75.3,29.71,SW,217,6.0,11.0,75,0.00,,,0.00,VWS V14.01,2013-06-11 16:24:00,
2013-06-11 12:25:00,84.1,75.3,29.71,SW,214,9.0,9.0,75,0.00,,,0.00,VWS V14.01,2013-06-11 16:25:00,
2013-06-11 12:26:00,84.1,75.3,29.67,SW,214,11.0,11.0,75,0.00,,,0.00,VWS V14.01,2013-06-11 16:26:00,
2013-06-11 12:27:00,84.1,75.7,29.67,SW,218,11.0,11.0,76,0.00,,,0.00,VWS V14.01,2013-06-11 16:27:00,
2013-06-11 12:28:00,84.1,75.7,29.67,SW,218,11.0,11.0,76,0.00,,,0.00,VWS V14.01,2013-06-11 16:28:00,
2013-06-11 12:29:00,84.1,75.7,29.67,SSW,210,10.0,11.0,76,0.00,,,0.00,VWS V14.01,2013-06-11 16:29:00,
2013-06-11 12:30:00,84.1,75.7,29.67,SSW,194,11.0,11.0,76,0.00,,,0.00,VWS V14.01,2013-06-11 16:30:00,
2013-06-11 12:31:00,84.0,75.2,29.94,SSW,210,12.0,12.0,75,0.00,,,0.00,VWS V14.01,2013-06-11 16:31:00,
2013-06-11 12:32:00,83.8,75.4,29.98,SSW,208,11.0,11.0,76,0.00,,,0.00,VWS V14.01,2013-06-11 16:32:00,
2013-06-11 12:33:00,83.8,75.4,29.98,SSW,208,11.0,11.0,76,0.00,,,0.00,VWS V14.01,2013-06-11 16:33:00,
2013-06-11 12:34:00,83.8,75.4,29.98,SSW,204,11.0,12.0,76,0.00,,,0.00,VWS V14.01,2013-06-11 16:34:00,
2013-06-11 12:35:00,83.6,75.2,29.71,SSW,192,10.0,12.0,76,0.00,,,0.00,VWS V14.01,2013-06-11 16:35:00,
2013-06-11 12:36:00,83.6,75.6,29.71,SSW,202,10.0,13.0,77,0.00,,,0.00,VWS V14.01,2013-06-11 16:36:00,
2013-06-11 12:37:00,83.4,75.1,29.71,SSW,208,11.0,13.0,76,0.00,,,0.00,VWS V14.01,2013-06-11 16:37:00,
2013-06-11 12:38:00,83.4,75.0,29.71,SSW,208,11.0,13.0,76,0.00,,,0.00,VWS V14.01,2013-06-11 16:38:00,
2013-06-11 12:39:00,83.4,75.4,29.71,SW,224,7.0,12.0,77,0.00,,,0.00,VWS V14.01,2013-06-11 16:39:00,
2013-06-11 12:40:00,83.2,75.2,29.71,SSW,200,11.0,11.0,77,0.00,,,0.00,VWS V14.01,2013-06-11 16:40:00,
2013-06-11 12:41:00,83.2,75.2,29.71,SSW,199,9.0,11.0,77,0.00,,,0.00,VWS V14.01,2013-06-11 16:41:00,
2013-06-11 12:42:00,83.2,75.2,29.71,South,190,9.0,11.0,77,0.00,,SCT100,0.00,VWS V14.01,2013-06-11 16:42:00,
2013-06-11 12:43:00,83.2,75.2,29.71,SSW,211,7.0,11.0,77,0.00,,,0.00,VWS V14.01,2013-06-11 16:43:00,
2013-06-11 12:44:00,83.2,75.6,29.71,South,183,9.0,9.0,78,0.00,,,0.00,VWS V14.01,2013-06-11 16:44:00,
2013-06-11 12:45:00,83.2,75.6,29.71,SSW,198,9.0,10.0,78,0.00,,,0.00,VWS V14.01,2013-06-11 16:45:00,
2013-06-11 12:46:00,83.2,75.6,29.71,SSW,201,11.0,11.0,78,0.00,,,0.00,VWS V14.01,2013-06-11 16:46:00,
2013-06-11 12:47:00,83.2,75.2,29.71,SSW,206,9.0,11.0,77,0.00,,SCT100,0.00,VWS V14.01,2013-06-11 16:47:00,
2013-06-11 12:48:00,83.2,75.2,29.71,SSW,200,8.0,11.0,77,0.00,,,0.00,VWS V14.01,2013-06-11 16:48:00,
2013-06-11 12:49:00,83.2,75.2,29.71,SSW,196,10.0,10.0,77,0.00,,,0.00,VWS V14.01,2013-06-11 16:49:00,
2013-06-11 12:50:00,83.2,75.2,29.71,South,186,9.0,10.0,77,0.00,,,0.00,VWS V14.01,2013-06-11 16:50:00,
2013-06-11 12:51:00,83.2,75.6,29.71,South,179,6.0,9.0,78,0.00,,,0.00,VWS V14.01,2013-06-11 16:51:00,
2013-06-11 12:52:00,83.4,75.8,29.71,South,187,10.0,10.0,78,0.00,,SCT100,0.00,VWS V14.01,2013-06-11 16:52:00,
2013-06-11 12:53:00,83.4,75.4,29.71,SSW,198,10.0,10.0,77,0.00,,,0.00,VWS V14.01,2013-06-11 16:53:00,
2013-06-11 12:54:00,83.4,75.4,29.71,South,186,9.0,10.0,77,0.00,,,0.00,VWS V14.01,2013-06-11 16:54:00,
2013-06-11 12:55:00,83.4,75.8,29.71,SSW,194,8.0,10.0,78,0.00,,,0.00,VWS V14.01,2013-06-11 16:55:00,
2013-06-11 12:56:00,83.4,75.4,29.71,SSW,200,10.0,11.0,77,0.00,,,0.00,VWS V14.01,2013-06-11 16:56:00,
2013-06-11 12:57:00,83.2,75.2,29.71,South,180,10.0,11.0,77,0.00,,SCT100,0.00,VWS V14.01,2013-06-11 16:57:00,
2013-06-11 12:58:00,83.2,75.2,29.71,South,188,10.0,11.0,77,0.00,,,0.00,VWS V14.01,2013-06-11 16:58:00,
2013-06-11 12:59:00,83.4,75.4,29.71,SSW,206,7.0,10.0,77,0.00,,,0.00,VWS V14.01,2013-06-11 16:59:00,
2013-06-11 13:00:00,83.4,75.4,29.71,SSW,196,8.0,10.0,77,0.00,,,0.00,VWS V14.01,2013-06-11 17:00:00,
2013-06-11 13:01:00,83.6,76.0,29.71,South,175,6.0,8.0,78,0.00,,,0.00,VWS V14.01,2013-06-11 17:01:00,
2013-06-11 13:02:00,83.8,75.8,29.71,South,186,11.0,11.0,77,0.00,,SCT100,0.00,VWS V14.01,2013-06-11 17:02:00,
2013-06-11 13:03:00,83.8,75.8,29.71,South,186,11.0,11.0,77,0.00,,,0.00,VWS V14.01,2013-06-11 17:03:00,
2013-06-11 13:04:00,83.8,75.8,29.84,South,187,9.0,11.0,77,0.00,,,0.00,VWS V14.01,2013-06-11 17:04:00,
2013-06-11 13:05:00,83.8,75.8,29.84,South,190,10.0,11.0,77,0.00,,,0.00,VWS V14.01,2013-06-11 17:05:00,
2013-06-11 13:06:00,83.8,76.2,29.84,SSW,198,9.0,10.0,78,0.00,,,0.00,VWS V14.01,2013-06-11 17:06:00,
2013-06-11 13:07:00,83.8,75.8,29.84,South,171,10.0,12.0,77,0.00,,SCT100,0.00,VWS V14.01,2013-06-11 17:07:00,
2013-06-11 13:08:00,83.8,75.8,29.84,South,171,10.0,12.0,77,0.00,,,0.00,VWS V14.01,2013-06-11 17:08:00,
2013-06-11 13:09:00,83.8,75.8,29.84,SSW,192,11.0,11.0,77,0.00,,,0.00,VWS V14.01,2013-06-11 17:09:00,
2013-06-11 13:10:00,83.8,75.8,29.84,South,173,9.0,11.0,77,0.00,,,0.00,VWS V14.01,2013-06-11 17:10:00,
2013-06-11 13:11:00,83.8,76.2,29.84,South,183,11.0,11.0,78,0.00,,,0.00,VWS V14.01,2013-06-11 17:11:00,
2013-06-11 13:12:00,83.8,75.4,30.01,SSW,198,9.0,10.0,76,0.00,,SCT100,0.00,VWS V14.01,2013-06-11 17:12:00,
2013-06-11 13:13:00,83.8,75.4,30.01,SSW,198,9.0,10.0,76,0.00,,,0.00,VWS V14.01,2013-06-11 17:13:00,
2013-06-11 13:14:00,83.8,75.8,30.02,South,174,8.0,10.0,77,0.00,,,0.00,VWS V14.01,2013-06-11 17:14:00,
2013-06-11 13:15:00,84.0,76.0,30.02,SSW,194,11.0,11.0,77,0.00,,,0.00,VWS V14.01,2013-06-11 17:15:00,
2013-06-11 13:16:00,84.0,76.0,30.01,SSW,192,7.0,11.0,77,0.00,,,0.00,VWS V14.01,2013-06-11 17:16:00,
2013-06-11 13:17:00,84.0,76.4,30.01,South,181,10.0,11.0,78,0.00,,SCT100,0.00,VWS V14.01,2013-06-11 17:17:00,
2013-06-11 13:18:00,84.0,76.4,30.01,South,181,10.0,11.0,78,0.00,,,0.00,VWS V14.01,2013-06-11 17:18:00,
2013-06-11 13:19:00,84.1,76.5,30.01,SSW,198,11.0,13.0,78,0.00,,,0.00,VWS V14.01,2013-06-11 17:19:00,
2013-06-11 13:20:00,84.0,75.6,29.88,SSW,192,10.0,11.0,76,0.00,,,0.00,VWS V14.01,2013-06-11 17:20:00,
2013-06-11 13:21:00,84.0,76.0,29.88,South,184,9.0,10.0,77,0.00,,,0.00,VWS V14.01,2013-06-11 17:21:00,
2013-06-11 13:22:00,84.1,76.1,29.84,SSW,198,7.0,10.0,77,0.00,,SCT100,0.00,VWS V14.01,2013-06-11 17:22:00,
2013-06-11 13:23:00,84.1,76.1,29.84,SSW,198,7.0,10.0,77,0.00,,,0.00,VWS V14.01,2013-06-11 17:23:00,
2013-06-11 13:24:00,84.1,76.1,29.84,SSW,196,11.0,12.0,77,0.00,,,0.00,VWS V14.01,2013-06-11 17:24:00,
2013-06-11 13:25:00,84.1,76.1,29.93,SW,220,10.0,12.0,77,0.00,,,0.00,VWS V14.01,2013-06-11 17:25:00,
2013-06-11 13:26:00,84.1,76.1,29.94,SSW,198,10.0,10.0,77,0.00,,,0.00,VWS V14.01,2013-06-11 17:26:00,
2013-06-11 13:27:00,84.1,76.1,29.94,South,184,11.0,12.0,77,0.00,,SCT100,0.00,VWS V14.01,2013-06-11 17:27:00,
2013-06-11 13:28:00,84.1,76.1,29.94,South,184,11.0,12.0,77,0.00,,,0.00,VWS V14.01,2013-06-11 17:28:00,
2013-06-11 13:29:00,84.1,75.7,29.88,South,186,13.0,13.0,76,0.00,,,0.00,VWS V14.01,2013-06-11 17:29:00,
2013-06-11 13:30:00,84.1,75.7,29.88,South,190,11.0,13.0,76,0.00,,,0.00,VWS V14.01,2013-06-11 17:30:00,
2013-06-11 13:31:00,84.1,76.1,29.88,SSW,192,12.0,12.0,77,0.00,,,0.00,VWS V14.01,2013-06-11 17:31:00,
2013-06-11 13:32:00,84.1,76.1,30.01,South,176,10.0,10.0,77,0.00,,SCT100,0.00,VWS V14.01,2013-06-11 17:32:00,
2013-06-11 13:33:00,84.1,76.1,30.01,SSW,197,11.0,11.0,77,0.00,,,0.00,VWS V14.01,2013-06-11 17:33:00,
2013-06-11 13:34:00,84.1,75.7,30.01,South,182,10.0,11.0,76,0.00,,,0.00,VWS V14.01,2013-06-11 17:34:00,
2013-06-11 13:35:00,84.1,76.1,30.01,South,190,10.0,13.0,77,0.00,,,0.00,VWS V14.01,2013-06-11 17:35:00,
2013-06-11 13:36:00,84.1,76.1,30.01,South,186,6.0,10.0,77,0.00,,,0.00,VWS V14.01,2013-06-11 17:36:00,
2013-06-11 13:37:00,84.1,76.1,30.01,South,191,12.0,12.0,77,0.00,,SCT100,0.00,VWS V14.01,2013-06-11 17:37:00,
2013-06-11 13:38:00,84.1,76.1,30.01,South,191,12.0,12.0,77,0.00,,,0.00,VWS V14.01,2013-06-11 17:38:00,
2013-06-11 13:39:00,84.1,76.1,30.01,SSW,202,9.0,12.0,77,0.00,,,0.00,VWS V14.01,2013-06-11 17:39:00,
2013-06-11 13:40:00,84.1,76.1,30.01,SSW,202,9.0,11.0,77,0.00,,,0.00,VWS V14.01,2013-06-11 17:40:00,
2013-06-11 13:41:00,84.1,75.7,30.01,SSW,197,9.0,12.0,76,0.00,,,0.00,VWS V14.01,2013-06-11 17:41:00,
2013-06-11 13:42:00,84.1,75.7,30.00,SSW,197,10.0,13.0,76,0.00,,BKN100,0.00,VWS V14.01,2013-06-11 17:42:00,
2013-06-11 13:43:00,84.1,75.7,30.00,SSW,195,13.0,13.0,76,0.00,,,0.00,VWS V14.01,2013-06-11 17:43:00,
2013-06-11 13:44:00,84.1,75.7,30.00,SSW,192,13.0,14.0,76,0.00,,,0.00,VWS V14.01,2013-06-11 17:44:00,
2013-06-11 13:45:00,84.1,75.7,30.00,SSW,205,11.0,13.0,76,0.00,,,0.00,VWS V14.01,2013-06-11 17:45:00,
2013-06-11 13:46:00,84.1,75.7,30.00,SSW,196,11.0,13.0,76,0.00,,,0.00,VWS V14.01,2013-06-11 17:46:00,
2013-06-11 13:47:00,84.1,76.5,30.00,SSW,197,9.0,12.0,78,0.00,,BKN100,0.00,VWS V14.01,2013-06-11 17:47:00,
2013-06-11 13:48:00,84.1,76.1,30.00,SSW,209,9.0,12.0,77,0.00,,,0.00,VWS V14.01,2013-06-11 17:48:00,
2013-06-11 13:49:00,84.3,76.3,30.00,SSW,194,6.0,11.0,77,0.00,,,0.00,VWS V14.01,2013-06-11 17:49:00,
2013-06-11 13:50:00,84.3,76.7,30.00,SSW,193,10.0,10.0,78,0.00,,,0.00,VWS V14.01,2013-06-11 17:50:00,
2013-06-11 13:51:00,84.3,76.3,30.00,South,180,9.0,10.0,77,0.00,,,0.00,VWS V14.01,2013-06-11 17:51:00,
2013-06-11 13:52:00,84.3,76.3,30.00,SSW,193,10.0,10.0,77,0.00,,BKN100,0.00,VWS V14.01,2013-06-11 17:52:00,
2013-06-11 13:53:00,84.3,76.3,30.00,SSW,193,10.0,10.0,77,0.00,,,0.00,VWS V14.01,2013-06-11 17:53:00,
2013-06-11 13:54:00,84.3,76.3,30.00,South,186,11.0,12.0,77,0.00,,,0.00,VWS V14.01,2013-06-11 17:54:00,
2013-06-11 13:55:00,84.3,76.3,30.00,South,187,12.0,12.0,77,0.00,,,0.00,VWS V14.01,2013-06-11 17:55:00,
2013-06-11 13:56:00,84.5,76.9,30.00,South,175,10.0,12.0,78,0.00,,,0.00,VWS V14.01,2013-06-11 17:56:00,
2013-06-11 13:57:00,84.5,76.1,30.00,SSW,209,11.0,13.0,76,0.00,,BKN100,0.00,VWS V14.01,2013-06-11 17:57:00,
2013-06-11 13:58:00,84.5,76.1,30.00,SSW,209,11.0,13.0,76,0.00,,,0.00,VWS V14.01,2013-06-11 17:58:00,
2013-06-11 13:59:00,84.5,76.5,30.00,SSW,194,9.0,11.0,77,0.00,,,0.00,VWS V14.01,2013-06-11 17:59:00,
2013-06-11 14:00:00,84.5,76.5,30.00,SSW,193,11.0,13.0,77,0.00,,,0.00,VWS V14.01,2013-06-11 18:00:00,
2013-06-11 14:01:00,84.5,76.5,30.00,SSW,197,9.0,11.0,77,0.00,,,0.00,VWS V14.01,2013-06-11 18:01:00,
2013-06-11 14:02:00,84.5,76.5,30.00,SSW,195,11.0,11.0,77,0.00,,BKN100,0.00,VWS V14.01,2013-06-11 18:02:00,
2013-06-11 14:03:00,84.5,76.5,30.00,SSW,195,11.0,11.0,77,0.00,,,0.00,VWS V14.01,2013-06-11 18:03:00,
2013-06-11 14:04:00,84.5,76.5,30.00,South,185,11.0,12.0,77,0.00,,,0.00,VWS V14.01,2013-06-11 18:04:00,
2013-06-11 14:05:00,84.5,76.5,30.00,South,188,12.0,12.0,77,0.00,,,0.00,VWS V14.01,2013-06-11 18:05:00,
2013-06-11 14:06:00,84.5,76.5,30.00,South,190,11.0,12.0,77,0.00,,,0.00,VWS V14.01,2013-06-11 18:06:00,
2013-06-11 14:07:00,84.5,76.5,30.00,SSW,192,10.0,11.0,77,0.00,,BKN100,0.00,VWS V14.01,2013-06-11 18:07:00,
2013-06-11 14:08:00,84.5,76.5,30.00,SSW,202,10.0,11.0,77,0.00,,,0.00,VWS V14.01,2013-06-11 18:08:00,
2013-06-11 14:09:00,84.5,76.5,29.99,South,176,12.0,13.0,77,0.00,,,0.00,VWS V14.01,2013-06-11 18:09:00,
2013-06-11 14:10:00,84.5,76.5,29.99,South,180,9.0,12.0,77,0.00,,,0.00,VWS V14.01,2013-06-11 18:10:00,
2013-06-11 14:11:00,84.5,76.5,29.99,South,182,11.0,12.0,77,0.00,,,0.00,VWS V14.01,2013-06-11 18:11:00,
2013-06-11 14:12:00,84.5,76.5,29.99,SSW,198,10.0,11.0,77,0.00,,BKN100,0.00,VWS V14.01,2013-06-11 18:12:00,
2013-06-11 14:13:00,84.5,76.5,29.99,SSW,194,13.0,13.0,77,0.00,,,0.00,VWS V14.01,2013-06-11 18:13:00,
2013-06-11 14:14:00,84.5,76.5,29.99,SSW,211,11.0,14.0,77,0.00,,,0.00,VWS V14.01,2013-06-11 18:14:00,
2013-06-11 14:15:00,84.5,76.5,29.99,South,182,12.0,12.0,77,0.00,,,0.00,VWS V14.01,2013-06-11 18:15:00,
2013-06-11 14:16:00,84.3,75.9,29.99,South,186,10.0,12.0,76,0.00,,,0.00,VWS V14.01,2013-06-11 18:16:00,
2013-06-11 14:17:00,84.3,76.3,29.99,SSW,198,10.0,12.0,77,0.00,,BKN100,0.00,VWS V14.01,2013-06-11 18:17:00,
2013-06-11 14:18:00,84.3,76.3,29.99,South,182,9.0,12.0,77,0.00,,,0.00,VWS V14.01,2013-06-11 18:18:00,
2013-06-11 14:19:00,84.5,76.5,29.99,SSW,192,10.0,12.0,77,0.00,,,0.00,VWS V14.01,2013-06-11 18:19:00,
2013-06-11 14:20:00,84.5,76.5,29.99,SSW,201,7.0,10.0,77,0.00,,,0.00,VWS V14.01,2013-06-11 18:20:00,
2013-06-11 14:21:00,84.5,76.5,29.99,South,188,10.0,11.0,77,0.00,,,0.00,VWS V14.01,2013-06-11 18:21:00,
2013-06-11 14:22:00,84.5,76.9,29.99,South,185,11.0,13.0,78,0.00,,BKN100,0.00,VWS V14.01,2013-06-11 18:22:00,
2013-06-11 14:23:00,84.5,76.9,29.99,SSW,200,12.0,13.0,78,0.00,,,0.00,VWS V14.01,2013-06-11 18:23:00,
2013-06-11 14:24:00,84.5,76.5,29.99,SSW,199,10.0,12.0,77,0.00,,,0.00,VWS V14.01,2013-06-11 18:24:00,
2013-06-11 14:25:00,84.5,76.1,29.99,SSW,195,12.0,12.0,76,0.00,,,0.00,VWS V14.01,2013-06-11 18:25:00,
2013-06-11 14:26:00,84.5,76.1,29.99,SSW,204,12.0,13.0,76,0.00,,,0.00,VWS V14.01,2013-06-11 18:26:00,
2013-06-11 14:27:00,84.5,76.1,29.99,South,191,15.0,15.0,76,0.00,,BKN100,0.00,VWS V14.01,2013-06-11 18:27:00,
2013-06-11 14:28:00,84.5,76.1,29.99,South,191,15.0,15.0,76,0.00,,,0.00,VWS V14.01,2013-06-11 18:28:00,
2013-06-11 14:29:00,84.5,76.5,29.99,South,173,10.0,15.0,77,0.00,,,0.00,VWS V14.01,2013-06-11 18:29:00,
2013-06-11 14:30:00,84.5,76.5,29.99,SSW,200,13.0,13.0,77,0.00,,,0.00,VWS V14.01,2013-06-11 18:30:00,
2013-06-11 14:31:00,84.5,76.5,29.99,SSW,205,11.0,15.0,77,0.00,,,0.00,VWS V14.01,2013-06-11 18:31:00,
2013-06-11 14:32:00,84.7,77.1,29.99,SSW,205,10.0,10.0,78,0.00,,BKN100,0.00,VWS V14.01,2013-06-11 18:32:00,
2013-06-11 14:33:00,84.7,77.1,29.99,SSW,205,10.0,10.0,78,0.00,,,0.00,VWS V14.01,2013-06-11 18:33:00,
2013-06-11 14:34:00,84.7,76.7,29.99,South,180,12.0,12.0,77,0.00,,,0.00,VWS V14.01,2013-06-11 18:34:00,
2013-06-11 14:35:00,84.7,76.3,29.99,South,175,12.0,12.0,76,0.00,,,0.00,VWS V14.01,2013-06-11 18:35:00,
2013-06-11 14:36:00,84.7,76.7,29.99,South,182,9.0,12.0,77,0.00,,,0.00,VWS V14.01,2013-06-11 18:36:00,
2013-06-11 14:37:00,84.7,76.7,29.99,SSW,196,12.0,12.0,77,0.00,,BKN100,0.00,VWS V14.01,2013-06-11 18:37:00,
2013-06-11 14:38:00,84.7,76.3,29.99,South,176,11.0,12.0,76,0.00,,,0.00,VWS V14.01,2013-06-11 18:38:00,
2013-06-11 14:39:00,84.7,76.7,29.99,South,191,11.0,13.0,77,0.00,,,0.00,VWS V14.01,2013-06-11 18:39:00,
2013-06-11 14:40:00,84.7,76.7,29.99,SSW,200,13.0,14.0,77,0.00,,,0.00,VWS V14.01,2013-06-11 18:40:00,
2013-06-11 14:41:00,84.7,76.3,29.99,SSW,200,13.0,14.0,76,0.00,,,0.00,VWS V14.01,2013-06-11 18:41:00,
2013-06-11 14:42:00,84.7,77.1,29.99,SSW,200,13.0,13.0,78,0.00,,BKN037,0.00,VWS V14.01,2013-06-11 18:42:00,
2013-06-11 14:43:00,84.7,77.1,29.99,SSW,204,14.0,14.0,78,0.00,,,0.00,VWS V14.01,2013-06-11 18:43:00,
2013-06-11 14:44:00,84.7,76.7,29.99,SSW,197,14.0,14.0,77,0.00,,,0.00,VWS V14.01,2013-06-11 18:44:00,
2013-06-11 14:45:00,84.7,76.3,29.99,SSE,158,11.0,14.0,76,0.00,,,0.00,VWS V14.01,2013-06-11 18:45:00,
2013-06-11 14:46:00,84.7,76.7,29.99,South,187,12.0,13.0,77,0.00,,,0.00,VWS V14.01,2013-06-11 18:46:00,
2013-06-11 14:47:00,84.7,77.1,29.81,South,184,13.0,13.0,78,0.00,,BKN037,0.00,VWS V14.01,2013-06-11 18:47:00,
2013-06-11 14:48:00,84.7,77.1,29.81,South,179,11.0,13.0,78,0.00,,,0.00,VWS V14.01,2013-06-11 18:48:00,
2013-06-11 14:49:00,84.7,77.1,29.81,South,191,13.0,13.0,78,0.00,,,0.00,VWS V14.01,2013-06-11 18:49:00,
2013-06-11 14:50:00,84.5,76.5,29.81,South,187,12.0,13.0,77,0.00,,,0.00,VWS V14.01,2013-06-11 18:50:00,
2013-06-11 14:51:00,84.5,75.3,29.81,South,173,11.0,12.0,74,0.00,,,0.00,VWS V14.01,2013-06-11 18:51:00,
2013-06-11 14:52:00,84.5,76.5,29.98,SSW,205,11.0,14.0,77,0.00,,BKN037,0.00,VWS V14.01,2013-06-11 18:52:00,
2013-06-11 14:53:00,84.5,76.5,29.98,SSW,200,12.0,14.0,77,0.00,,,0.00,VWS V14.01,2013-06-11 18:53:00,
2013-06-11 14:54:00,84.5,76.5,29.98,South,190,13.0,13.0,77,0.00,,,0.00,VWS V14.01,2013-06-11 18:54:00,
2013-06-11 14:55:00,84.5,76.1,29.98,South,191,11.0,13.0,76,0.00,,,0.00,VWS V14.01,2013-06-11 18:55:00,
2013-06-11 14:56:00,84.5,76.5,29.98,South,182,12.0,12.0,77,0.00,,,0.00,VWS V14.01,2013-06-11 18:56:00,
2013-06-11 14:57:00,84.7,77.5,29.98,South,184,11.0,11.0,79,0.00,,BKN037,0.00,VWS V14.01,2013-06-11 18:57:00,
2013-06-11 14:58:00,84.9,77.7,29.98,SSW,209,9.0,11.0,79,0.00,,,0.00,VWS V14.01,2013-06-11 18:58:00,
2013-06-11 14:59:00,84.7,77.5,29.98,South,184,13.0,13.0,79,0.00,,,0.00,VWS V14.01,2013-06-11 18:59:00,
2013-06-11 15:00:00,84.7,76.7,29.98,South,190,12.0,13.0,77,0.00,,,0.00,VWS V14.01,2013-06-11 19:00:00,
2013-06-11 15:01:00,84.7,77.1,29.98,SSW,194,12.0,13.0,78,0.00,,,0.00,VWS V14.01,2013-06-11 19:01:00,
2013-06-11 15:02:00,84.7,77.1,29.98,SSW,192,12.0,14.0,78,0.00,,BKN037,0.00,VWS V14.01,2013-06-11 19:02:00,
2013-06-11 15:03:00,84.7,77.1,29.98,SSW,192,12.0,14.0,78,0.00,,,0.00,VWS V14.01,2013-06-11 19:03:00,
2013-06-11 15:04:00,84.7,77.1,29.98,South,180,14.0,14.0,78,0.00,,,0.00,VWS V14.01,2013-06-11 19:04:00,
2013-06-11 15:05:00,84.5,76.9,29.97,South,184,10.0,14.0,78,0.00,,,0.00,VWS V14.01,2013-06-11 19:05:00,
2013-06-11 15:06:00,84.7,77.1,29.97,SW,216,12.0,14.0,78,0.00,,,0.00,VWS V14.01,2013-06-11 19:06:00,
2013-06-11 15:07:00,84.5,76.9,29.97,South,184,11.0,13.0,78,0.00,,BKN037,0.00,VWS V14.01,2013-06-11 19:07:00,
2013-06-11 15:08:00,84.5,76.9,29.97,South,184,11.0,13.0,78,0.00,,,0.00,VWS V14.01,2013-06-11 19:08:00,
2013-06-11 15:09:00,84.5,76.9,29.97,South,186,13.0,14.0,78,0.00,,,0.00,VWS V14.01,2013-06-11 19:09:00,
2013-06-11 15:10:00,84.5,77.3,29.97,SSW,200,11.0,13.0,79,0.00,,,0.00,VWS V14.01,2013-06-11 19:10:00,
2013-06-11 15:11:00,84.7,77.8,29.97,SSW,199,10.0,14.0,80,0.00,,,0.00,VWS V14.01,2013-06-11 19:11:00,
2013-06-11 15:12:00,84.5,77.3,29.97,SSW,192,11.0,16.0,79,0.00,,BKN037,0.00,VWS V14.01,2013-06-11 19:12:00,
2013-06-11 15:13:00,84.5,77.3,29.97,SSW,192,14.0,16.0,79,0.00,,,0.00,VWS V14.01,2013-06-11 19:13:00,
2013-06-11 15:14:00,84.5,77.7,29.97,South,186,12.0,15.0,80,0.00,,,0.00,VWS V14.01,2013-06-11 19:14:00,
2013-06-11 15:15:00,84.5,77.3,29.97,South,173,13.0,13.0,79,0.00,,,0.00,VWS V14.01,2013-06-11 19:15:00,
2013-06-11 15:16:00,84.5,77.3,29.97,South,180,13.0,16.0,79,0.00,,,0.00,VWS V14.01,2013-06-11 19:16:00,
2013-06-11 15:17:00,84.5,76.9,29.97,South,191,12.0,14.0,78,0.00,,BKN037,0.00,VWS V14.01,2013-06-11 19:17:00,
2013-06-11 15:18:00,84.5,76.9,29.97,South,178,14.0,14.0,78,0.00,,,0.00,VWS V14.01,2013-06-11 19:18:00,
2013-06-11 15:19:00,84.5,76.9,29.97,South,174,16.0,16.0,78,0.00,,,0.00,VWS V14.01,2013-06-11 19:19:00,
2013-06-11 15:20:00,84.7,77.5,29.97,South,184,12.0,16.0,79,0.00,,,0.00,VWS V14.01,2013-06-11 19:20:00,
2013-06-11 15:21:00,84.7,77.8,29.97,SSW,203,14.0,14.0,80,0.00,,,0.00,VWS V14.01,2013-06-11 19:21:00,
2013-06-11 15:22:00,84.7,77.8,29.97,SSW,192,10.0,15.0,80,0.00,,BKN037,0.00,VWS V14.01,2013-06-11 19:22:00,
2013-06-11 15:23:00,84.7,77.5,29.97,SSW,209,17.0,17.0,79,0.00,,,0.00,VWS V14.01,2013-06-11 19:23:00,
2013-06-11 15:24:00,84.7,77.5,29.97,South,175,11.0,17.0,79,0.00,,,0.00,VWS V14.01,2013-06-11 19:24:00,
2013-06-11 15:25:00,84.7,77.8,29.96,South,179,10.0,12.0,80,0.00,,,0.00,VWS V14.01,2013-06-11 19:25:00,
2013-06-11 15:26:00,84.7,77.5,29.96,SSW,199,10.0,15.0,79,0.00,,,0.00,VWS V14.01,2013-06-11 19:26:00,
2013-06-11 15:27:00,84.9,78.0,29.96,South,178,13.0,16.0,80,0.00,,BKN037,0.00,VWS V14.01,2013-06-11 19:27:00,
2013-06-11 15:28:00,84.9,78.0,29.96,SSE,167,12.0,16.0,80,0.00,,,0.00,VWS V14.01,2013-06-11 19:28:00,
2013-06-11 15:29:00,85.1,78.2,29.96,South,179,13.0,16.0,80,0.00,,,0.00,VWS V14.01,2013-06-11 19:29:00,
2013-06-11 15:30:00,85.1,77.9,29.96,SSE,167,10.0,14.0,79,0.00,,,0.00,VWS V14.01,2013-06-11 19:30:00,
2013-06-11 15:31:00,85.1,78.2,29.96,South,182,10.0,16.0,80,0.00,,,0.00,VWS V14.01,2013-06-11 19:31:00,
2013-06-11 15:32:00,85.1,77.5,29.96,South,176,11.0,17.0,78,0.00,,BKN037,0.00,VWS V14.01,2013-06-11 19:32:00,
2013-06-11 15:33:00,85.1,77.5,29.96,South,182,12.0,17.0,78,0.00,,,0.00,VWS V14.01,2013-06-11 19:33:00,
2013-06-11 15:34:00,85.1,78.2,29.96,South,179,15.0,16.0,80,0.00,,,0.00,VWS V14.01,2013-06-11 19:34:00,
2013-06-11 15:35:00,85.1,77.5,29.96,South,173,14.0,15.0,78,0.00,,,0.00,VWS V14.01,2013-06-11 19:35:00,
2013-06-11 15:36:00,84.9,77.7,29.96,SSE,166,12.0,15.0,79,0.00,,,0.00,VWS V14.01,2013-06-11 19:36:00,
2013-06-11 15:37:00,85.1,78.2,29.96,SSE,167,12.0,12.0,80,0.00,,BKN037,0.00,VWS V14.01,2013-06-11 19:37:00,
2013-06-11 15:38:00,85.1,78.2,29.96,SSE,167,12.0,12.0,80,0.00,,,0.00,VWS V14.01,2013-06-11 19:38:00,
2013-06-11 15:39:00,85.1,77.9,29.96,South,178,16.0,16.0,79,0.00,,,0.00,VWS V14.01,2013-06-11 19:39:00,
2013-06-11 15:40:00,85.1,77.5,29.96,South,177,17.0,17.0,78,0.00,,,0.00,VWS V14.01,2013-06-11 19:40:00,
2013-06-11 15:41:00,84.9,77.7,29.96,South,183,11.0,17.0,79,0.00,,,0.00,VWS V14.01,2013-06-11 19:41:00,
2013-06-11 15:42:00,84.9,77.7,29.96,South,191,15.0,17.0,79,0.00,,BKN044,0.00,VWS V14.01,2013-06-11 19:42:00,
2013-06-11 15:43:00,84.9,77.7,29.96,South,191,15.0,17.0,79,0.00,,,0.00,VWS V14.01,2013-06-11 19:43:00,
2013-06-11 15:44:00,85.1,78.2,29.96,SSE,168,11.0,15.0,80,0.00,,,0.00,VWS V14.01,2013-06-11 19:44:00,
2013-06-11 15:45:00,85.1,78.2,29.96,South,171,12.0,15.0,80,0.00,,,0.00,VWS V14.01,2013-06-11 19:45:00,
2013-06-11 15:46:00,85.3,78.4,29.96,South,188,9.0,13.0,80,0.00,,,0.00,VWS V14.01,2013-06-11 19:46:00,
2013-06-11 15:47:00,85.3,78.4,29.96,South,175,15.0,15.0,80,0.00,,BKN044,0.00,VWS V14.01,2013-06-11 19:47:00,
2013-06-11 15:48:00,85.3,78.4,29.96,South,175,15.0,15.0,80,0.00,,,0.00,VWS V14.01,2013-06-11 19:48:00,
2013-06-11 15:49:00,85.3,78.1,29.96,South,180,12.0,15.0,79,0.00,,,0.00,VWS V14.01,2013-06-11 19:49:00,
2013-06-11 15:50:00,85.3,78.4,29.96,SSE,167,13.0,13.0,80,0.00,,,0.00,VWS V14.01,2013-06-11 19:50:00,
2013-06-11 15:51:00,85.3,78.4,29.96,South,175,13.0,18.0,80,0.00,,,0.00,VWS V14.01,2013-06-11 19:51:00,
2013-06-11 15:52:00,85.3,78.4,29.95,SSE,161,16.0,16.0,80,0.00,,BKN044,0.00,VWS V14.01,2013-06-11 19:52:00,
2013-06-11 15:53:00,85.3,78.4,29.95,South,179,13.0,16.0,80,0.00,,,0.00,VWS V14.01,2013-06-11 19:53:00,
2013-06-11 15:54:00,85.3,78.8,29.95,South,182,14.0,16.0,81,0.00,,,0.00,VWS V14.01,2013-06-11 19:54:00,
2013-06-11 15:55:00,85.3,78.4,29.95,South,185,10.0,17.0,80,0.00,,,0.00,VWS V14.01,2013-06-11 19:55:00,
2013-06-11 15:56:00,85.5,79.0,29.95,SSW,197,15.0,17.0,81,0.00,,,0.00,VWS V14.01,2013-06-11 19:56:00,
2013-06-11 15:57:00,85.3,78.4,29.95,South,190,16.0,17.0,80,0.00,,BKN044,0.00,VWS V14.01,2013-06-11 19:57:00,
2013-06-11 15:58:00,85.3,78.4,29.95,South,190,16.0,17.0,80,0.00,,,0.00,VWS V14.01,2013-06-11 19:58:00,
2013-06-11 15:59:00,85.3,78.4,29.95,South,184,11.0,16.0,80,0.00,,,0.00,VWS V14.01,2013-06-11 19:59:00,
2013-06-11 16:00:00,85.3,78.8,29.95,SSE,168,12.0,16.0,81,0.00,,,0.00,VWS V14.01,2013-06-11 20:00:00,
2013-06-11 16:01:00,85.3,78.4,29.95,South,175,16.0,17.0,80,0.00,,,0.00,VWS V14.01,2013-06-11 20:01:00,
2013-06-11 16:02:00,85.3,78.8,29.95,South,185,14.0,16.0,81,0.00,,BKN044,0.00,VWS V14.01,2013-06-11 20:02:00,
2013-06-11 16:03:00,85.3,78.8,29.95,South,185,14.0,16.0,81,0.00,,,0.00,VWS V14.01,2013-06-11 20:03:00,
2013-06-11 16:04:00,85.1,78.2,29.95,South,172,17.0,17.0,80,0.00,,,0.00,VWS V14.01,2013-06-11 20:04:00,
2013-06-11 16:05:00,85.1,79.0,29.77,South,172,13.0,17.0,82,0.00,,,0.00,VWS V14.01,2013-06-11 20:05:00,
2013-06-11 16:06:00,85.1,79.0,29.77,South,178,14.0,14.0,82,0.00,,,0.00,VWS V14.01,2013-06-11 20:06:00,
2013-06-11 16:07:00,84.9,78.8,29.77,SSE,168,13.0,15.0,82,0.00,,BKN044,0.00,VWS V14.01,2013-06-11 20:07:00,
2013-06-11 16:08:00,84.9,78.8,29.77,SSE,168,13.0,15.0,82,0.00,,,0.00,VWS V14.01,2013-06-11 20:08:00,
2013-06-11 16:09:00,84.9,78.8,29.95,South,172,14.0,17.0,82,0.00,,,0.00,VWS V14.01,2013-06-11 20:09:00,
2013-06-11 16:10:00,84.9,78.8,29.94,SSE,163,13.0,15.0,82,0.00,,,0.00,VWS V14.01,2013-06-11 20:10:00,
2013-06-11 16:11:00,84.9,79.2,29.95,South,173,12.0,20.0,83,0.00,,,0.00,VWS V14.01,2013-06-11 20:11:00,
2013-06-11 16:12:00,84.9,78.8,29.94,South,185,20.0,20.0,82,0.00,,BKN044,0.00,VWS V14.01,2013-06-11 20:12:00,
2013-06-11 16:13:00,84.9,78.8,29.94,South,185,20.0,20.0,82,0.00,,,0.00,VWS V14.01,2013-06-11 20:13:00,
2013-06-11 16:14:00,84.9,79.2,29.94,South,169,15.0,20.0,83,0.00,,,0.00,VWS V14.01,2013-06-11 20:14:00,
2013-06-11 16:15:00,84.9,79.2,29.94,South,187,17.0,19.0,83,0.00,,,0.00,VWS V14.01,2013-06-11 20:15:00,
2013-06-11 16:16:00,84.9,79.5,29.94,South,178,18.0,19.0,84,0.00,,,0.00,VWS V14.01,2013-06-11 20:16:00,
2013-06-11 16:17:00,84.9,79.9,29.94,South,169,13.0,16.0,85,0.00,,BKN044,0.00,VWS V14.01,2013-06-11 20:17:00,
2013-06-11 16:18:00,84.9,79.9,29.94,South,171,14.0,16.0,85,0.00,,,0.00,VWS V14.01,2013-06-11 20:18:00,
2013-06-11 16:19:00,84.9,79.5,29.94,SSE,157,12.0,15.0,84,0.00,,,0.00,VWS V14.01,2013-06-11 20:19:00,
2013-06-11 16:20:00,84.9,79.9,29.94,SSE,157,13.0,16.0,85,0.00,,,0.00,VWS V14.01,2013-06-11 20:20:00,
2013-06-11 16:21:00,84.7,79.7,29.94,South,172,12.0,16.0,85,0.00,,,0.00,VWS V14.01,2013-06-11 20:21:00,
2013-06-11 16:22:00,84.7,80.4,29.94,South,172,12.0,19.0,87,0.00,,BKN044,0.00,VWS V14.01,2013-06-11 20:22:00,
2013-06-11 16:23:00,84.7,80.4,29.94,South,172,12.0,19.0,87,0.00,,,0.00,VWS V14.01,2013-06-11 20:23:00,
2013-06-11 16:24:00,84.7,80.4,29.94,SSE,160,14.0,14.0,87,0.00,,,0.00,VWS V14.01,2013-06-11 20:24:00,
2013-06-11 16:25:00,84.7,80.4,29.94,South,169,11.0,14.0,87,0.00,,,0.00,VWS V14.01,2013-06-11 20:25:00,
2013-06-11 16:26:00,84.5,80.2,29.94,SSE,166,16.0,16.0,87,0.00,,,0.00,VWS V14.01,2013-06-11 20:26:00,
2013-06-11 16:27:00,84.3,80.0,29.94,South,173,15.0,17.0,87,0.00,,BKN044,0.00,VWS V14.01,2013-06-11 20:27:00,
2013-06-11 16:28:00,84.3,80.0,29.94,South,173,15.0,17.0,87,0.00,,,0.00,VWS V14.01,2013-06-11 20:28:00,
2013-06-11 16:29:00,84.3,80.0,29.94,South,169,12.0,18.0,87,0.00,,,0.00,VWS V14.01,2013-06-11 20:29:00,
2013-06-11 16:30:00,84.1,79.8,29.94,South,176,16.0,19.0,87,0.00,,,0.00,VWS V14.01,2013-06-11 20:30:00,
2013-06-11 16:31:00,84.1,79.8,29.94,South,177,16.0,18.0,87,0.00,,,0.00,VWS V14.01,2013-06-11 20:31:00,
2013-06-11 16:32:00,84.1,79.8,29.94,South,172,17.0,17.0,87,0.00,,BKN044,0.00,VWS V14.01,2013-06-11 20:32:00,
2013-06-11 16:33:00,84.1,79.8,29.94,South,172,17.0,17.0,87,0.00,,,0.00,VWS V14.01,2013-06-11 20:33:00,
2013-06-11 16:34:00,84.1,79.8,29.94,South,174,16.0,17.0,87,0.00,,,0.00,VWS V14.01,2013-06-11 20:34:00,
2013-06-11 16:35:00,84.0,79.7,29.94,South,170,20.0,20.0,87,0.00,,,0.00,VWS V14.01,2013-06-11 20:35:00,
2013-06-11 16:36:00,83.8,79.5,29.94,SSE,162,12.0,21.0,87,0.00,,,0.00,VWS V14.01,2013-06-11 20:36:00,
2013-06-11 16:37:00,83.8,79.9,29.94,South,182,19.0,19.0,88,0.00,,BKN044,0.00,VWS V14.01,2013-06-11 20:37:00,
2013-06-11 16:38:00,83.8,79.9,29.94,South,182,19.0,19.0,88,0.00,,,0.00,VWS V14.01,2013-06-11 20:38:00,
2013-06-11 16:39:00,83.6,79.3,29.94,SSE,154,13.0,21.0,87,0.00,,,0.00,VWS V14.01,2013-06-11 20:39:00,
2013-06-11 16:40:00,83.6,79.7,29.94,South,174,14.0,18.0,88,0.00,,,0.00,VWS V14.01,2013-06-11 20:40:00,
2013-06-11 16:41:00,83.8,79.9,29.94,South,171,13.0,16.0,88,0.00,,,0.00,VWS V14.01,2013-06-11 20:41:00,
2013-06-11 16:42:00,83.8,79.9,29.94,SSE,158,9.0,15.0,88,0.00,,BKN045,0.00,VWS V14.01,2013-06-11 20:42:00,
2013-06-11 16:43:00,83.8,79.9,29.94,SSE,158,9.0,15.0,88,0.00,,,0.00,VWS V14.01,2013-06-11 20:43:00,
2013-06-11 16:44:00,84.0,80.4,29.94,SSE,158,13.0,18.0,89,0.00,,,0.00,VWS V14.01,2013-06-11 20:44:00,
2013-06-11 16:45:00,84.0,80.4,29.94,South,177,12.0,17.0,89,0.00,,,0.00,VWS V14.01,2013-06-11 20:45:00,
2013-06-11 16:46:00,84.0,80.1,29.94,South,183,17.0,18.0,88,0.00,,,0.00,VWS V14.01,2013-06-11 20:46:00,
2013-06-11 16:47:00,84.0,80.1,29.94,South,187,14.0,21.0,88,0.00,,BKN045,0.00,VWS V14.01,2013-06-11 20:47:00,
2013-06-11 16:48:00,84.0,80.1,29.94,South,187,14.0,21.0,88,0.00,,,0.00,VWS V14.01,2013-06-11 20:48:00,
2013-06-11 16:49:00,84.0,80.4,29.94,South,183,18.0,18.0,89,0.00,,,0.00,VWS V14.01,2013-06-11 20:49:00,
2013-06-11 16:50:00,84.0,80.1,29.94,South,180,18.0,19.0,88,0.00,,,0.00,VWS V14.01,2013-06-11 20:50:00,
2013-06-11 16:51:00,83.8,79.9,29.94,South,181,16.0,18.0,88,0.00,,,0.00,VWS V14.01,2013-06-11 20:51:00,
2013-06-11 16:52:00,83.8,80.2,29.94,South,176,12.0,16.0,89,0.00,,BKN045,0.00,VWS V14.01,2013-06-11 20:52:00,
2013-06-11 16:53:00,83.8,80.2,29.94,South,176,12.0,16.0,89,0.00,,,0.00,VWS V14.01,2013-06-11 20:53:00,
2013-06-11 16:54:00,83.8,79.9,29.94,South,175,13.0,21.0,88,0.00,,,0.00,VWS V14.01,2013-06-11 20:54:00,
2013-06-11 16:55:00,83.6,79.7,29.94,South,188,18.0,18.0,88,0.00,,,0.00,VWS V14.01,2013-06-11 20:55:00,
2013-06-11 16:56:00,83.6,79.7,29.94,South,179,20.0,20.0,88,0.00,,,0.00,VWS V14.01,2013-06-11 20:56:00,
2013-06-11 16:57:00,83.4,79.5,29.94,South,175,17.0,19.0,88,0.00,,BKN045,0.00,VWS V14.01,2013-06-11 20:57:00,
2013-06-11 16:58:00,83.4,79.5,29.94,South,175,17.0,19.0,88,0.00,,,0.00,VWS V14.01,2013-06-11 20:58:00,
2013-06-11 16:59:00,83.4,79.5,29.94,South,188,12.0,18.0,88,0.00,,,0.00,VWS V14.01,2013-06-11 20:59:00,
2013-06-11 17:00:00,83.4,80.2,29.94,South,174,16.0,16.0,90,0.00,,,0.00,VWS V14.01,2013-06-11 21:00:00,
2013-06-11 17:01:00,83.6,80.0,29.94,SSE,168,11.0,16.0,89,0.00,,,0.00,VWS V14.01,2013-06-11 21:01:00,
2013-06-11 17:02:00,83.6,79.7,29.94,SSW,197,12.0,17.0,88,0.00,,BKN045,0.00,VWS V14.01,2013-06-11 21:02:00,
2013-06-11 17:03:00,83.6,79.7,29.94,SSW,197,12.0,17.0,88,0.00,,,0.00,VWS V14.01,2013-06-11 21:03:00,
2013-06-11 17:04:00,83.6,80.0,29.94,South,180,15.0,19.0,89,0.00,,,0.00,VWS V14.01,2013-06-11 21:04:00,
2013-06-11 17:05:00,83.6,79.7,29.94,South,184,13.0,15.0,88,0.00,,,0.00,VWS V14.01,2013-06-11 21:05:00,
2013-06-11 17:06:00,83.8,80.2,29.94,South,176,15.0,15.0,89,0.00,,,0.00,VWS V14.01,2013-06-11 21:06:00,
2013-06-11 17:07:00,83.8,80.2,29.94,SSE,163,11.0,13.0,89,0.00,,BKN045,0.00,VWS V14.01,2013-06-11 21:07:00,
2013-06-11 17:08:00,83.8,80.2,29.94,SSE,163,11.0,13.0,89,0.00,,,0.00,VWS V14.01,2013-06-11 21:08:00,
2013-06-11 17:09:00,83.8,79.9,29.94,South,177,16.0,16.0,88,0.00,,,0.00,VWS V14.01,2013-06-11 21:09:00,
2013-06-11 17:10:00,84.0,80.1,29.94,South,171,15.0,16.0,88,0.00,,,0.00,VWS V14.01,2013-06-11 21:10:00,
2013-06-11 17:11:00,84.0,80.1,29.94,SSE,161,10.0,15.0,88,0.00,,,0.00,VWS V14.01,2013-06-11 21:11:00,
2013-06-11 17:12:00,84.0,79.7,29.94,SSE,161,12.0,17.0,87,0.00,,BKN045,0.00,VWS V14.01,2013-06-11 21:12:00,
2013-06-11 17:13:00,84.0,79.7,29.94,South,182,17.0,17.0,87,0.00,,,0.00,VWS V14.01,2013-06-11 21:13:00,
2013-06-11 17:14:00,84.0,80.1,29.94,South,169,14.0,17.0,88,0.00,,,0.00,VWS V14.01,2013-06-11 21:14:00,
2013-06-11 17:15:00,84.0,79.7,29.94,SSE,157,13.0,15.0,87,0.00,,,0.00,VWS V14.01,2013-06-11 21:15:00,
2013-06-11 17:16:00,84.0,79.7,29.94,SSE,166,15.0,15.0,87,0.00,,,0.00,VWS V14.01,2013-06-11 21:16:00,
2013-06-11 17:17:00,84.0,79.7,29.94,SSE,163,13.0,13.0,87,0.00,,BKN045,0.00,VWS V14.01,2013-06-11 21:17:00,
2013-06-11 17:18:00,84.0,79.7,29.94,South,169,11.0,18.0,87,0.00,,,0.00,VWS V14.01,2013-06-11 21:18:00,
2013-06-11 17:19:00,84.0,80.1,29.94,SE,139,12.0,13.0,88,0.00,,,0.00,VWS V14.01,2013-06-11 21:19:00,
2013-06-11 17:20:00,84.0,80.1,29.94,South,176,11.0,16.0,88,0.00,,,0.00,VWS V14.01,2013-06-11 21:20:00,
2013-06-11 17:21:00,84.0,80.4,29.94,SSW,193,14.0,15.0,89,0.00,,,0.00,VWS V14.01,2013-06-11 21:21:00,
2013-06-11 17:22:00,83.8,80.2,29.94,SSE,153,16.0,16.0,89,0.00,,BKN045,0.00,VWS V14.01,2013-06-11 21:22:00,
2013-06-11 17:23:00,83.8,80.2,29.94,SSE,151,16.0,19.0,89,0.00,,,0.00,VWS V14.01,2013-06-11 21:23:00,
2013-06-11 17:24:00,83.8,79.9,29.94,South,176,18.0,18.0,88,0.00,,,0.00,VWS V14.01,2013-06-11 21:24:00,
2013-06-11 17:25:00,83.6,79.7,29.94,South,173,18.0,18.0,88,0.00,,,0.00,VWS V14.01,2013-06-11 21:25:00,
2013-06-11 17:26:00,83.6,80.0,29.94,South,176,12.0,18.0,89,0.00,,,0.00,VWS V14.01,2013-06-11 21:26:00,
2013-06-11 17:27:00,83.6,80.0,29.89,SSE,163,19.0,19.0,89,0.00,,BKN045,0.00,VWS V14.01,2013-06-11 21:27:00,
2013-06-11 17:28:00,83.6,80.0,29.89,SSE,163,19.0,19.0,89,0.00,,,0.00,VWS V14.01,2013-06-11 21:28:00,
2013-06-11 17:29:00,83.4,79.8,29.89,South,182,20.0,21.0,89,0.00,,,0.00,VWS V14.01,2013-06-11 21:29:00,
2013-06-11 17:30:00,83.4,79.8,29.93,SSE,165,13.0,20.0,89,0.00,,,0.00,VWS V14.01,2013-06-11 21:30:00,
2013-06-11 17:31:00,83.4,79.8,29.93,SSE,160,14.0,17.0,89,0.00,,,0.00,VWS V14.01,2013-06-11 21:31:00,
2013-06-11 17:32:00,83.4,79.8,29.93,South,178,14.0,21.0,89,0.00,,BKN045,0.00,VWS V14.01,2013-06-11 21:32:00,
2013-06-11 17:33:00,83.4,79.8,29.93,South,178,14.0,21.0,89,0.00,,,0.00,VWS V14.01,2013-06-11 21:33:00,
2013-06-11 17:34:00,83.4,79.8,29.93,South,178,20.0,20.0,89,0.00,,,0.00,VWS V14.01,2013-06-11 21:34:00,
2013-06-11 17:35:00,83.2,79.6,29.93,SSE,150,14.0,23.0,89,0.00,,,0.00,VWS V14.01,2013-06-11 21:35:00,
2013-06-11 17:36:00,83.2,79.6,29.93,South,191,15.0,22.0,89,0.00,,,0.00,VWS V14.01,2013-06-11 21:36:00,
2013-06-11 17:37:00,83.2,80.0,29.93,SSE,167,17.0,18.0,90,0.00,,BKN045,0.00,VWS V14.01,2013-06-11 21:37:00,
2013-06-11 17:38:00,83.2,80.0,29.93,SSE,167,17.0,18.0,90,0.00,,,0.00,VWS V14.01,2013-06-11 21:38:00,
2013-06-11 17:39:00,83.2,80.0,29.93,South,176,13.0,18.0,90,0.00,,,0.00,VWS V14.01,2013-06-11 21:39:00,
2013-06-11 17:40:00,83.2,80.0,29.93,South,171,18.0,19.0,90,0.00,,,0.00,VWS V14.01,2013-06-11 21:40:00,
2013-06-11 17:41:00,83.2,80.0,29.85,South,180,19.0,21.0,90,0.00,,,0.00,VWS V14.01,2013-06-11 21:41:00,
2013-06-11 17:42:00,83.0,79.4,29.80,South,189,20.0,24.0,89,0.00,,BKN045,0.00,VWS V14.01,2013-06-11 21:42:00,
2013-06-11 17:43:00,83.0,79.4,29.80,South,189,20.0,24.0,89,0.00,,,0.00,VWS V14.01,2013-06-11 21:43:00,
2013-06-11 17:44:00,83.0,79.8,29.80,South,171,15.0,20.0,90,0.00,,,0.00,VWS V14.01,2013-06-11 21:44:00,
2013-06-11 17:45:00,83.0,79.8,29.80,SSW,192,15.0,18.0,90,0.00,,,0.00,VWS V14.01,2013-06-11 21:45:00,
2013-06-11 17:46:00,83.0,79.8,29.80,South,177,15.0,17.0,90,0.00,,,0.00,VWS V14.01,2013-06-11 21:46:00,
2013-06-11 17:47:00,83.0,79.8,29.80,SSE,153,18.0,23.0,90,0.00,,BKN045,0.00,VWS V14.01,2013-06-11 21:47:00,
2013-06-11 17:48:00,83.2,80.0,29.80,South,175,23.0,23.0,90,0.00,,,0.00,VWS V14.01,2013-06-11 21:48:00,
2013-06-11 17:49:00,83.0,79.8,29.85,South,175,13.0,23.0,90,0.00,,,0.00,VWS V14.01,2013-06-11 21:49:00,
2013-06-11 17:50:00,83.0,80.1,29.85,SSE,148,14.0,14.0,91,0.00,,,0.00,VWS V14.01,2013-06-11 21:50:00,
2013-06-11 17:51:00,83.2,80.3,29.85,South,178,12.0,15.0,91,0.00,,,0.00,VWS V14.01,2013-06-11 21:51:00,
2013-06-11 17:52:00,83.0,79.8,29.76,South,190,16.0,17.0,90,0.00,,BKN045,0.00,VWS V14.01,2013-06-11 21:52:00,
2013-06-11 17:53:00,83.2,80.0,29.76,SSE,167,17.0,18.0,90,0.00,,,0.00,VWS V14.01,2013-06-11 21:53:00,
2013-06-11 17:54:00,83.2,80.0,29.76,South,171,11.0,17.0,90,0.00,,,0.00,VWS V14.01,2013-06-11 21:54:00,
2013-06-11 17:55:00,83.0,79.8,29.76,South,180,17.0,23.0,90,0.00,,,0.00,VWS V14.01,2013-06-11 21:55:00,
2013-06-11 17:56:00,83.0,80.1,29.76,SSE,154,13.0,18.0,91,0.00,,,0.00,VWS V14.01,2013-06-11 21:56:00,
2013-06-11 17:57:00,83.2,80.3,29.80,South,171,19.0,19.0,91,0.00,,BKN045,0.00,VWS V14.01,2013-06-11 21:57:00,
2013-06-11 17:58:00,83.2,80.3,29.80,South,181,17.0,20.0,91,0.00,,,0.00,VWS V14.01,2013-06-11 21:58:00,
2013-06-11 17:59:00,83.0,80.1,29.80,South,178,21.0,21.0,91,0.00,,,0.00,VWS V14.01,2013-06-11 21:59:00,
2013-06-11 18:00:00,82.8,79.6,29.80,SSE,167,15.0,25.0,90,0.00,,,0.00,VWS V14.01,2013-06-11 22:00:00,
2013-06-11 18:01:00,82.8,79.9,29.80,South,180,14.0,20.0,91,0.00,,,0.00,VWS V14.01,2013-06-11 22:01:00,
2013-06-11 18:02:00,83.0,80.1,29.80,South,190,11.0,17.0,91,0.00,,BKN045,0.00,VWS V14.01,2013-06-11 22:02:00,
2013-06-11 18:03:00,83.0,80.1,29.80,South,190,11.0,17.0,91,0.00,,,0.00,VWS V14.01,2013-06-11 22:03:00,
2013-06-11 18:04:00,83.0,80.1,29.80,South,178,16.0,19.0,91,0.00,,,0.00,VWS V14.01,2013-06-11 22:04:00,
2013-06-11 18:05:00,82.8,79.9,29.80,South,182,20.0,20.0,91,0.00,,,0.00,VWS V14.01,2013-06-11 22:05:00,
2013-06-11 18:06:00,82.8,79.9,29.80,South,170,20.0,20.0,91,0.00,,,0.00,VWS V14.01,2013-06-11 22:06:00,
2013-06-11 18:07:00,82.6,79.7,29.93,SSE,165,17.0,23.0,91,0.00,,BKN045,0.00,VWS V14.01,2013-06-11 22:07:00,
2013-06-11 18:08:00,82.6,79.7,29.93,SSE,165,17.0,23.0,91,0.00,,,0.00,VWS V14.01,2013-06-11 22:08:00,
2013-06-11 18:09:00,82.6,79.7,29.93,SSE,163,12.0,19.0,91,0.00,,,0.00,VWS V14.01,2013-06-11 22:09:00,
2013-06-11 18:10:00,82.8,80.2,29.93,South,184,22.0,22.0,92,0.00,,,0.00,VWS V14.01,2013-06-11 22:10:00,
2013-06-11 18:11:00,82.6,79.7,29.93,SSE,152,20.0,22.0,91,0.00,,,0.00,VWS V14.01,2013-06-11 22:11:00,
2013-06-11 18:12:00,82.6,79.7,29.93,South,176,12.0,24.0,91,0.00,,BKN045,0.00,VWS V14.01,2013-06-11 22:12:00,
2013-06-11 18:13:00,82.6,79.7,29.93,South,176,12.0,24.0,91,0.00,,,0.00,VWS V14.01,2013-06-11 22:13:00,
2013-06-11 18:14:00,82.6,80.0,29.93,South,177,13.0,14.0,92,0.00,,,0.00,VWS V14.01,2013-06-11 22:14:00,
2013-06-11 18:15:00,82.8,80.2,29.93,South,190,16.0,16.0,92,0.00,,,0.00,VWS V14.01,2013-06-11 22:15:00,
2013-06-11 18:16:00,82.8,80.6,29.93,South,178,15.0,19.0,93,0.00,,,0.00,VWS V14.01,2013-06-11 22:16:00,
2013-06-11 18:17:00,82.6,80.0,29.93,SSW,197,16.0,22.0,92,0.00,,BKN045,0.00,VWS V14.01,2013-06-11 22:17:00,
2013-06-11 18:18:00,82.6,80.0,29.93,SSW,197,16.0,22.0,92,0.00,,,0.00,VWS V14.01,2013-06-11 22:18:00,
2013-06-11 18:19:00,82.6,80.0,29.93,South,171,15.0,21.0,92,0.00,,,0.00,VWS V14.01,2013-06-11 22:19:00,
2013-06-11 18:20:00,82.6,80.0,29.93,South,178,17.0,20.0,92,0.00,,,0.00,VWS V14.01,2013-06-11 22:20:00,
2013-06-11 18:21:00,82.6,80.0,29.93,South,182,17.0,17.0,92,0.00,,,0.00,VWS V14.01,2013-06-11 22:21:00,
2013-06-11 18:22:00,82.8,80.2,29.89,South,180,17.0,17.0,92,0.00,,BKN045,0.00,VWS V14.01,2013-06-11 22:22:00,
2013-06-11 18:23:00,82.8,80.2,29.89,South,180,17.0,17.0,92,0.00,,,0.00,VWS V14.01,2013-06-11 22:23:00,
2013-06-11 18:24:00,82.8,80.2,29.93,South,169,14.0,17.0,92,0.00,,,0.00,VWS V14.01,2013-06-11 22:24:00,
2013-06-11 18:25:00,82.6,80.0,29.93,SSW,205,16.0,20.0,92,0.00,,,0.00,VWS V14.01,2013-06-11 22:25:00,
2013-06-11 18:26:00,82.6,79.7,29.84,SSE,163,13.0,21.0,91,0.00,,,0.00,VWS V14.01,2013-06-11 22:26:00,
2013-06-11 18:27:00,82.4,79.8,29.84,SSE,157,11.0,19.0,92,0.00,,BKN045,0.00,VWS V14.01,2013-06-11 22:27:00,
2013-06-11 18:28:00,82.4,79.8,29.84,SSE,157,11.0,19.0,92,0.00,,,0.00,VWS V14.01,2013-06-11 22:28:00,
2013-06-11 18:29:00,82.6,80.0,29.84,South,180,14.0,14.0,92,0.00,,,0.00,VWS V14.01,2013-06-11 22:29:00,
2013-06-11 18:30:00,82.6,80.0,29.84,South,170,16.0,20.0,92,0.00,,,0.00,VWS V14.01,2013-06-11 22:30:00,
2013-06-11 18:31:00,82.6,80.0,29.84,South,175,22.0,22.0,92,0.00,,,0.00,VWS V14.01,2013-06-11 22:31:00,
2013-06-11 18:32:00,82.6,80.0,29.84,South,178,17.0,21.0,92,0.00,,BKN045,0.00,VWS V14.01,2013-06-11 22:32:00,
2013-06-11 18:33:00,82.6,80.0,29.84,South,178,17.0,21.0,92,0.00,,,0.00,VWS V14.01,2013-06-11 22:33:00,
2013-06-11 18:34:00,82.6,80.0,29.84,South,178,15.0,21.0,92,0.00,,,0.00,VWS V14.01,2013-06-11 22:34:00,
2013-06-11 18:35:00,82.4,79.8,29.94,South,184,19.0,21.0,92,0.00,,,0.00,VWS V14.01,2013-06-11 22:35:00,
2013-06-11 18:36:00,82.4,79.8,29.94,South,184,19.0,19.0,92,0.00,,,0.00,VWS V14.01,2013-06-11 22:36:00,
2013-06-11 18:37:00,82.6,80.4,29.94,SSE,159,15.0,15.0,93,0.00,,BKN045,0.00,VWS V14.01,2013-06-11 22:37:00,
2013-06-11 18:38:00,82.6,80.4,29.94,South,184,17.0,17.0,93,0.00,,,0.00,VWS V14.01,2013-06-11 22:38:00,
2013-06-11 18:39:00,82.6,80.4,29.94,South,181,16.0,17.0,93,0.00,,,0.00,VWS V14.01,2013-06-11 22:39:00,
2013-06-11 18:40:00,82.6,80.0,29.94,South,178,15.0,17.0,92,0.00,,,0.00,VWS V14.01,2013-06-11 22:40:00,
2013-06-11 18:41:00,82.6,80.0,29.94,South,184,16.0,16.0,92,0.00,,,0.00,VWS V14.01,2013-06-11 22:41:00,
2013-06-11 18:42:00,82.6,80.0,29.94,SSW,193,17.0,20.0,92,0.00,,BKN047,0.00,VWS V14.01,2013-06-11 22:42:00,
2013-06-11 18:43:00,82.6,80.0,29.94,South,186,21.0,21.0,92,0.00,,,0.00,VWS V14.01,2013-06-11 22:43:00,
2013-06-11 18:44:00,82.4,79.8,29.94,SSW,196,19.0,21.0,92,0.00,,,0.00,VWS V14.01,2013-06-11 22:44:00,
2013-06-11 18:45:00,82.4,79.8,29.94,South,177,21.0,22.0,92,0.00,,,0.00,VWS V14.01,2013-06-11 22:45:00,
2013-06-11 18:46:00,82.4,79.8,29.94,South,182,20.0,21.0,92,0.00,,,0.00,VWS V14.01,2013-06-11 22:46:00,
2013-06-11 18:47:00,82.2,79.7,29.94,SSW,194,20.0,22.0,92,0.00,,BKN047,0.00,VWS V14.01,2013-06-11 22:47:00,
2013-06-11 18:48:00,82.2,79.7,29.94,SSW,194,20.0,22.0,92,0.00,,,0.00,VWS V14.01,2013-06-11 22:48:00,
2013-06-11 18:49:00,82.2,79.7,29.94,South,179,20.0,21.0,92,0.00,,,0.00,VWS V14.01,2013-06-11 22:49:00,
2013-06-11 18:50:00,82.2,79.7,29.94,South,184,18.0,22.0,92,0.00,,,0.00,VWS V14.01,2013-06-11 22:50:00,
2013-06-11 18:51:00,82.2,80.0,29.94,South,184,16.0,21.0,93,0.00,,,0.00,VWS V14.01,2013-06-11 22:51:00,
2013-06-11 18:52:00,82.0,79.8,29.94,South,181,22.0,24.0,93,0.00,,BKN047,0.00,VWS V14.01,2013-06-11 22:52:00,
2013-06-11 18:53:00,82.0,79.8,29.94,South,181,22.0,24.0,93,0.00,,,0.00,VWS V14.01,2013-06-11 22:53:00,
2013-06-11 18:54:00,82.0,79.8,29.89,SSW,198,19.0,22.0,93,0.00,,,0.00,VWS V14.01,2013-06-11 22:54:00,
2013-06-11 18:55:00,82.0,79.8,29.89,SSW,198,20.0,22.0,93,0.00,,,0.00,VWS V14.01,2013-06-11 22:55:00,
2013-06-11 18:56:00,82.0,79.8,29.94,South,173,20.0,20.0,93,0.00,,,0.00,VWS V14.01,2013-06-11 22:56:00,
2013-06-11 18:57:00,82.0,79.8,29.93,SSW,201,20.0,23.0,93,0.00,,BKN047,0.00,VWS V14.01,2013-06-11 22:57:00,
2013-06-11 18:58:00,82.0,79.8,29.93,SSW,201,20.0,23.0,93,0.00,,,0.00,VWS V14.01,2013-06-11 22:58:00,
2013-06-11 18:59:00,82.0,79.8,29.93,SSE,168,21.0,24.0,93,0.00,,,0.00,VWS V14.01,2013-06-11 22:59:00,
2013-06-11 19:00:00,82.0,79.8,29.93,South,184,24.0,24.0,93,0.00,,,0.00,VWS V14.01,2013-06-11 23:00:00,
2013-06-11 19:01:00,82.0,79.8,29.93,South,190,19.0,24.0,93,0.00,,,0.00,VWS V14.01,2013-06-11 23:01:00,
2013-06-11 19:02:00,82.0,79.8,29.93,South,178,19.0,22.0,93,0.00,,BKN047,0.00,VWS V14.01,2013-06-11 23:02:00,
2013-06-11 19:03:00,82.0,79.8,29.93,SSW,198,15.0,22.0,93,0.00,,,0.00,VWS V14.01,2013-06-11 23:03:00,
2013-06-11 19:04:00,82.0,79.8,29.93,South,173,18.0,18.0,93,0.00,,,0.00,VWS V14.01,2013-06-11 23:04:00,
2013-06-11 19:05:00,82.0,79.8,29.93,SW,214,19.0,24.0,93,0.00,,,0.00,VWS V14.01,2013-06-11 23:05:00,
2013-06-11 19:06:00,82.0,79.8,29.93,South,182,19.0,20.0,93,0.00,,,0.00,VWS V14.01,2013-06-11 23:06:00,
2013-06-11 19:07:00,82.0,79.8,29.93,South,169,19.0,26.0,93,0.00,,BKN047,0.00,VWS V14.01,2013-06-11 23:07:00,
2013-06-11 19:08:00,82.0,79.8,29.93,South,178,24.0,26.0,93,0.00,,,0.00,VWS V14.01,2013-06-11 23:08:00,
2013-06-11 19:09:00,82.0,80.1,29.93,South,187,17.0,24.0,94,0.00,,,0.00,VWS V14.01,2013-06-11 23:09:00,
2013-06-11 19:10:00,82.0,80.1,29.93,South,182,19.0,21.0,94,0.00,,,0.00,VWS V14.01,2013-06-11 23:10:00,
2013-06-11 19:11:00,82.0,79.8,29.92,South,185,21.0,21.0,93,0.00,,,0.00,VWS V14.01,2013-06-11 23:11:00,
2013-06-11 19:12:00,82.0,79.8,29.92,South,185,24.0,24.0,93,0.00,,BKN047,0.00,VWS V14.01,2013-06-11 23:12:00,
2013-06-11 19:13:00,82.0,79.8,29.92,South,181,21.0,24.0,93,0.00,,,0.00,VWS V14.01,2013-06-11 23:13:00,
2013-06-11 19:14:00,81.8,79.6,29.92,South,180,20.0,24.0,93,0.00,,,0.00,VWS V14.01,2013-06-11 23:14:00,
2013-06-11 19:15:00,81.8,79.9,29.93,South,176,20.0,22.0,94,0.00,,,0.00,VWS V14.01,2013-06-11 23:15:00,
2013-06-11 19:16:00,82.0,80.1,29.93,South,190,19.0,20.0,94,0.00,,,0.00,VWS V14.01,2013-06-11 23:16:00,
2013-06-11 19:17:00,81.8,79.6,29.93,SW,235,18.0,22.0,93,0.00,,BKN047,0.00,VWS V14.01,2013-06-11 23:17:00,
2013-06-11 19:18:00,81.8,79.6,29.93,SSW,208,21.0,22.0,93,0.00,,,0.00,VWS V14.01,2013-06-11 23:18:00,
2013-06-11 19:19:00,81.8,79.6,29.93,South,184,20.0,21.0,93,0.00,,,0.00,VWS V14.01,2013-06-11 23:19:00,
2013-06-11 19:20:00,81.8,79.6,29.93,SSW,200,20.0,21.0,93,0.00,,,0.00,VWS V14.01,2013-06-11 23:20:00,
2013-06-11 19:21:00,81.8,79.9,29.93,South,185,18.0,20.0,94,0.00,,,0.00,VWS V14.01,2013-06-11 23:21:00,
2013-06-11 19:22:00,81.8,79.6,29.93,South,189,18.0,22.0,93,0.00,,BKN047,0.00,VWS V14.01,2013-06-11 23:22:00,
2013-06-11 19:23:00,81.8,79.6,29.93,South,189,18.0,22.0,93,0.00,,,0.00,VWS V14.01,2013-06-11 23:23:00,
2013-06-11 19:24:00,81.8,79.9,29.93,SSW,194,22.0,22.0,94,0.00,,,0.00,VWS V14.01,2013-06-11 23:24:00,
2013-06-11 19:25:00,81.8,79.6,29.93,SSW,197,21.0,22.0,93,0.00,,,0.00,VWS V14.01,2013-06-11 23:25:00,
2013-06-11 19:26:00,81.8,79.6,29.93,SSW,198,16.0,21.0,93,0.00,,,0.00,VWS V14.01,2013-06-11 23:26:00,
2013-06-11 19:27:00,81.6,79.4,29.93,SSW,192,20.0,23.0,93,0.00,,BKN047,0.00,VWS V14.01,2013-06-11 23:27:00,
2013-06-11 19:28:00,81.6,79.4,29.93,SSW,192,20.0,23.0,93,0.00,,,0.00,VWS V14.01,2013-06-11 23:28:00,
2013-06-11 19:29:00,81.6,79.4,29.93,SSW,200,20.0,22.0,93,0.00,,,0.00,VWS V14.01,2013-06-11 23:29:00,
2013-06-11 19:30:00,81.6,79.4,29.93,SSW,211,19.0,20.0,93,0.00,,,0.00,VWS V14.01,2013-06-11 23:30:00,
2013-06-11 19:31:00,81.8,79.6,29.93,SSW,192,20.0,20.0,93,0.00,,,0.00,VWS V14.01,2013-06-11 23:31:00,
2013-06-11 19:32:00,81.8,79.9,29.93,SW,216,19.0,20.0,94,0.00,,BKN047,0.00,VWS V14.01,2013-06-11 23:32:00,
2013-06-11 19:33:00,81.8,79.9,29.93,SSW,198,21.0,21.0,94,0.00,,,0.00,VWS V14.01,2013-06-11 23:33:00,
2013-06-11 19:34:00,81.8,79.6,29.93,SW,215,16.0,21.0,93,0.00,,,0.00,VWS V14.01,2013-06-11 23:34:00,
2013-06-11 19:35:00,81.8,79.9,29.94,South,188,17.0,23.0,94,0.00,,,0.00,VWS V14.01,2013-06-11 23:35:00,
2013-06-11 19:36:00,81.8,79.6,29.94,South,173,20.0,22.0,93,0.00,,,0.00,VWS V14.01,2013-06-11 23:36:00,
2013-06-11 19:37:00,81.8,79.9,29.94,SSW,195,16.0,22.0,94,0.00,,BKN047,0.00,VWS V14.01,2013-06-11 23:37:00,
2013-06-11 19:38:00,81.8,79.9,29.94,South,190,18.0,22.0,94,0.00,,,0.00,VWS V14.01,2013-06-11 23:38:00,
2013-06-11 19:39:00,81.8,79.9,29.93,South,187,23.0,23.0,94,0.00,,,0.00,VWS V14.01,2013-06-11 23:39:00,
2013-06-11 19:40:00,81.6,79.7,29.93,SSW,205,22.0,23.0,94,0.00,,,0.00,VWS V14.01,2013-06-11 23:40:00,
2013-06-11 19:41:00,81.6,79.4,29.93,SSW,213,18.0,23.0,93,0.00,,,0.00,VWS V14.01,2013-06-11 23:41:00,
2013-06-11 19:42:00,81.8,79.9,29.93,South,179,15.0,17.0,94,0.00,,BKN150,0.00,VWS V14.01,2013-06-11 23:42:00,
2013-06-11 19:43:00,81.8,79.9,29.93,SSW,194,18.0,18.0,94,0.00,,,0.00,VWS V14.01,2013-06-11 23:43:00,
2013-06-11 19:44:00,81.8,79.9,29.93,South,185,17.0,18.0,94,0.00,,,0.00,VWS V14.01,2013-06-11 23:44:00,
2013-06-11 19:45:00,81.6,79.7,29.92,SSW,200,17.0,17.0,94,0.00,,,0.00,VWS V14.01,2013-06-11 23:45:00,
2013-06-11 19:46:00,81.6,79.7,29.92,SSW,195,17.0,19.0,94,0.00,,,0.00,VWS V14.01,2013-06-11 23:46:00,
2013-06-11 19:47:00,81.6,79.7,29.92,South,183,18.0,23.0,94,0.00,,BKN150,0.00,VWS V14.01,2013-06-11 23:47:00,
2013-06-11 19:48:00,81.6,79.7,29.92,SSW,213,18.0,23.0,94,0.00,,,0.00,VWS V14.01,2013-06-11 23:48:00,
2013-06-11 19:49:00,81.6,79.7,29.93,SSW,194,19.0,21.0,94,0.00,,,0.00,VWS V14.01,2013-06-11 23:49:00,
2013-06-11 19:50:00,81.6,79.7,29.93,SSW,198,19.0,20.0,94,0.00,,,0.00,VWS V14.01,2013-06-11 23:50:00,
2013-06-11 19:51:00,81.6,79.7,29.93,SW,214,21.0,21.0,94,0.00,,,0.00,VWS V14.01,2013-06-11 23:51:00,
2013-06-11 19:52:00,81.6,79.7,29.93,South,182,19.0,20.0,94,0.00,,BKN150,0.00,VWS V14.01,2013-06-11 23:52:00,
2013-06-11 19:53:00,81.6,79.7,29.93,South,182,19.0,20.0,94,0.00,,,0.00,VWS V14.01,2013-06-11 23:53:00,
2013-06-11 19:54:00,81.6,79.7,29.93,SSW,200,19.0,20.0,94,0.00,,,0.00,VWS V14.01,2013-06-11 23:54:00,
2013-06-11 19:55:00,81.6,79.7,29.93,SSW,193,16.0,21.0,94,0.00,,,0.00,VWS V14.01,2013-06-11 23:55:00,
2013-06-11 19:56:00,81.6,79.7,29.93,SSW,201,13.0,16.0,94,0.00,,,0.00,VWS V14.01,2013-06-11 23:56:00,
2013-06-11 19:57:00,81.6,79.7,29.94,South,190,13.0,18.0,94,0.00,,BKN150,0.00,VWS V14.01,2013-06-11 23:57:00,
2013-06-11 19:58:00,81.6,79.7,29.94,SSW,203,16.0,18.0,94,0.00,,,0.00,VWS V14.01,2013-06-11 23:58:00,
2013-06-11 19:59:00,81.6,79.7,29.94,SW,219,22.0,22.0,94,0.00,,,0.00,VWS V14.01,2013-06-11 23:59:00,
2013-06-11 20:00:00,81.6,79.7,29.94,South,191,21.0,22.0,94,0.00,,,0.00,VWS V14.01,2013-06-12 00:00:00,
2013-06-11 20:01:00,81.6,79.7,29.94,SSW,198,13.0,21.0,94,0.00,,,0.00,VWS V14.01,2013-06-12 00:01:00,
2013-06-11 20:02:00,81.6,79.7,29.94,SSW,195,13.0,19.0,94,0.00,,BKN150,0.00,VWS V14.01,2013-06-12 00:02:00,
2013-06-11 20:03:00,81.6,79.7,29.94,South,188,16.0,19.0,94,0.00,,,0.00,VWS V14.01,2013-06-12 00:03:00,
2013-06-11 20:04:00,81.6,79.7,29.94,SW,219,17.0,17.0,94,0.00,,,0.00,VWS V14.01,2013-06-12 00:04:00,
2013-06-11 20:05:00,81.4,79.5,29.94,SSW,200,14.0,17.0,94,0.00,,,0.00,VWS V14.01,2013-06-12 00:05:00,
2013-06-11 20:06:00,81.6,79.7,29.94,SSW,211,13.0,17.0,94,0.00,,,0.00,VWS V14.01,2013-06-12 00:06:00,
2013-06-11 20:07:00,81.6,79.7,29.95,SSW,199,13.0,16.0,94,0.00,,BKN150,0.00,VWS V14.01,2013-06-12 00:07:00,
2013-06-11 20:08:00,81.6,79.7,29.95,SSW,197,14.0,16.0,94,0.00,,,0.00,VWS V14.01,2013-06-12 00:08:00,
2013-06-11 20:09:00,81.6,79.7,29.95,SSW,194,16.0,16.0,94,0.00,,,0.00,VWS V14.01,2013-06-12 00:09:00,
2013-06-11 20:10:00,81.6,79.7,29.95,South,187,11.0,16.0,94,0.00,,,0.00,VWS V14.01,2013-06-12 00:10:00,
2013-06-11 20:11:00,81.6,79.7,29.95,SSW,209,12.0,17.0,94,0.00,,,0.00,VWS V14.01,2013-06-12 00:11:00,
2013-06-11 20:12:00,81.6,79.7,29.95,South,182,13.0,14.0,94,0.00,,BKN200,0.00,VWS V14.01,2013-06-12 00:12:00,
2013-06-11 20:13:00,81.6,79.7,29.95,South,185,11.0,14.0,94,0.00,,,0.00,VWS V14.01,2013-06-12 00:13:00,
2013-06-11 20:14:00,81.6,79.7,29.95,South,190,14.0,17.0,94,0.00,,,0.00,VWS V14.01,2013-06-12 00:14:00,
2013-06-11 20:15:00,81.6,79.7,29.95,South,191,14.0,16.0,94,0.00,,,0.00,VWS V14.01,2013-06-12 00:15:00,
2013-06-11 20:16:00,81.6,79.7,29.95,SSW,194,12.0,14.0,94,0.00,,,0.00,VWS V14.01,2013-06-12 00:16:00,
2013-06-11 20:17:00,81.6,79.7,29.95,South,190,16.0,16.0,94,0.00,,BKN200,0.00,VWS V14.01,2013-06-12 00:17:00,
2013-06-11 20:18:00,81.6,79.7,29.95,SSW,197,13.0,16.0,94,0.00,,,0.00,VWS V14.01,2013-06-12 00:18:00,
2013-06-11 20:19:00,81.6,79.7,29.95,SSE,168,15.0,17.0,94,0.00,,,0.00,VWS V14.01,2013-06-12 00:19:00,
2013-06-11 20:20:00,81.6,79.7,29.95,SSW,213,13.0,15.0,94,0.00,,,0.00,VWS V14.01,2013-06-12 00:20:00,
2013-06-11 20:21:00,81.6,79.7,29.94,SSW,208,19.0,19.0,94,0.00,,,0.00,VWS V14.01,2013-06-12 00:21:00,
2013-06-11 20:22:00,81.6,79.7,29.94,SSW,196,14.0,18.0,94,0.00,,BKN200,0.00,VWS V14.01,2013-06-12 00:22:00,
2013-06-11 20:23:00,81.6,79.7,29.94,SW,219,15.0,18.0,94,0.00,,,0.00,VWS V14.01,2013-06-12 00:23:00,
2013-06-11 20:24:00,81.6,79.7,29.94,SSW,198,14.0,17.0,94,0.00,,,0.00,VWS V14.01,2013-06-12 00:24:00,
2013-06-11 20:25:00,81.6,79.7,29.94,SSW,194,18.0,18.0,94,0.00,,,0.00,VWS V14.01,2013-06-12 00:25:00,
2013-06-11 20:26:00,81.6,79.7,29.94,SSW,213,18.0,18.0,94,0.00,,,0.00,VWS V14.01,2013-06-12 00:26:00,
2013-06-11 20:27:00,81.6,79.7,29.94,SSW,192,15.0,20.0,94,0.00,,BKN200,0.00,VWS V14.01,2013-06-12 00:27:00,
2013-06-11 20:28:00,81.6,79.7,29.94,SSW,209,14.0,20.0,94,0.00,,,0.00,VWS V14.01,2013-06-12 00:28:00,
2013-06-11 20:29:00,81.6,79.7,29.94,South,190,13.0,16.0,94,0.00,,,0.00,VWS V14.01,2013-06-12 00:29:00,
2013-06-11 20:30:00,81.6,79.7,29.94,South,187,13.0,18.0,94,0.00,,,0.00,VWS V14.01,2013-06-12 00:30:00,
2013-06-11 20:31:00,81.6,79.7,29.94,SSW,200,17.0,18.0,94,0.00,,,0.00,VWS V14.01,2013-06-12 00:31:00,
2013-06-11 20:32:00,81.6,79.7,29.94,South,188,19.0,19.0,94,0.00,,BKN200,0.00,VWS V14.01,2013-06-12 00:32:00,
2013-06-11 20:33:00,81.6,79.7,29.94,South,188,19.0,19.0,94,0.00,,,0.00,VWS V14.01,2013-06-12 00:33:00,
2013-06-11 20:34:00,81.6,79.7,29.94,South,181,14.0,21.0,94,0.00,,,0.00,VWS V14.01,2013-06-12 00:34:00,
2013-06-11 20:35:00,81.6,79.7,29.94,SSW,206,14.0,17.0,94,0.00,,,0.00,VWS V14.01,2013-06-12 00:35:00,
2013-06-11 20:36:00,81.6,79.7,29.94,SW,223,18.0,19.0,94,0.00,,,0.00,VWS V14.01,2013-06-12 00:36:00,
2013-06-11 20:37:00,81.6,79.7,29.94,SSW,209,18.0,18.0,94,0.00,,BKN200,0.00,VWS V14.01,2013-06-12 00:37:00,
2013-06-11 20:38:00,81.6,79.7,29.94,SSW,194,16.0,18.0,94,0.00,,,0.00,VWS V14.01,2013-06-12 00:38:00,
2013-06-11 20:39:00,81.6,79.7,29.94,SSW,200,16.0,19.0,94,0.00,,,0.00,VWS V14.01,2013-06-12 00:39:00,
2013-06-11 20:40:00,81.6,79.7,29.93,South,182,18.0,18.0,94,0.00,,,0.00,VWS V14.01,2013-06-12 00:40:00,
2013-06-11 20:41:00,81.6,80.0,29.93,SSW,213,16.0,18.0,95,0.00,,,0.00,VWS V14.01,2013-06-12 00:41:00,
2013-06-11 20:42:00,81.4,79.5,29.93,SSW,205,20.0,20.0,94,0.00,,BKN200,0.00,VWS V14.01,2013-06-12 00:42:00,
2013-06-11 20:43:00,81.4,79.5,29.93,SSW,208,18.0,20.0,94,0.00,,,0.00,VWS V14.01,2013-06-12 00:43:00,
2013-06-11 20:44:00,81.6,79.7,29.93,SSW,207,16.0,18.0,94,0.00,,,0.00,VWS V14.01,2013-06-12 00:44:00,
2013-06-11 20:45:00,81.6,80.0,29.93,South,191,17.0,17.0,95,0.00,,,0.00,VWS V14.01,2013-06-12 00:45:00,
2013-06-11 20:46:00,81.6,79.7,29.93,SSW,198,18.0,18.0,94,0.00,,,0.00,VWS V14.01,2013-06-12 00:46:00,
2013-06-11 20:47:00,81.6,80.0,29.93,SSW,192,18.0,21.0,95,0.00,,BKN200,0.00,VWS V14.01,2013-06-12 00:47:00,
2013-06-11 20:48:00,81.4,79.8,29.93,South,185,14.0,21.0,95,0.00,,,0.00,VWS V14.01,2013-06-12 00:48:00,
2013-06-11 20:49:00,81.4,79.8,29.93,SW,220,17.0,19.0,95,0.00,,,0.00,VWS V14.01,2013-06-12 00:49:00,
2013-06-11 20:50:00,81.4,79.8,29.93,SSW,194,22.0,22.0,95,0.00,,,0.00,VWS V14.01,2013-06-12 00:50:00,
2013-06-11 20:51:00,81.4,79.8,29.93,SW,216,19.0,22.0,95,0.00,,,0.00,VWS V14.01,2013-06-12 00:51:00,
2013-06-11 20:52:00,81.4,79.8,29.93,South,185,16.0,18.0,95,0.00,,BKN200,0.00,VWS V14.01,2013-06-12 00:52:00,
2013-06-11 20:53:00,81.4,79.8,29.93,SSW,208,17.0,18.0,95,0.00,,BKN030,0.00,VWS V14.01,2013-06-12 00:53:00,
2013-06-11 20:54:00,81.4,79.8,29.93,SSW,205,18.0,23.0,95,0.00,,BKN030,0.00,VWS V14.01,2013-06-12 00:54:00,
2013-06-11 20:55:00,81.4,79.8,29.93,South,189,16.0,22.0,95,0.00,,BKN030,0.00,VWS V14.01,2013-06-12 00:55:00,
2013-06-11 20:56:00,81.4,79.8,29.93,SSW,194,21.0,21.0,95,0.00,,BKN030,0.00,VWS V14.01,2013-06-12 00:56:00,
2013-06-11 20:57:00,81.4,79.8,29.93,South,187,17.0,18.0,95,0.00,,BKN200,0.00,VWS V14.01,2013-06-12 00:57:00,
2013-06-11 20:58:00,81.4,79.8,29.93,SSW,213,18.0,18.0,95,0.00,,BKN030,0.00,VWS V14.01,2013-06-12 00:58:00,
2013-06-11 20:59:00,81.4,79.8,29.93,WSW,248,19.0,20.0,95,0.00,,BKN030,0.00,VWS V14.01,2013-06-12 00:59:00,
2013-06-11 21:00:00,81.4,79.8,29.93,SSW,204,16.0,20.0,95,0.00,,BKN030,0.00,VWS V14.01,2013-06-12 01:00:00,
2013-06-11 21:01:00,81.4,79.8,29.93,South,180,17.0,21.0,95,0.00,,BKN030,0.00,VWS V14.01,2013-06-12 01:01:00,
2013-06-11 21:02:00,81.4,79.8,29.93,SSW,192,18.0,18.0,95,0.00,,,0.00,VWS V14.01,2013-06-12 01:02:00,
2013-06-11 21:03:00,81.4,79.8,29.93,SSW,192,18.0,18.0,95,0.00,,BKN030,0.00,VWS V14.01,2013-06-12 01:03:00,
2013-06-11 21:04:00,81.4,79.8,29.93,SSW,194,16.0,18.0,95,0.00,,BKN030,0.00,VWS V14.01,2013-06-12 01:04:00,
2013-06-11 21:05:00,81.4,79.8,29.93,SSW,204,17.0,17.0,95,0.00,,BKN030,0.00,VWS V14.01,2013-06-12 01:05:00,
2013-06-11 21:06:00,81.4,79.8,29.93,SSW,196,20.0,20.0,95,0.00,,BKN030,0.00,VWS V14.01,2013-06-12 01:06:00,
2013-06-11 21:07:00,81.4,79.8,29.94,South,186,19.0,19.0,95,0.00,,BKN200,0.00,VWS V14.01,2013-06-12 01:07:00,
2013-06-11 21:08:00,81.4,79.8,29.94,SSW,194,18.0,19.0,95,0.00,,BKN030,0.00,VWS V14.01,2013-06-12 01:08:00,
2013-06-11 21:09:00,81.4,79.8,29.94,SSW,204,18.0,18.0,95,0.00,,BKN030,0.00,VWS V14.01,2013-06-12 01:09:00,
2013-06-11 21:10:00,81.4,79.8,29.94,SSW,201,16.0,19.0,95,0.00,,BKN030,0.00,VWS V14.01,2013-06-12 01:10:00,
2013-06-11 21:12:00,81.4,79.8,29.94,SSW,204,16.0,17.0,95,0.00,,BKN200,0.00,VWS V14.01,2013-06-12 01:12:00,
2013-06-11 21:13:00,81.4,79.8,29.94,SSW,204,19.0,19.0,95,0.00,,BKN030,0.00,VWS V14.01,2013-06-12 01:13:00,
2013-06-11 21:14:00,81.4,79.8,29.94,SSW,204,15.0,19.0,95,0.00,,BKN030,0.00,VWS V14.01,2013-06-12 01:14:00,
2013-06-11 21:15:00,81.4,79.8,29.94,SSW,200,16.0,16.0,95,0.00,,BKN030,0.00,VWS V14.01,2013-06-12 01:15:00,
2013-06-11 21:16:00,81.4,79.8,29.94,SW,214,14.0,21.0,95,0.00,,BKN030,0.00,VWS V14.01,2013-06-12 01:16:00,
2013-06-11 21:17:00,81.6,80.0,29.94,SSW,212,14.0,20.0,95,0.00,,BKN200,0.00,VWS V14.01,2013-06-12 01:17:00,
2013-06-11 21:18:00,81.6,80.0,29.94,South,178,13.0,20.0,95,0.00,,BKN030,0.00,VWS V14.01,2013-06-12 01:18:00,
2013-06-11 21:19:00,81.6,80.0,29.94,South,170,15.0,15.0,95,0.00,,BKN030,0.00,VWS V14.01,2013-06-12 01:19:00,
2013-06-11 21:20:00,81.6,80.0,29.94,South,185,14.0,18.0,95,0.00,,BKN030,0.00,VWS V14.01,2013-06-12 01:20:00,
2013-06-11 21:21:00,81.6,80.0,29.94,SSW,213,19.0,19.0,95,0.00,,BKN030,0.00,VWS V14.01,2013-06-12 01:21:00,
2013-06-11 21:22:00,81.4,79.8,29.94,SW,216,19.0,19.0,95,0.00,,BKN200,0.00,VWS V14.01,2013-06-12 01:22:00,
2013-06-11 21:23:00,81.4,79.8,29.94,SSW,203,18.0,19.0,95,0.00,,BKN030,0.00,VWS V14.01,2013-06-12 01:23:00,
2013-06-11 21:24:00,81.4,79.8,29.94,SSW,200,16.0,20.0,95,0.00,,BKN030,0.00,VWS V14.01,2013-06-12 01:24:00,
2013-06-11 21:25:00,81.4,79.8,29.94,SSW,207,17.0,21.0,95,0.00,,BKN030,0.00,VWS V14.01,2013-06-12 01:25:00,
2013-06-11 21:26:00,81.4,79.8,29.95,SW,217,16.0,18.0,95,0.00,,BKN030,0.00,VWS V14.01,2013-06-12 01:26:00,
2013-06-11 21:27:00,81.4,79.8,29.94,SW,219,13.0,19.0,95,0.00,,BKN200,0.00,VWS V14.01,2013-06-12 01:27:00,
2013-06-11 21:28:00,81.4,79.8,29.94,SW,219,13.0,19.0,95,0.00,,BKN030,0.00,VWS V14.01,2013-06-12 01:28:00,
2013-06-11 21:29:00,81.4,79.8,29.94,SSW,209,16.0,18.0,95,0.00,,BKN030,0.00,VWS V14.01,2013-06-12 01:29:00,
2013-06-11 21:30:00,81.4,79.8,29.95,SW,224,17.0,19.0,95,0.00,,BKN030,0.00,VWS V14.01,2013-06-12 01:30:00,
2013-06-11 21:31:00,81.6,80.0,29.95,SW,216,17.0,17.0,95,0.00,,BKN030,0.00,VWS V14.01,2013-06-12 01:31:00,
2013-06-11 21:32:00,81.6,80.0,29.95,SSW,206,18.0,18.0,95,0.00,,BKN200,0.00,VWS V14.01,2013-06-12 01:32:00,
2013-06-11 21:33:00,81.6,80.0,29.95,SSW,206,18.0,18.0,95,0.00,,BKN030,0.00,VWS V14.01,2013-06-12 01:33:00,
2013-06-11 21:34:00,81.6,80.3,29.95,SSW,200,13.0,18.0,96,0.00,,BKN030,0.00,VWS V14.01,2013-06-12 01:34:00,
2013-06-11 21:35:00,81.6,80.0,29.95,SSW,213,19.0,19.0,95,0.00,,BKN030,0.00,VWS V14.01,2013-06-12 01:35:00,
2013-06-11 21:36:00,81.6,80.0,29.95,SSW,199,16.0,19.0,95,0.00,,BKN030,0.00,VWS V14.01,2013-06-12 01:36:00,
2013-06-11 21:37:00,81.6,80.0,29.95,SW,230,17.0,21.0,95,0.00,,BKN200,0.00,VWS V14.01,2013-06-12 01:37:00,
2013-06-11 21:38:00,81.6,80.0,29.95,SW,230,17.0,21.0,95,0.00,,BKN030,0.00,VWS V14.01,2013-06-12 01:38:00,
2013-06-11 21:39:00,81.6,80.0,29.95,SSW,208,18.0,18.0,95,0.00,,BKN030,0.00,VWS V14.01,2013-06-12 01:39:00,
2013-06-11 21:40:00,81.6,80.3,29.95,SSW,204,12.0,18.0,96,0.00,,BKN030,0.00,VWS V14.01,2013-06-12 01:40:00,
2013-06-11 21:41:00,81.6,80.3,29.95,SSW,203,13.0,14.0,96,0.00,,BKN030,0.00,VWS V14.01,2013-06-12 01:41:00,
2013-06-11 21:42:00,81.6,80.3,29.95,SSW,207,19.0,19.0,96,0.00,,CLR,0.00,VWS V14.01,2013-06-12 01:42:00,
2013-06-11 21:43:00,81.6,80.3,29.95,SW,221,17.0,19.0,96,0.00,,BKN030,0.00,VWS V14.01,2013-06-12 01:43:00,
2013-06-11 21:44:00,81.6,80.3,29.95,SSW,196,17.0,19.0,96,0.00,,BKN030,0.00,VWS V14.01,2013-06-12 01:44:00,
2013-06-11 21:45:00,81.6,80.3,29.95,SW,227,19.0,19.0,96,0.00,,BKN030,0.00,VWS V14.01,2013-06-12 01:45:00,
2013-06-11 21:46:00,81.6,80.3,29.95,South,188,13.0,19.0,96,0.00,,BKN030,0.00,VWS V14.01,2013-06-12 01:46:00,
2013-06-11 21:47:00,81.4,80.2,29.94,SW,227,11.0,15.0,96,0.00,,CLR,0.00,VWS V14.01,2013-06-12 01:47:00,
2013-06-11 21:48:00,81.4,80.2,29.94,SSW,203,14.0,15.0,96,0.00,,BKN030,0.00,VWS V14.01,2013-06-12 01:48:00,
2013-06-11 21:49:00,81.4,80.2,29.95,SW,221,16.0,18.0,96,0.00,,BKN030,0.00,VWS V14.01,2013-06-12 01:49:00,
2013-06-11 21:50:00,81.4,80.2,29.95,SW,222,15.0,17.0,96,0.00,,BKN030,0.00,VWS V14.01,2013-06-12 01:50:00,
2013-06-11 21:51:00,81.4,80.2,29.95,SSW,196,13.0,16.0,96,0.00,,BKN030,0.00,VWS V14.01,2013-06-12 01:51:00,
2013-06-11 21:52:00,81.4,80.2,29.95,SSW,213,14.0,14.0,96,0.00,,CLR,0.00,VWS V14.01,2013-06-12 01:52:00,
2013-06-11 21:53:00,81.6,80.3,29.95,SSW,212,17.0,17.0,96,0.00,,BKN030,0.00,VWS V14.01,2013-06-12 01:53:00,
2013-06-11 21:54:00,81.6,80.3,29.95,SW,214,14.0,17.0,96,0.00,,BKN030,0.00,VWS V14.01,2013-06-12 01:54:00,
2013-06-11 21:55:00,81.4,80.2,29.95,SSW,196,17.0,18.0,96,0.00,,BKN030,0.00,VWS V14.01,2013-06-12 01:55:00,
2013-06-11 21:56:00,81.6,80.3,29.96,SSW,212,17.0,18.0,96,0.00,,BKN030,0.00,VWS V14.01,2013-06-12 01:56:00,
2013-06-11 21:57:00,81.4,80.2,29.96,SSW,202,14.0,17.0,96,0.00,,CLR,0.00,VWS V14.01,2013-06-12 01:57:00,
2013-06-11 21:58:00,81.4,80.2,29.96,SW,225,15.0,17.0,96,0.00,,BKN030,0.00,VWS V14.01,2013-06-12 01:58:00,
2013-06-11 21:59:00,81.4,80.2,29.96,SW,227,14.0,17.0,96,0.00,,BKN030,0.00,VWS V14.01,2013-06-12 01:59:00,
2013-06-11 22:00:00,81.4,80.2,29.96,SSW,207,13.0,16.0,96,0.00,,BKN030,0.00,VWS V14.01,2013-06-12 02:00:00,
2013-06-11 22:01:00,81.4,80.2,29.96,SSW,207,18.0,18.0,96,0.00,,BKN030,0.00,VWS V14.01,2013-06-12 02:01:00,
2013-06-11 22:02:00,81.4,80.2,29.96,SSW,208,16.0,16.0,96,0.00,,CLR,0.00,VWS V14.01,2013-06-12 02:02:00,
2013-06-11 22:03:00,81.4,80.2,29.96,WSW,248,14.0,16.0,96,0.00,,BKN030,0.00,VWS V14.01,2013-06-12 02:03:00,
2013-06-11 22:04:00,81.4,80.2,29.96,SSW,193,14.0,17.0,96,0.00,,BKN030,0.00,VWS V14.01,2013-06-12 02:04:00,
2013-06-11 22:05:00,81.4,80.2,29.95,SW,233,17.0,19.0,96,0.00,,BKN030,0.00,VWS V14.01,2013-06-12 02:05:00,
2013-06-11 22:06:00,81.4,80.2,29.95,SSW,207,19.0,19.0,96,0.00,,BKN030,0.00,VWS V14.01,2013-06-12 02:06:00,
2013-06-11 22:07:00,81.4,80.2,29.95,SSW,207,18.0,19.0,96,0.00,,CLR,0.00,VWS V14.01,2013-06-12 02:07:00,
2013-06-11 22:08:00,81.4,80.2,29.95,SSW,211,15.0,19.0,96,0.00,,BKN030,0.00,VWS V14.01,2013-06-12 02:08:00,
2013-06-11 22:09:00,81.6,80.3,29.96,South,180,22.0,22.0,96,0.00,,BKN030,0.00,VWS V14.01,2013-06-12 02:09:00,
2013-06-11 22:10:00,81.4,80.2,29.96,SSW,205,17.0,22.0,96,0.00,,BKN030,0.00,VWS V14.01,2013-06-12 02:10:00,
2013-06-11 22:11:00,81.4,80.2,29.96,SSW,192,18.0,18.0,96,0.00,,BKN030,0.00,VWS V14.01,2013-06-12 02:11:00,
2013-06-11 22:12:00,81.6,80.3,29.96,South,190,16.0,18.0,96,0.00,,CLR,0.00,VWS V14.01,2013-06-12 02:12:00,
2013-06-11 22:13:00,81.6,80.3,29.96,South,190,16.0,18.0,96,0.00,,BKN030,0.00,VWS V14.01,2013-06-12 02:13:00,
2013-06-11 22:14:00,81.4,80.2,29.96,SSW,207,16.0,19.0,96,0.00,,BKN030,0.00,VWS V14.01,2013-06-12 02:14:00,
2013-06-11 22:15:00,81.4,80.2,29.96,SW,226,20.0,20.0,96,0.00,,BKN030,0.00,VWS V14.01,2013-06-12 02:15:00,
2013-06-11 22:16:00,81.4,80.2,29.96,SW,219,20.0,20.0,96,0.00,,BKN030,0.00,VWS V14.01,2013-06-12 02:16:00,
2013-06-11 22:17:00,81.4,80.2,29.95,SSW,205,18.0,20.0,96,0.00,,CLR,0.00,VWS V14.01,2013-06-12 02:17:00,
2013-06-11 22:18:00,81.4,80.2,29.95,SSW,205,18.0,20.0,96,0.00,,BKN030,0.00,VWS V14.01,2013-06-12 02:18:00,
2013-06-11 22:19:00,81.4,80.2,29.96,SSW,211,21.0,21.0,96,0.00,,BKN030,0.00,VWS V14.01,2013-06-12 02:19:00,
2013-06-11 22:20:00,81.4,80.2,29.96,SW,217,16.0,21.0,96,0.00,,BKN030,0.00,VWS V14.01,2013-06-12 02:20:00,
2013-06-11 22:21:00,81.6,80.3,29.96,South,189,14.0,17.0,96,0.00,,BKN030,0.00,VWS V14.01,2013-06-12 02:21:00,
2013-06-11 22:22:00,81.6,80.3,29.96,SSW,211,13.0,20.0,96,0.00,,CLR,0.00,VWS V14.01,2013-06-12 02:22:00,
2013-06-11 22:23:00,81.6,80.3,29.96,SSW,211,13.0,20.0,96,0.00,,BKN030,0.00,VWS V14.01,2013-06-12 02:23:00,
2013-06-11 22:24:00,81.6,80.3,29.96,SSW,211,14.0,16.0,96,0.00,,BKN030,0.00,VWS V14.01,2013-06-12 02:24:00,
2013-06-11 22:25:00,81.6,80.3,29.96,South,171,13.0,17.0,96,0.00,,BKN030,0.00,VWS V14.01,2013-06-12 02:25:00,
2013-06-11 22:26:00,81.6,80.3,29.96,SSW,206,11.0,14.0,96,0.00,,BKN030,0.00,VWS V14.01,2013-06-12 02:26:00,
2013-06-11 22:27:00,81.6,80.3,29.96,SSW,212,18.0,18.0,96,0.00,,CLR,0.00,VWS V14.01,2013-06-12 02:27:00,
2013-06-11 22:28:00,81.6,80.3,29.96,SSW,212,18.0,18.0,96,0.00,,BKN030,0.00,VWS V14.01,2013-06-12 02:28:00,
2013-06-11 22:29:00,81.6,80.3,29.96,SSW,209,15.0,18.0,96,0.00,,BKN030,0.00,VWS V14.01,2013-06-12 02:29:00,
2013-06-11 22:30:00,81.6,80.3,29.96,SSW,196,17.0,17.0,96,0.00,,BKN030,0.00,VWS V14.01,2013-06-12 02:30:00,
2013-06-11 22:31:00,81.6,80.3,29.96,South,187,10.0,21.0,96,0.00,,BKN030,0.00,VWS V14.01,2013-06-12 02:31:00,
2013-06-11 22:32:00,81.6,80.3,29.96,SSW,210,19.0,19.0,96,0.00,,CLR,0.00,VWS V14.01,2013-06-12 02:32:00,
2013-06-11 22:33:00,81.6,80.3,29.96,SSW,210,19.0,19.0,96,0.00,,BKN030,0.00,VWS V14.01,2013-06-12 02:33:00,
2013-06-11 22:34:00,81.6,80.3,29.96,SSW,199,12.0,19.0,96,0.00,,BKN030,0.00,VWS V14.01,2013-06-12 02:34:00,
2013-06-11 22:35:00,81.6,80.3,29.96,South,180,15.0,15.0,96,0.00,,BKN030,0.00,VWS V14.01,2013-06-12 02:35:00,
2013-06-11 22:36:00,81.6,80.3,29.95,SSW,205,15.0,17.0,96,0.00,,BKN030,0.00,VWS V14.01,2013-06-12 02:36:00,
2013-06-11 22:37:00,81.6,80.3,29.95,SW,218,13.0,19.0,96,0.00,,CLR,0.00,VWS V14.01,2013-06-12 02:37:00,
2013-06-11 22:38:00,81.6,80.3,29.95,SW,218,13.0,19.0,96,0.00,,BKN030,0.00,VWS V14.01,2013-06-12 02:38:00,
2013-06-11 22:39:00,81.6,80.3,29.95,SSW,208,15.0,17.0,96,0.00,,BKN030,0.00,VWS V14.01,2013-06-12 02:39:00,
2013-06-11 22:40:00,81.6,80.3,29.96,SSW,202,17.0,19.0,96,0.00,,BKN030,0.00,VWS V14.01,2013-06-12 02:40:00,
2013-06-11 22:41:00,81.6,80.3,29.95,SSW,207,17.0,19.0,96,0.00,,BKN030,0.00,VWS V14.01,2013-06-12 02:41:00,
2013-06-11 22:42:00,81.6,80.3,29.95,SSW,206,16.0,18.0,96,0.00,,BKN100,0.00,VWS V14.01,2013-06-12 02:42:00,
2013-06-11 22:43:00,81.6,80.3,29.95,SSW,206,16.0,18.0,96,0.00,,BKN030,0.00,VWS V14.01,2013-06-12 02:43:00,
2013-06-11 22:44:00,81.6,80.3,29.95,WSW,247,14.0,16.0,96,0.00,,BKN030,0.00,VWS V14.01,2013-06-12 02:44:00,
2013-06-11 22:45:00,81.6,80.3,29.95,SW,219,14.0,18.0,96,0.00,,BKN030,0.00,VWS V14.01,2013-06-12 02:45:00,
2013-06-11 22:46:00,81.6,80.3,29.95,SSW,209,11.0,15.0,96,0.00,,BKN030,0.00,VWS V14.01,2013-06-12 02:46:00,
2013-06-11 22:47:00,81.6,80.3,29.95,SW,214,15.0,18.0,96,0.00,,BKN100,0.00,VWS V14.01,2013-06-12 02:47:00,
2013-06-11 22:48:00,81.6,80.3,29.95,SW,214,15.0,18.0,96,0.00,,BKN030,0.00,VWS V14.01,2013-06-12 02:48:00,
2013-06-11 22:49:00,81.6,80.3,29.95,SW,224,16.0,16.0,96,0.00,,BKN030,0.00,VWS V14.01,2013-06-12 02:49:00,
2013-06-11 22:50:00,81.6,80.3,29.96,SSW,203,18.0,18.0,96,0.00,,BKN030,0.00,VWS V14.01,2013-06-12 02:50:00,
2013-06-11 22:51:00,81.6,80.3,29.95,SW,219,15.0,18.0,96,0.00,,BKN030,0.00,VWS V14.01,2013-06-12 02:51:00,
2013-06-11 22:52:00,81.6,80.3,29.96,SW,231,16.0,19.0,96,0.00,,BKN100,0.00,VWS V14.01,2013-06-12 02:52:00,
2013-06-11 22:53:00,81.6,80.3,29.96,SSW,213,16.0,19.0,96,0.00,,BKN030,0.00,VWS V14.01,2013-06-12 02:53:00,
2013-06-11 22:54:00,81.6,80.3,29.96,SSW,209,18.0,18.0,96,0.00,,BKN030,0.00,VWS V14.01,2013-06-12 02:54:00,
2013-06-11 22:55:00,81.6,80.0,29.96,SSW,205,18.0,18.0,95,0.00,,BKN030,0.00,VWS V14.01,2013-06-12 02:55:00,
2013-06-11 22:56:00,81.6,80.3,29.96,SW,227,13.0,18.0,96,0.00,,BKN030,0.00,VWS V14.01,2013-06-12 02:56:00,
2013-06-11 22:57:00,81.6,80.7,29.96,WSW,240,20.0,20.0,97,0.00,,BKN085,0.00,VWS V14.01,2013-06-12 02:57:00,
2013-06-11 22:58:00,81.6,80.7,29.96,WSW,240,20.0,20.0,97,0.00,,BKN030,0.00,VWS V14.01,2013-06-12 02:58:00,
2013-06-11 22:59:00,81.6,80.7,29.96,SSW,210,13.0,20.0,97,0.00,,BKN030,0.00,VWS V14.01,2013-06-12 02:59:00,
2013-06-11 23:00:00,81.6,80.7,29.96,SSW,201,18.0,18.0,97,0.00,,BKN030,0.00,VWS V14.01,2013-06-12 03:00:00,
2013-06-11 23:01:00,81.6,80.7,29.95,SSW,206,12.0,18.0,97,0.00,,BKN030,0.00,VWS V14.01,2013-06-12 03:01:00,
2013-06-11 23:02:00,81.6,80.7,29.95,SW,214,16.0,18.0,97,0.00,,BKN085,0.00,VWS V14.01,2013-06-12 03:02:00,
2013-06-11 23:03:00,81.6,80.7,29.95,SW,214,16.0,18.0,97,0.00,,BKN030,0.00,VWS V14.01,2013-06-12 03:03:00,
2013-06-11 23:04:00,81.6,80.7,29.95,SSW,211,17.0,17.0,97,0.00,,BKN030,0.00,VWS V14.01,2013-06-12 03:04:00,
2013-06-11 23:05:00,81.6,80.7,29.95,SW,214,21.0,21.0,97,0.00,,BKN030,0.00,VWS V14.01,2013-06-12 03:05:00,
2013-06-11 23:06:00,81.6,80.7,29.96,SW,225,14.0,21.0,97,0.00,,BKN030,0.00,VWS V14.01,2013-06-12 03:06:00,
2013-06-11 23:07:00,81.6,80.7,29.96,South,190,11.0,20.0,97,0.00,,BKN085,0.00,VWS V14.01,2013-06-12 03:07:00,
2013-06-11 23:08:00,81.6,80.7,29.96,South,190,11.0,20.0,97,0.00,,BKN030,0.00,VWS V14.01,2013-06-12 03:08:00,
2013-06-11 23:09:00,81.6,80.7,29.96,SSW,200,17.0,17.0,97,0.00,,BKN030,0.00,VWS V14.01,2013-06-12 03:09:00,
2013-06-11 23:10:00,81.6,80.7,29.96,SSW,192,17.0,20.0,97,0.00,,BKN030,0.00,VWS V14.01,2013-06-12 03:10:00,
2013-06-11 23:11:00,81.4,80.5,29.96,SSW,201,17.0,20.0,97,0.00,,BKN030,0.00,VWS V14.01,2013-06-12 03:11:00,
2013-06-11 23:12:00,81.4,80.5,29.96,SSW,208,15.0,20.0,97,0.00,,BKN085,0.00,VWS V14.01,2013-06-12 03:12:00,
2013-06-11 23:13:00,81.4,80.5,29.96,SSW,208,15.0,20.0,97,0.00,,BKN030,0.00,VWS V14.01,2013-06-12 03:13:00,
2013-06-11 23:14:00,81.4,80.5,29.96,SSW,206,15.0,17.0,97,0.00,,BKN030,0.00,VWS V14.01,2013-06-12 03:14:00,
2013-06-11 23:15:00,81.4,80.5,29.97,SSW,199,14.0,19.0,97,0.00,,BKN030,0.00,VWS V14.01,2013-06-12 03:15:00,
2013-06-11 23:16:00,81.4,80.5,29.97,SW,226,13.0,17.0,97,0.00,,BKN030,0.00,VWS V14.01,2013-06-12 03:16:00,
2013-06-11 23:17:00,81.4,80.8,29.97,SW,224,14.0,14.0,98,0.00,,BKN085,0.00,VWS V14.01,2013-06-12 03:17:00,
2013-06-11 23:18:00,81.4,80.8,29.97,SW,224,14.0,14.0,98,0.00,,BKN030,0.00,VWS V14.01,2013-06-12 03:18:00,
2013-06-11 23:19:00,81.4,80.8,29.97,SW,214,18.0,18.0,98,0.00,,BKN030,0.00,VWS V14.01,2013-06-12 03:19:00,
2013-06-11 23:20:00,81.4,80.5,29.97,SW,220,16.0,18.0,97,0.00,,BKN030,0.00,VWS V14.01,2013-06-12 03:20:00,
2013-06-11 23:21:00,81.4,80.8,29.97,SW,221,12.0,16.0,98,0.00,,BKN030,0.00,VWS V14.01,2013-06-12 03:21:00,
2013-06-11 23:22:00,81.4,80.8,29.97,SSW,200,15.0,16.0,98,0.00,,BKN085,0.00,VWS V14.01,2013-06-12 03:22:00,
2013-06-11 23:23:00,81.4,80.8,29.97,SW,217,13.0,16.0,98,0.00,,BKN030,0.00,VWS V14.01,2013-06-12 03:23:00,
2013-06-11 23:24:00,81.4,80.8,29.97,SSW,207,12.0,14.0,98,0.00,,BKN030,0.00,VWS V14.01,2013-06-12 03:24:00,
2013-06-11 23:25:00,81.4,80.8,29.97,SSW,207,13.0,17.0,98,0.00,,BKN030,0.00,VWS V14.01,2013-06-12 03:25:00,
2013-06-11 23:26:00,81.4,80.8,29.97,SSW,207,16.0,18.0,98,0.00,,BKN030,0.00,VWS V14.01,2013-06-12 03:26:00,
2013-06-11 23:27:00,81.4,80.8,29.97,SSW,210,17.0,17.0,98,0.00,,BKN085,0.00,VWS V14.01,2013-06-12 03:27:00,
2013-06-11 23:28:00,81.2,80.6,29.97,SW,214,13.0,17.0,98,0.00,,BKN030,0.00,VWS V14.01,2013-06-12 03:28:00,
2013-06-11 23:29:00,81.2,80.6,29.97,SW,224,16.0,17.0,98,0.00,,BKN030,0.00,VWS V14.01,2013-06-12 03:29:00,
2013-06-11 23:30:00,81.2,80.6,29.97,SSW,209,17.0,17.0,98,0.00,,BKN030,0.00,VWS V14.01,2013-06-12 03:30:00,
2013-06-11 23:31:00,81.2,80.6,29.97,SW,234,9.0,17.0,98,0.00,,BKN030,0.00,VWS V14.01,2013-06-12 03:31:00,
2013-06-11 23:32:00,81.2,80.6,29.97,SSW,207,11.0,11.0,98,0.00,,BKN085,0.00,VWS V14.01,2013-06-12 03:32:00,
2013-06-11 23:33:00,81.2,80.6,29.97,SSW,207,11.0,11.0,98,0.00,,BKN030,0.00,VWS V14.01,2013-06-12 03:33:00,
2013-06-11 23:34:00,81.4,80.8,29.97,WSW,258,10.0,11.0,98,0.00,,BKN030,0.00,VWS V14.01,2013-06-12 03:34:00,
2013-06-11 23:35:00,81.2,80.6,29.97,West,263,4.0,10.0,98,0.00,,BKN030,0.00,VWS V14.01,2013-06-12 03:35:00,
2013-06-11 23:36:00,81.2,80.6,29.97,SW,235,5.0,9.0,98,0.00,,BKN030,0.00,VWS V14.01,2013-06-12 03:36:00,
2013-06-11 23:37:00,81.2,80.6,29.97,SSE,147,10.0,10.0,98,0.00,,BKN085,0.00,VWS V14.01,2013-06-12 03:37:00,
2013-06-11 23:38:00,81.2,80.6,29.97,SSE,147,10.0,10.0,98,0.00,,BKN030,0.00,VWS V14.01,2013-06-12 03:38:00,
2013-06-11 23:39:00,81.2,80.6,29.97,SW,223,7.0,10.0,98,0.00,,BKN030,0.00,VWS V14.01,2013-06-12 03:39:00,
2013-06-11 23:40:00,81.2,80.6,29.97,West,265,9.0,9.0,98,0.00,,BKN030,0.00,VWS V14.01,2013-06-12 03:40:00,
2013-06-11 23:41:00,81.2,80.6,29.97,SSW,201,8.0,9.0,98,0.00,,BKN030,0.00,VWS V14.01,2013-06-12 03:41:00,
2013-06-11 23:42:00,81.2,80.6,29.97,West,275,4.0,9.0,98,0.00,,BKN085,0.00,VWS V14.01,2013-06-12 03:42:00,
2013-06-11 23:43:00,81.2,80.6,29.97,West,275,4.0,9.0,98,0.00,,BKN030,0.00,VWS V14.01,2013-06-12 03:43:00,
2013-06-11 23:44:00,81.2,80.6,29.97,West,266,6.0,8.0,98,0.00,,BKN030,0.00,VWS V14.01,2013-06-12 03:44:00,
2013-06-11 23:45:00,81.2,80.6,29.97,West,271,5.0,9.0,98,0.00,,BKN030,0.00,VWS V14.01,2013-06-12 03:45:00,
2013-06-11 23:46:00,81.2,80.6,29.97,SW,216,3.0,9.0,98,0.00,,BKN030,0.00,VWS V14.01,2013-06-12 03:46:00,
2013-06-11 23:47:00,81.2,80.6,29.97,West,263,7.0,9.0,98,0.00,,BKN085,0.00,VWS V14.01,2013-06-12 03:47:00,
2013-06-11 23:48:00,81.2,80.6,29.97,West,263,7.0,9.0,98,0.00,,BKN030,0.00,VWS V14.01,2013-06-12 03:48:00,
2013-06-11 23:49:00,81.2,80.6,29.97,WSW,248,9.0,11.0,98,0.00,,BKN030,0.00,VWS V14.01,2013-06-12 03:49:00,
2013-06-11 23:50:00,81.2,80.6,29.96,SW,229,4.0,9.0,98,0.00,,BKN030,0.00,VWS V14.01,2013-06-12 03:50:00,
2013-06-11 23:51:00,81.2,80.6,29.96,WSW,251,9.0,10.0,98,0.00,,BKN030,0.00,VWS V14.01,2013-06-12 03:51:00,
2013-06-11 23:52:00,81.2,80.6,29.97,WSW,252,7.0,8.0,98,0.00,,BKN085,0.00,VWS V14.01,2013-06-12 03:52:00,
2013-06-11 23:53:00,81.2,80.6,29.97,WSW,252,2.0,8.0,98,0.00,,BKN030,0.00,VWS V14.01,2013-06-12 03:53:00,
2013-06-11 23:54:00,81.2,80.6,29.97,WSW,253,6.0,7.0,98,0.00,,BKN030,0.00,VWS V14.01,2013-06-12 03:54:00,
2013-06-11 23:55:00,81.2,80.6,29.97,WSW,237,5.0,12.0,98,0.00,,BKN030,0.00,VWS V14.01,2013-06-12 03:55:00,
2013-06-11 23:56:00,81.2,80.6,29.97,West,273,4.0,6.0,98,0.00,,BKN030,0.00,VWS V14.01,2013-06-12 03:56:00,
2013-06-11 23:57:00,81.2,80.6,29.97,WSW,248,7.0,10.0,98,0.00,,BKN085,0.00,VWS V14.01,2013-06-12 03:57:00,
2013-06-11 23:58:00,81.2,80.6,29.97,WSW,248,11.0,11.0,98,0.00,,BKN030,0.00,VWS V14.01,2013-06-12 03:58:00,
2013-06-11 23:59:00,81.2,80.6,29.97,SW,223,5.0,11.0,98,0.00,,BKN030,0.00,VWS V14.01,2013-06-12 03:59:00,